﻿<?xml version="1.0" encoding="utf-8"?><gpx creator="Garmin Desktop App" version="1.1" xsi:schemaLocation="http://www.topografix.com/GPX/1/1 http://www.topografix.com/GPX/1/1/gpx.xsd http://www.garmin.com/xmlschemas/WaypointExtension/v1 http://www8.garmin.com/xmlschemas/WaypointExtensionv1.xsd http://www.garmin.com/xmlschemas/TrackPointExtension/v1 http://www.garmin.com/xmlschemas/TrackPointExtensionv1.xsd http://www.garmin.com/xmlschemas/GpxExtensions/v3 http://www8.garmin.com/xmlschemas/GpxExtensionsv3.xsd http://www.garmin.com/xmlschemas/ActivityExtension/v1 http://www8.garmin.com/xmlschemas/ActivityExtensionv1.xsd http://www.garmin.com/xmlschemas/AdventuresExtensions/v1 http://www8.garmin.com/xmlschemas/AdventuresExtensionv1.xsd http://www.garmin.com/xmlschemas/PressureExtension/v1 http://www.garmin.com/xmlschemas/PressureExtensionv1.xsd http://www.garmin.com/xmlschemas/TripExtensions/v1 http://www.garmin.com/xmlschemas/TripExtensionsv1.xsd http://www.garmin.com/xmlschemas/TripMetaDataExtensions/v1 http://www.garmin.com/xmlschemas/TripMetaDataExtensionsv1.xsd http://www.garmin.com/xmlschemas/ViaPointTransportationModeExtensions/v1 http://www.garmin.com/xmlschemas/ViaPointTransportationModeExtensionsv1.xsd http://www.garmin.com/xmlschemas/CreationTimeExtension/v1 http://www.garmin.com/xmlschemas/CreationTimeExtensionsv1.xsd http://www.garmin.com/xmlschemas/AccelerationExtension/v1 http://www.garmin.com/xmlschemas/AccelerationExtensionv1.xsd http://www.garmin.com/xmlschemas/PowerExtension/v1 http://www.garmin.com/xmlschemas/PowerExtensionv1.xsd http://www.garmin.com/xmlschemas/VideoExtension/v1 http://www.garmin.com/xmlschemas/VideoExtensionv1.xsd" xmlns="http://www.topografix.com/GPX/1/1" xmlns:xsi="http://www.w3.org/2001/XMLSchema-instance" xmlns:wptx1="http://www.garmin.com/xmlschemas/WaypointExtension/v1" xmlns:gpxtrx="http://www.garmin.com/xmlschemas/GpxExtensions/v3" xmlns:gpxtpx="http://www.garmin.com/xmlschemas/TrackPointExtension/v1" xmlns:gpxx="http://www.garmin.com/xmlschemas/GpxExtensions/v3" xmlns:trp="http://www.garmin.com/xmlschemas/TripExtensions/v1" xmlns:adv="http://www.garmin.com/xmlschemas/AdventuresExtensions/v1" xmlns:prs="http://www.garmin.com/xmlschemas/PressureExtension/v1" xmlns:tmd="http://www.garmin.com/xmlschemas/TripMetaDataExtensions/v1" xmlns:vptm="http://www.garmin.com/xmlschemas/ViaPointTransportationModeExtensions/v1" xmlns:ctx="http://www.garmin.com/xmlschemas/CreationTimeExtension/v1" xmlns:gpxacc="http://www.garmin.com/xmlschemas/AccelerationExtension/v1" xmlns:gpxpx="http://www.garmin.com/xmlschemas/PowerExtension/v1" xmlns:vidx1="http://www.garmin.com/xmlschemas/VideoExtension/v1">

  <metadata>
    <link href="http://www.garmin.com">
      <text>Garmin International</text>
    </link>
    <time>2018-05-16T15:50:16Z</time>
    <bounds maxlat="50.967186419293284" maxlon="5.630099633708596" minlat="50.933420592918992" minlon="5.531705981120467" />
  </metadata>

  <wpt lat="50.955702541396022" lon="5.531705981120467">
    <ele>83.55078125</ele>
    <time>2016-04-25T10:14:49Z</time>
    <name>kattevenia manege</name>
    <sym>Lodge</sym>
    <type>user</type>
    <extensions>
      <gpxx:WaypointExtension>
        <gpxx:DisplayMode>SymbolAndName</gpxx:DisplayMode>
      </gpxx:WaypointExtension>
      <wptx1:WaypointExtension>
        <wptx1:DisplayMode>SymbolAndName</wptx1:DisplayMode>
      </wptx1:WaypointExtension>
      <ctx:CreationTimeExtension>
        <ctx:CreationTime>2016-04-25T10:14:49Z</ctx:CreationTime>
      </ctx:CreationTimeExtension>
    </extensions>
  </wpt>

  <trk>
    <name>genk kattevenia 25 km</name>
    <extensions>
      <gpxx:TrackExtension>
        <gpxx:DisplayColor>Red</gpxx:DisplayColor>
      </gpxx:TrackExtension>
    </extensions>
    <trkseg>
      <trkpt lat="50.957287894561887" lon="5.533082541078329">
        <ele>78.969999999999999</ele>
        <time>2016-04-23T08:26:31Z</time>
      </trkpt>
      <trkpt lat="50.957293594256043" lon="5.533158984035254">
        <ele>79.450000000000003</ele>
        <time>2016-04-23T08:28:35Z</time>
      </trkpt>
      <trkpt lat="50.957361655309796" lon="5.533426115289331">
        <ele>79.450000000000003</ele>
        <time>2016-04-23T08:28:47Z</time>
      </trkpt>
      <trkpt lat="50.957507668063045" lon="5.533703975379467">
        <ele>81.370000000000005</ele>
        <time>2016-04-23T08:28:57Z</time>
      </trkpt>
      <trkpt lat="50.957347573712468" lon="5.533875469118357">
        <ele>80.409999999999997</ele>
        <time>2016-04-23T08:29:09Z</time>
      </trkpt>
      <trkpt lat="50.957185300067067" lon="5.534081999212503">
        <ele>78.969999999999999</ele>
        <time>2016-04-23T08:29:27Z</time>
      </trkpt>
      <trkpt lat="50.957032246515155" lon="5.53429925814271">
        <ele>79.930000000000007</ele>
        <time>2016-04-23T08:29:41Z</time>
      </trkpt>
      <trkpt lat="50.956978434696794" lon="5.534352567046881">
        <ele>80.890000000000001</ele>
        <time>2016-04-23T08:29:46Z</time>
      </trkpt>
      <trkpt lat="50.956788919866085" lon="5.534646101295948">
        <ele>81.849999999999994</ele>
        <time>2016-04-23T08:30:04Z</time>
      </trkpt>
      <trkpt lat="50.956563111394644" lon="5.534838465973735">
        <ele>83.290000000000006</ele>
        <time>2016-04-23T08:30:21Z</time>
      </trkpt>
      <trkpt lat="50.956286592409015" lon="5.534909795969725">
        <ele>84.730000000000004</ele>
        <time>2016-04-23T08:30:37Z</time>
      </trkpt>
      <trkpt lat="50.956100430339575" lon="5.534979198127985">
        <ele>85.209999999999994</ele>
        <time>2016-04-23T08:30:54Z</time>
      </trkpt>
      <trkpt lat="50.955703966319561" lon="5.535117834806442">
        <ele>85.689999999999998</ele>
        <time>2016-04-23T08:31:25Z</time>
      </trkpt>
      <trkpt lat="50.955500034615397" lon="5.535196037963033">
        <ele>85.689999999999998</ele>
        <time>2016-04-23T08:31:39Z</time>
      </trkpt>
      <trkpt lat="50.955276992172003" lon="5.53530047647655">
        <ele>85.689999999999998</ele>
        <time>2016-04-23T08:31:59Z</time>
      </trkpt>
      <trkpt lat="50.955091752111912" lon="5.53538303822279">
        <ele>85.209999999999994</ele>
        <time>2016-04-23T08:32:16Z</time>
      </trkpt>
      <trkpt lat="50.954898884519935" lon="5.535455290228128">
        <ele>84.730000000000004</ele>
        <time>2016-04-23T08:32:34Z</time>
      </trkpt>
      <trkpt lat="50.954784136265516" lon="5.535416062921286">
        <ele>84.25</ele>
        <time>2016-04-23T08:32:48Z</time>
      </trkpt>
      <trkpt lat="50.954704005271196" lon="5.535393934696913">
        <ele>82.810000000000002</ele>
        <time>2016-04-23T08:33:03Z</time>
      </trkpt>
      <trkpt lat="50.954567966982722" lon="5.535079697147012">
        <ele>79.930000000000007</ele>
        <time>2016-04-23T08:33:18Z</time>
      </trkpt>
      <trkpt lat="50.954484986141324" lon="5.534857492893934">
        <ele>78.969999999999999</ele>
        <time>2016-04-23T08:33:25Z</time>
      </trkpt>
      <trkpt lat="50.954289603978395" lon="5.534382238984108">
        <ele>78.969999999999999</ele>
        <time>2016-04-23T08:33:39Z</time>
      </trkpt>
      <trkpt lat="50.954211233183742" lon="5.534593965858221">
        <ele>80.890000000000001</ele>
        <time>2016-04-23T08:33:56Z</time>
      </trkpt>
      <trkpt lat="50.954143004491925" lon="5.53487878292799">
        <ele>81.370000000000005</ele>
        <time>2016-04-23T08:34:12Z</time>
      </trkpt>
      <trkpt lat="50.95406555570662" lon="5.535178771242499">
        <ele>82.329999999999998</ele>
        <time>2016-04-23T08:34:28Z</time>
      </trkpt>
      <trkpt lat="50.954007469117641" lon="5.535412626340985">
        <ele>82.329999999999998</ele>
        <time>2016-04-23T08:34:44Z</time>
      </trkpt>
      <trkpt lat="50.953882159665227" lon="5.535778915509582">
        <ele>82.810000000000002</ele>
        <time>2016-04-23T08:35:01Z</time>
      </trkpt>
      <trkpt lat="50.953769255429506" lon="5.53616238757968">
        <ele>82.329999999999998</ele>
        <time>2016-04-23T08:35:15Z</time>
      </trkpt>
      <trkpt lat="50.953671187162399" lon="5.53655818104744">
        <ele>82.329999999999998</ele>
        <time>2016-04-23T08:35:31Z</time>
      </trkpt>
      <trkpt lat="50.95356716774404" lon="5.53693444468081">
        <ele>81.849999999999994</ele>
        <time>2016-04-23T08:35:47Z</time>
      </trkpt>
      <trkpt lat="50.953478068113327" lon="5.537180537357926">
        <ele>81.849999999999994</ele>
        <time>2016-04-23T08:35:59Z</time>
      </trkpt>
      <trkpt lat="50.953419310972095" lon="5.537405423820019">
        <ele>82.329999999999998</ele>
        <time>2016-04-23T08:36:11Z</time>
      </trkpt>
      <trkpt lat="50.953381843864918" lon="5.537451943382621">
        <ele>82.329999999999998</ele>
        <time>2016-04-23T08:36:16Z</time>
      </trkpt>
      <trkpt lat="50.953336581587791" lon="5.537500474601984">
        <ele>82.329999999999998</ele>
        <time>2016-04-23T08:36:20Z</time>
      </trkpt>
      <trkpt lat="50.953050004318357" lon="5.537506341934204">
        <ele>81.849999999999994</ele>
        <time>2016-04-23T08:36:36Z</time>
      </trkpt>
      <trkpt lat="50.952804330736399" lon="5.537362592294812">
        <ele>81.849999999999994</ele>
        <time>2016-04-23T08:36:53Z</time>
      </trkpt>
      <trkpt lat="50.952658066526055" lon="5.537241725251079">
        <ele>83.290000000000006</ele>
        <time>2016-04-23T08:37:05Z</time>
      </trkpt>
      <trkpt lat="50.952502079308033" lon="5.537138460204005">
        <ele>81.849999999999994</ele>
        <time>2016-04-23T08:37:17Z</time>
      </trkpt>
      <trkpt lat="50.952302757650614" lon="5.537003092467785">
        <ele>82.329999999999998</ele>
        <time>2016-04-23T08:37:30Z</time>
      </trkpt>
      <trkpt lat="50.952250119298697" lon="5.536964200437069">
        <ele>82.329999999999998</ele>
        <time>2016-04-23T08:37:32Z</time>
      </trkpt>
      <trkpt lat="50.952046858146787" lon="5.536842998117209">
        <ele>82.329999999999998</ele>
        <time>2016-04-23T08:37:47Z</time>
      </trkpt>
      <trkpt lat="50.951828341931105" lon="5.536685502156615">
        <ele>82.329999999999998</ele>
        <time>2016-04-23T08:38:03Z</time>
      </trkpt>
      <trkpt lat="50.951674953103065" lon="5.536572681739926">
        <ele>82.810000000000002</ele>
        <time>2016-04-23T08:38:13Z</time>
      </trkpt>
      <trkpt lat="50.951492311432958" lon="5.536837298423052">
        <ele>83.290000000000006</ele>
        <time>2016-04-23T08:38:33Z</time>
      </trkpt>
      <trkpt lat="50.951269939541817" lon="5.537249939516187">
        <ele>83.290000000000006</ele>
        <time>2016-04-23T08:39:01Z</time>
      </trkpt>
      <trkpt lat="50.951171200722456" lon="5.53740793839097">
        <ele>83.769999999999996</ele>
        <time>2016-04-23T08:39:12Z</time>
      </trkpt>
      <trkpt lat="50.951056033372879" lon="5.537569038569927">
        <ele>82.329999999999998</ele>
        <time>2016-04-23T08:39:23Z</time>
      </trkpt>
      <trkpt lat="50.951048573479056" lon="5.537581611424685">
        <ele>83.769999999999996</ele>
        <time>2016-04-23T08:39:24Z</time>
      </trkpt>
      <trkpt lat="50.950977075845003" lon="5.537741035223007">
        <ele>84.25</ele>
        <time>2016-04-23T08:39:32Z</time>
      </trkpt>
      <trkpt lat="50.950898621231318" lon="5.53788285702467">
        <ele>84.25</ele>
        <time>2016-04-23T08:39:40Z</time>
      </trkpt>
      <trkpt lat="50.950848748907447" lon="5.537981512024999">
        <ele>84.25</ele>
        <time>2016-04-23T08:39:47Z</time>
      </trkpt>
      <trkpt lat="50.95071011222899" lon="5.538236321881414">
        <ele>84.25</ele>
        <time>2016-04-23T08:40:02Z</time>
      </trkpt>
      <trkpt lat="50.950378607958555" lon="5.538851637393236">
        <ele>84.25</ele>
        <time>2016-04-23T08:40:33Z</time>
      </trkpt>
      <trkpt lat="50.950300991535187" lon="5.538998739793897">
        <ele>84.25</ele>
        <time>2016-04-23T08:40:40Z</time>
      </trkpt>
      <trkpt lat="50.95026696100831" lon="5.539072919636965">
        <ele>83.769999999999996</ele>
        <time>2016-04-23T08:40:45Z</time>
      </trkpt>
      <trkpt lat="50.950571810826659" lon="5.539753194898367">
        <ele>84.25</ele>
        <time>2016-04-23T08:41:19Z</time>
      </trkpt>
      <trkpt lat="50.950614558532834" lon="5.540011441335082">
        <ele>84.25</ele>
        <time>2016-04-23T08:41:30Z</time>
      </trkpt>
      <trkpt lat="50.950710363686085" lon="5.54066464304924">
        <ele>84.730000000000004</ele>
        <time>2016-04-23T08:42:00Z</time>
      </trkpt>
      <trkpt lat="50.950776915997267" lon="5.540991621091962">
        <ele>84.25</ele>
        <time>2016-04-23T08:42:14Z</time>
      </trkpt>
      <trkpt lat="50.950796278193593" lon="5.541300997138023">
        <ele>84.25</ele>
        <time>2016-04-23T08:42:28Z</time>
      </trkpt>
      <trkpt lat="50.950796362012625" lon="5.541494535282254">
        <ele>84.25</ele>
        <time>2016-04-23T08:42:40Z</time>
      </trkpt>
      <trkpt lat="50.950789488852024" lon="5.541711375117302">
        <ele>84.25</ele>
        <time>2016-04-23T08:42:52Z</time>
      </trkpt>
      <trkpt lat="50.950885377824306" lon="5.541747082024813">
        <ele>84.25</ele>
        <time>2016-04-23T08:42:53Z</time>
      </trkpt>
      <trkpt lat="50.951586524024606" lon="5.541934501379728">
        <ele>83.769999999999996</ele>
        <time>2016-04-23T08:43:40Z</time>
      </trkpt>
      <trkpt lat="50.951595660299063" lon="5.541940033435822">
        <ele>83.769999999999996</ele>
        <time>2016-04-23T08:43:41Z</time>
      </trkpt>
      <trkpt lat="50.951787102967501" lon="5.542014967650175">
        <ele>83.769999999999996</ele>
        <time>2016-04-23T08:43:56Z</time>
      </trkpt>
      <trkpt lat="50.952015928924084" lon="5.542106498032808">
        <ele>83.290000000000006</ele>
        <time>2016-04-23T08:44:10Z</time>
      </trkpt>
      <trkpt lat="50.952211394906044" lon="5.542164500802755">
        <ele>83.769999999999996</ele>
        <time>2016-04-23T08:44:19Z</time>
      </trkpt>
      <trkpt lat="50.952224219217896" lon="5.542325852438808">
        <ele>84.25</ele>
        <time>2016-04-23T08:44:32Z</time>
      </trkpt>
      <trkpt lat="50.952169485390186" lon="5.54287226870656">
        <ele>83.769999999999996</ele>
        <time>2016-04-23T08:44:55Z</time>
      </trkpt>
      <trkpt lat="50.952075691893697" lon="5.543386833742261">
        <ele>83.769999999999996</ele>
        <time>2016-04-23T08:45:14Z</time>
      </trkpt>
      <trkpt lat="50.951946442946792" lon="5.543395802378655">
        <ele>83.290000000000006</ele>
        <time>2016-04-23T08:45:20Z</time>
      </trkpt>
      <trkpt lat="50.95194342546165" lon="5.543713476508856">
        <ele>83.769999999999996</ele>
        <time>2016-04-23T08:45:35Z</time>
      </trkpt>
      <trkpt lat="50.951950130984187" lon="5.543885640799999">
        <ele>83.769999999999996</ele>
        <time>2016-04-23T08:45:47Z</time>
      </trkpt>
      <trkpt lat="50.95187402330339" lon="5.545212831348181">
        <ele>82.810000000000002</ele>
        <time>2016-04-23T08:46:39Z</time>
      </trkpt>
      <trkpt lat="50.951871760189533" lon="5.545228337869048">
        <ele>82.810000000000002</ele>
        <time>2016-04-23T08:46:42Z</time>
      </trkpt>
      <trkpt lat="50.951869413256645" lon="5.545299081131816">
        <ele>82.810000000000002</ele>
        <time>2016-04-23T08:46:45Z</time>
      </trkpt>
      <trkpt lat="50.951854493469" lon="5.545583143830299">
        <ele>82.810000000000002</ele>
        <time>2016-04-23T08:46:55Z</time>
      </trkpt>
      <trkpt lat="50.951853236183524" lon="5.545640643686056">
        <ele>82.810000000000002</ele>
        <time>2016-04-23T08:46:57Z</time>
      </trkpt>
      <trkpt lat="50.951812081038952" lon="5.546199046075344">
        <ele>82.810000000000002</ele>
        <time>2016-04-23T08:47:10Z</time>
      </trkpt>
      <trkpt lat="50.951799927279353" lon="5.546525102108717">
        <ele>82.810000000000002</ele>
        <time>2016-04-23T08:47:24Z</time>
      </trkpt>
      <trkpt lat="50.951787941157818" lon="5.546621074900031">
        <ele>82.810000000000002</ele>
        <time>2016-04-23T08:47:29Z</time>
      </trkpt>
      <trkpt lat="50.951777128502727" lon="5.546776978299022">
        <ele>82.329999999999998</ele>
        <time>2016-04-23T08:47:37Z</time>
      </trkpt>
      <trkpt lat="50.951588116586208" lon="5.546738253906369">
        <ele>82.329999999999998</ele>
        <time>2016-04-23T08:47:40Z</time>
      </trkpt>
      <trkpt lat="50.951510751619935" lon="5.546728614717722">
        <ele>82.329999999999998</ele>
        <time>2016-04-23T08:47:45Z</time>
      </trkpt>
      <trkpt lat="50.951136248186231" lon="5.54664546623826">
        <ele>81.849999999999994</ele>
        <time>2016-04-23T08:47:57Z</time>
      </trkpt>
      <trkpt lat="50.950688403099775" lon="5.546408090740442">
        <ele>81.849999999999994</ele>
        <time>2016-04-23T08:48:09Z</time>
      </trkpt>
      <trkpt lat="50.950634256005287" lon="5.546387806534767">
        <ele>82.329999999999998</ele>
        <time>2016-04-23T08:48:10Z</time>
      </trkpt>
      <trkpt lat="50.950378188863397" lon="5.54626727476716">
        <ele>82.329999999999998</ele>
        <time>2016-04-23T08:48:19Z</time>
      </trkpt>
      <trkpt lat="50.95036611892283" lon="5.546254282817245">
        <ele>82.329999999999998</ele>
        <time>2016-04-23T08:48:21Z</time>
      </trkpt>
      <trkpt lat="50.950248437002301" lon="5.546185132116079">
        <ele>82.329999999999998</ele>
        <time>2016-04-23T08:48:34Z</time>
      </trkpt>
      <trkpt lat="50.950233433395624" lon="5.546169877052307">
        <ele>82.329999999999998</ele>
        <time>2016-04-23T08:49:02Z</time>
      </trkpt>
      <trkpt lat="50.950192864984274" lon="5.546156466007233">
        <ele>82.329999999999998</ele>
        <time>2016-04-23T08:49:06Z</time>
      </trkpt>
      <trkpt lat="50.950152548030019" lon="5.546164680272341">
        <ele>81.849999999999994</ele>
        <time>2016-04-23T08:49:07Z</time>
      </trkpt>
      <trkpt lat="50.949828503653407" lon="5.546100474894047">
        <ele>81.370000000000005</ele>
        <time>2016-04-23T08:49:17Z</time>
      </trkpt>
      <trkpt lat="50.94936003908515" lon="5.546079855412245">
        <ele>81.370000000000005</ele>
        <time>2016-04-23T08:49:30Z</time>
      </trkpt>
      <trkpt lat="50.948838936164975" lon="5.546078262850642">
        <ele>81.370000000000005</ele>
        <time>2016-04-23T08:49:43Z</time>
      </trkpt>
      <trkpt lat="50.948402071371675" lon="5.546057224273682">
        <ele>81.370000000000005</ele>
        <time>2016-04-23T08:49:55Z</time>
      </trkpt>
      <trkpt lat="50.94796990044415" lon="5.546054961159825">
        <ele>80.890000000000001</ele>
        <time>2016-04-23T08:50:06Z</time>
      </trkpt>
      <trkpt lat="50.947508309036493" lon="5.546011794358492">
        <ele>81.370000000000005</ele>
        <time>2016-04-23T08:50:17Z</time>
      </trkpt>
      <trkpt lat="50.947377970442176" lon="5.545974913984537">
        <ele>80.890000000000001</ele>
        <time>2016-04-23T08:50:20Z</time>
      </trkpt>
      <trkpt lat="50.947326002642512" lon="5.545961335301399">
        <ele>80.890000000000001</ele>
        <time>2016-04-23T08:50:21Z</time>
      </trkpt>
      <trkpt lat="50.947269340977073" lon="5.545945409685373">
        <ele>81.370000000000005</ele>
        <time>2016-04-23T08:50:22Z</time>
      </trkpt>
      <trkpt lat="50.947161549702287" lon="5.54590173996985">
        <ele>80.890000000000001</ele>
        <time>2016-04-23T08:50:24Z</time>
      </trkpt>
      <trkpt lat="50.946900201961398" lon="5.545829655602574">
        <ele>80.409999999999997</ele>
        <time>2016-04-23T08:50:30Z</time>
      </trkpt>
      <trkpt lat="50.946858208626509" lon="5.545819597318769">
        <ele>80.409999999999997</ele>
        <time>2016-04-23T08:50:31Z</time>
      </trkpt>
      <trkpt lat="50.946815880015492" lon="5.54580987431109">
        <ele>79.930000000000007</ele>
        <time>2016-04-23T08:50:32Z</time>
      </trkpt>
      <trkpt lat="50.946768270805478" lon="5.545793948695064">
        <ele>80.409999999999997</ele>
        <time>2016-04-23T08:50:33Z</time>
      </trkpt>
      <trkpt lat="50.9467204939574" lon="5.545778190717101">
        <ele>80.409999999999997</ele>
        <time>2016-04-23T08:50:34Z</time>
      </trkpt>
      <trkpt lat="50.946674477308989" lon="5.545768970623612">
        <ele>79.930000000000007</ele>
        <time>2016-04-23T08:50:35Z</time>
      </trkpt>
      <trkpt lat="50.94662812538445" lon="5.545764276757836">
        <ele>79.930000000000007</ele>
        <time>2016-04-23T08:50:36Z</time>
      </trkpt>
      <trkpt lat="50.946580432355404" lon="5.545763354748488">
        <ele>79.930000000000007</ele>
        <time>2016-04-23T08:50:37Z</time>
      </trkpt>
      <trkpt lat="50.946530727669597" lon="5.545763019472361">
        <ele>79.930000000000007</ele>
        <time>2016-04-23T08:50:38Z</time>
      </trkpt>
      <trkpt lat="50.946482447907329" lon="5.545762265101075">
        <ele>80.409999999999997</ele>
        <time>2016-04-23T08:50:39Z</time>
      </trkpt>
      <trkpt lat="50.946432827040553" lon="5.545762097463012">
        <ele>79.930000000000007</ele>
        <time>2016-04-23T08:50:40Z</time>
      </trkpt>
      <trkpt lat="50.94612730666995" lon="5.545803420245647">
        <ele>80.409999999999997</ele>
        <time>2016-04-23T08:50:50Z</time>
      </trkpt>
      <trkpt lat="50.946033177897334" lon="5.545815322548151">
        <ele>80.409999999999997</ele>
        <time>2016-04-23T08:50:56Z</time>
      </trkpt>
      <trkpt lat="50.94594307243824" lon="5.545855388045311">
        <ele>80.409999999999997</ele>
        <time>2016-04-23T08:51:03Z</time>
      </trkpt>
      <trkpt lat="50.945886662229896" lon="5.545853041112423">
        <ele>79.930000000000007</ele>
        <time>2016-04-23T08:51:08Z</time>
      </trkpt>
      <trkpt lat="50.945855565369129" lon="5.545858070254326">
        <ele>80.409999999999997</ele>
        <time>2016-04-23T08:51:10Z</time>
      </trkpt>
      <trkpt lat="50.945764873176813" lon="5.545866452157497">
        <ele>79.930000000000007</ele>
        <time>2016-04-23T08:51:17Z</time>
      </trkpt>
      <trkpt lat="50.945700667798519" lon="5.545879863202572">
        <ele>80.409999999999997</ele>
        <time>2016-04-23T08:51:21Z</time>
      </trkpt>
      <trkpt lat="50.945608215406537" lon="5.545916073024273">
        <ele>79.930000000000007</ele>
        <time>2016-04-23T08:51:27Z</time>
      </trkpt>
      <trkpt lat="50.945575525984168" lon="5.545966867357492">
        <ele>80.409999999999997</ele>
        <time>2016-04-23T08:51:30Z</time>
      </trkpt>
      <trkpt lat="50.945507884025574" lon="5.546050602570176">
        <ele>80.409999999999997</ele>
        <time>2016-04-23T08:51:36Z</time>
      </trkpt>
      <trkpt lat="50.94548424705863" lon="5.546102318912745">
        <ele>79.930000000000007</ele>
        <time>2016-04-23T08:51:39Z</time>
      </trkpt>
      <trkpt lat="50.945442253723741" lon="5.546164764091373">
        <ele>79.930000000000007</ele>
        <time>2016-04-23T08:51:43Z</time>
      </trkpt>
      <trkpt lat="50.945426998659968" lon="5.546179097145796">
        <ele>78</ele>
        <time>2016-04-23T08:51:44Z</time>
      </trkpt>
      <trkpt lat="50.945414425805211" lon="5.546191837638617">
        <ele>82.329999999999998</ele>
        <time>2016-04-23T08:51:45Z</time>
      </trkpt>
      <trkpt lat="50.9454011823982" lon="5.546208098530769">
        <ele>77.040000000000006</ele>
        <time>2016-04-23T08:51:46Z</time>
      </trkpt>
      <trkpt lat="50.945373186841607" lon="5.546234585344791">
        <ele>80.890000000000001</ele>
        <time>2016-04-23T08:51:48Z</time>
      </trkpt>
      <trkpt lat="50.945352399721742" lon="5.546288648620248">
        <ele>75.599999999999994</ele>
        <time>2016-04-23T08:51:51Z</time>
      </trkpt>
      <trkpt lat="50.945347119122744" lon="5.546309519559145">
        <ele>80.409999999999997</ele>
        <time>2016-04-23T08:51:52Z</time>
      </trkpt>
      <trkpt lat="50.945329433307052" lon="5.546357799321413">
        <ele>80.890000000000001</ele>
        <time>2016-04-23T08:51:54Z</time>
      </trkpt>
      <trkpt lat="50.945281237363815" lon="5.54649299941957">
        <ele>80.409999999999997</ele>
        <time>2016-04-23T08:52:01Z</time>
      </trkpt>
      <trkpt lat="50.945229772478342" lon="5.54678619839251">
        <ele>79.930000000000007</ele>
        <time>2016-04-23T08:52:15Z</time>
      </trkpt>
      <trkpt lat="50.945167914032936" lon="5.546954339370132">
        <ele>79.930000000000007</ele>
        <time>2016-04-23T08:52:24Z</time>
      </trkpt>
      <trkpt lat="50.945152323693037" lon="5.546989208087325">
        <ele>79.930000000000007</ele>
        <time>2016-04-23T08:52:26Z</time>
      </trkpt>
      <trkpt lat="50.945143857970834" lon="5.547017036005855">
        <ele>79.930000000000007</ele>
        <time>2016-04-23T08:52:27Z</time>
      </trkpt>
      <trkpt lat="50.945056937634945" lon="5.547280227765441">
        <ele>80.409999999999997</ele>
        <time>2016-04-23T08:52:39Z</time>
      </trkpt>
      <trkpt lat="50.945006227120757" lon="5.547447195276618">
        <ele>80.409999999999997</ele>
        <time>2016-04-23T08:52:46Z</time>
      </trkpt>
      <trkpt lat="50.944996168836951" lon="5.547470664605498">
        <ele>80.890000000000001</ele>
        <time>2016-04-23T08:52:47Z</time>
      </trkpt>
      <trkpt lat="50.944988708943129" lon="5.547488937154412">
        <ele>80.409999999999997</ele>
        <time>2016-04-23T08:52:48Z</time>
      </trkpt>
      <trkpt lat="50.944981416687369" lon="5.547512322664261">
        <ele>80.409999999999997</ele>
        <time>2016-04-23T08:52:49Z</time>
      </trkpt>
      <trkpt lat="50.944975800812244" lon="5.547534702345729">
        <ele>80.409999999999997</ele>
        <time>2016-04-23T08:52:50Z</time>
      </trkpt>
      <trkpt lat="50.944969765841961" lon="5.547561189159751">
        <ele>80.409999999999997</ele>
        <time>2016-04-23T08:52:51Z</time>
      </trkpt>
      <trkpt lat="50.944963395595551" lon="5.547585748136044">
        <ele>80.409999999999997</ele>
        <time>2016-04-23T08:52:52Z</time>
      </trkpt>
      <trkpt lat="50.944954846054316" lon="5.547606786713004">
        <ele>80.409999999999997</ele>
        <time>2016-04-23T08:52:53Z</time>
      </trkpt>
      <trkpt lat="50.944946380332112" lon="5.54762028157711">
        <ele>80.409999999999997</ele>
        <time>2016-04-23T08:52:54Z</time>
      </trkpt>
      <trkpt lat="50.944935483857989" lon="5.547648193314672">
        <ele>80.409999999999997</ele>
        <time>2016-04-23T08:52:55Z</time>
      </trkpt>
      <trkpt lat="50.944924503564835" lon="5.547674177214503">
        <ele>80.409999999999997</ele>
        <time>2016-04-23T08:52:56Z</time>
      </trkpt>
      <trkpt lat="50.944919055327773" lon="5.54769404232502">
        <ele>80.409999999999997</ele>
        <time>2016-04-23T08:52:57Z</time>
      </trkpt>
      <trkpt lat="50.944835655391216" lon="5.547983050346375">
        <ele>80.890000000000001</ele>
        <time>2016-04-23T08:53:12Z</time>
      </trkpt>
      <trkpt lat="50.944788968190551" lon="5.548108611255884">
        <ele>80.890000000000001</ele>
        <time>2016-04-23T08:53:18Z</time>
      </trkpt>
      <trkpt lat="50.944742448627949" lon="5.548292258754373">
        <ele>80.890000000000001</ele>
        <time>2016-04-23T08:53:28Z</time>
      </trkpt>
      <trkpt lat="50.944711938500404" lon="5.548353446647525">
        <ele>80.890000000000001</ele>
        <time>2016-04-23T08:53:31Z</time>
      </trkpt>
      <trkpt lat="50.944705735892057" lon="5.548373144119978">
        <ele>80.890000000000001</ele>
        <time>2016-04-23T08:53:32Z</time>
      </trkpt>
      <trkpt lat="50.944697605445981" lon="5.548397786915302">
        <ele>80.890000000000001</ele>
        <time>2016-04-23T08:53:33Z</time>
      </trkpt>
      <trkpt lat="50.94461009837687" lon="5.548690818250179">
        <ele>81.370000000000005</ele>
        <time>2016-04-23T08:53:46Z</time>
      </trkpt>
      <trkpt lat="50.944573888555169" lon="5.54885602556169">
        <ele>80.890000000000001</ele>
        <time>2016-04-23T08:53:54Z</time>
      </trkpt>
      <trkpt lat="50.944518484175205" lon="5.549095747992396">
        <ele>81.370000000000005</ele>
        <time>2016-04-23T08:54:06Z</time>
      </trkpt>
      <trkpt lat="50.944439359009266" lon="5.549292303621769">
        <ele>81.370000000000005</ele>
        <time>2016-04-23T08:54:20Z</time>
      </trkpt>
      <trkpt lat="50.94440289773047" lon="5.549424653872848">
        <ele>81.370000000000005</ele>
        <time>2016-04-23T08:54:22Z</time>
      </trkpt>
      <trkpt lat="50.944359144195914" lon="5.549928490072489">
        <ele>81.370000000000005</ele>
        <time>2016-04-23T08:54:34Z</time>
      </trkpt>
      <trkpt lat="50.944354701787233" lon="5.549982385709882">
        <ele>81.370000000000005</ele>
        <time>2016-04-23T08:54:36Z</time>
      </trkpt>
      <trkpt lat="50.944351013749838" lon="5.550013482570648">
        <ele>81.370000000000005</ele>
        <time>2016-04-23T08:54:37Z</time>
      </trkpt>
      <trkpt lat="50.944352187216282" lon="5.550046339631081">
        <ele>81.370000000000005</ele>
        <time>2016-04-23T08:54:38Z</time>
      </trkpt>
      <trkpt lat="50.944351349025965" lon="5.550073413178325">
        <ele>81.370000000000005</ele>
        <time>2016-04-23T08:54:39Z</time>
      </trkpt>
      <trkpt lat="50.944347158074379" lon="5.550094870850444">
        <ele>81.849999999999994</ele>
        <time>2016-04-23T08:54:40Z</time>
      </trkpt>
      <trkpt lat="50.944344392046332" lon="5.550117418169975">
        <ele>81.849999999999994</ele>
        <time>2016-04-23T08:54:41Z</time>
      </trkpt>
      <trkpt lat="50.944298962131143" lon="5.550495944917202">
        <ele>81.849999999999994</ele>
        <time>2016-04-23T08:54:56Z</time>
      </trkpt>
      <trkpt lat="50.944183710962534" lon="5.550835411995649">
        <ele>81.370000000000005</ele>
        <time>2016-04-23T08:55:13Z</time>
      </trkpt>
      <trkpt lat="50.944134593009949" lon="5.551237743347883">
        <ele>81.370000000000005</ele>
        <time>2016-04-23T08:55:28Z</time>
      </trkpt>
      <trkpt lat="50.944100562483072" lon="5.551331620663405">
        <ele>81.370000000000005</ele>
        <time>2016-04-23T08:55:33Z</time>
      </trkpt>
      <trkpt lat="50.944086983799934" lon="5.551353497430682">
        <ele>81.370000000000005</ele>
        <time>2016-04-23T08:55:34Z</time>
      </trkpt>
      <trkpt lat="50.944073237478733" lon="5.551373697817326">
        <ele>81.370000000000005</ele>
        <time>2016-04-23T08:55:35Z</time>
      </trkpt>
      <trkpt lat="50.943951867520809" lon="5.551586598157883">
        <ele>81.370000000000005</ele>
        <time>2016-04-23T08:55:50Z</time>
      </trkpt>
      <trkpt lat="50.943938791751862" lon="5.551604451611638">
        <ele>80.890000000000001</ele>
        <time>2016-04-23T08:55:51Z</time>
      </trkpt>
      <trkpt lat="50.94392110593617" lon="5.551630603149533">
        <ele>81.370000000000005</ele>
        <time>2016-04-23T08:55:52Z</time>
      </trkpt>
      <trkpt lat="50.943778026849031" lon="5.551926651969552">
        <ele>81.849999999999994</ele>
        <time>2016-04-23T08:56:05Z</time>
      </trkpt>
      <trkpt lat="50.943681551143527" lon="5.552170732989907">
        <ele>81.849999999999994</ele>
        <time>2016-04-23T08:56:18Z</time>
      </trkpt>
      <trkpt lat="50.943786827847362" lon="5.552444150671363">
        <ele>82.329999999999998</ele>
        <time>2016-04-23T08:56:31Z</time>
      </trkpt>
      <trkpt lat="50.943945161998272" lon="5.552665516734123">
        <ele>81.849999999999994</ele>
        <time>2016-04-23T08:56:47Z</time>
      </trkpt>
      <trkpt lat="50.944126630201936" lon="5.552952596917749">
        <ele>81.849999999999994</ele>
        <time>2016-04-23T08:57:02Z</time>
      </trkpt>
      <trkpt lat="50.944251185283065" lon="5.55315937846899">
        <ele>81.849999999999994</ele>
        <time>2016-04-23T08:57:13Z</time>
      </trkpt>
      <trkpt lat="50.944419242441654" lon="5.553398011252284">
        <ele>81.370000000000005</ele>
        <time>2016-04-23T08:57:28Z</time>
      </trkpt>
      <trkpt lat="50.944427708163857" lon="5.553414104506373">
        <ele>81.370000000000005</ele>
        <time>2016-04-23T08:57:29Z</time>
      </trkpt>
      <trkpt lat="50.944447992369533" lon="5.553449811413884">
        <ele>81.370000000000005</ele>
        <time>2016-04-23T08:57:31Z</time>
      </trkpt>
      <trkpt lat="50.94446986913681" lon="5.55348333902657">
        <ele>81.370000000000005</ele>
        <time>2016-04-23T08:57:33Z</time>
      </trkpt>
      <trkpt lat="50.944495433941483" lon="5.553521811962128">
        <ele>81.370000000000005</ele>
        <time>2016-04-23T08:57:35Z</time>
      </trkpt>
      <trkpt lat="50.944504486396909" lon="5.553542599081993">
        <ele>81.370000000000005</ele>
        <time>2016-04-23T08:57:36Z</time>
      </trkpt>
      <trkpt lat="50.944591658189893" lon="5.553734125569463">
        <ele>81.370000000000005</ele>
        <time>2016-04-23T08:57:48Z</time>
      </trkpt>
      <trkpt lat="50.944601716473699" lon="5.55374862626195">
        <ele>81.370000000000005</ele>
        <time>2016-04-23T08:57:49Z</time>
      </trkpt>
      <trkpt lat="50.944695342332125" lon="5.553859351202846">
        <ele>81.370000000000005</ele>
        <time>2016-04-23T08:57:59Z</time>
      </trkpt>
      <trkpt lat="50.944828363135457" lon="5.553876031190157">
        <ele>81.370000000000005</ele>
        <time>2016-04-23T08:58:13Z</time>
      </trkpt>
      <trkpt lat="50.944852083921432" lon="5.553854154422879">
        <ele>81.370000000000005</ele>
        <time>2016-04-23T08:58:16Z</time>
      </trkpt>
      <trkpt lat="50.944865411147475" lon="5.553839989006519">
        <ele>81.849999999999994</ele>
        <time>2016-04-23T08:58:17Z</time>
      </trkpt>
      <trkpt lat="50.94487689435482" lon="5.553825236856937">
        <ele>81.849999999999994</ele>
        <time>2016-04-23T08:58:18Z</time>
      </trkpt>
      <trkpt lat="50.944890137761831" lon="5.553810568526387">
        <ele>81.370000000000005</ele>
        <time>2016-04-23T08:58:19Z</time>
      </trkpt>
      <trkpt lat="50.944906733930111" lon="5.553798582404852">
        <ele>81.849999999999994</ele>
        <time>2016-04-23T08:58:20Z</time>
      </trkpt>
      <trkpt lat="50.944919222965837" lon="5.553781231865287">
        <ele>81.849999999999994</ele>
        <time>2016-04-23T08:58:21Z</time>
      </trkpt>
      <trkpt lat="50.945072611793876" lon="5.553692635148764">
        <ele>81.849999999999994</ele>
        <time>2016-04-23T08:58:34Z</time>
      </trkpt>
      <trkpt lat="50.94550184905529" lon="5.553654916584492">
        <ele>82.329999999999998</ele>
        <time>2016-04-23T08:59:07Z</time>
      </trkpt>
      <trkpt lat="50.945570413023233" lon="5.553658436983824">
        <ele>82.810000000000002</ele>
        <time>2016-04-23T08:59:11Z</time>
      </trkpt>
      <trkpt lat="50.945637049153447" lon="5.553657934069634">
        <ele>83.290000000000006</ele>
        <time>2016-04-23T08:59:15Z</time>
      </trkpt>
      <trkpt lat="50.945650124922395" lon="5.553657598793507">
        <ele>83.290000000000006</ele>
        <time>2016-04-23T08:59:16Z</time>
      </trkpt>
      <trkpt lat="50.945780547335744" lon="5.553753487765789">
        <ele>82.810000000000002</ele>
        <time>2016-04-23T08:59:25Z</time>
      </trkpt>
      <trkpt lat="50.945829330012202" lon="5.553820626810193">
        <ele>82.810000000000002</ele>
        <time>2016-04-23T08:59:30Z</time>
      </trkpt>
      <trkpt lat="50.945770991966128" lon="5.553921712562442">
        <ele>82.810000000000002</ele>
        <time>2016-04-23T08:59:31Z</time>
      </trkpt>
      <trkpt lat="50.94560737721622" lon="5.554317506030202">
        <ele>82.329999999999998</ele>
        <time>2016-04-23T08:59:54Z</time>
      </trkpt>
      <trkpt lat="50.94556680880487" lon="5.554409623146057">
        <ele>82.329999999999998</ele>
        <time>2016-04-23T08:59:58Z</time>
      </trkpt>
      <trkpt lat="50.945551721379161" lon="5.554433427751064">
        <ele>82.329999999999998</ele>
        <time>2016-04-23T08:59:59Z</time>
      </trkpt>
      <trkpt lat="50.945530347526073" lon="5.554488999769092">
        <ele>82.329999999999998</ele>
        <time>2016-04-23T09:00:02Z</time>
      </trkpt>
      <trkpt lat="50.945511069148779" lon="5.55453241802752">
        <ele>82.329999999999998</ele>
        <time>2016-04-23T09:00:04Z</time>
      </trkpt>
      <trkpt lat="50.945498663932085" lon="5.554553037509322">
        <ele>82.329999999999998</ele>
        <time>2016-04-23T09:00:05Z</time>
      </trkpt>
      <trkpt lat="50.945366565138102" lon="5.554807763546705">
        <ele>81.849999999999994</ele>
        <time>2016-04-23T09:00:19Z</time>
      </trkpt>
      <trkpt lat="50.945226168259978" lon="5.555122001096606">
        <ele>81.849999999999994</ele>
        <time>2016-04-23T09:00:33Z</time>
      </trkpt>
      <trkpt lat="50.945075294002891" lon="5.555429616943002">
        <ele>81.849999999999994</ele>
        <time>2016-04-23T09:00:46Z</time>
      </trkpt>
      <trkpt lat="50.944979572668672" lon="5.555644193664193">
        <ele>81.849999999999994</ele>
        <time>2016-04-23T09:00:57Z</time>
      </trkpt>
      <trkpt lat="50.944891897961497" lon="5.555840581655502">
        <ele>81.370000000000005</ele>
        <time>2016-04-23T09:01:08Z</time>
      </trkpt>
      <trkpt lat="50.944850156083703" lon="5.555922389030457">
        <ele>81.370000000000005</ele>
        <time>2016-04-23T09:01:12Z</time>
      </trkpt>
      <trkpt lat="50.944804726168513" lon="5.5560134164989">
        <ele>81.370000000000005</ele>
        <time>2016-04-23T09:01:16Z</time>
      </trkpt>
      <trkpt lat="50.944663742557168" lon="5.556315835565329">
        <ele>81.370000000000005</ele>
        <time>2016-04-23T09:01:30Z</time>
      </trkpt>
      <trkpt lat="50.944537259638309" lon="5.55659000761807">
        <ele>81.849999999999994</ele>
        <time>2016-04-23T09:01:44Z</time>
      </trkpt>
      <trkpt lat="50.944419577717781" lon="5.556828640401363">
        <ele>81.849999999999994</ele>
        <time>2016-04-23T09:01:57Z</time>
      </trkpt>
      <trkpt lat="50.94424506649375" lon="5.55726483464241">
        <ele>82.329999999999998</ele>
        <time>2016-04-23T09:02:14Z</time>
      </trkpt>
      <trkpt lat="50.944129228591919" lon="5.557533307000995">
        <ele>82.810000000000002</ele>
        <time>2016-04-23T09:02:28Z</time>
      </trkpt>
      <trkpt lat="50.944035854190588" lon="5.557807059958577">
        <ele>83.290000000000006</ele>
        <time>2016-04-23T09:02:42Z</time>
      </trkpt>
      <trkpt lat="50.943937283009291" lon="5.558100091293454">
        <ele>83.769999999999996</ele>
        <time>2016-04-23T09:02:57Z</time>
      </trkpt>
      <trkpt lat="50.943845836445689" lon="5.558360433205962">
        <ele>83.769999999999996</ele>
        <time>2016-04-23T09:03:11Z</time>
      </trkpt>
      <trkpt lat="50.943805351853371" lon="5.558514576405287">
        <ele>83.769999999999996</ele>
        <time>2016-04-23T09:03:19Z</time>
      </trkpt>
      <trkpt lat="50.943788923323154" lon="5.558581044897437">
        <ele>83.769999999999996</ele>
        <time>2016-04-23T09:03:22Z</time>
      </trkpt>
      <trkpt lat="50.9437002427876" lon="5.558908777311444">
        <ele>83.290000000000006</ele>
        <time>2016-04-23T09:03:36Z</time>
      </trkpt>
      <trkpt lat="50.943592367693782" lon="5.559181775897741">
        <ele>83.769999999999996</ele>
        <time>2016-04-23T09:03:49Z</time>
      </trkpt>
      <trkpt lat="50.943534700199962" lon="5.559362825006247">
        <ele>83.769999999999996</ele>
        <time>2016-04-23T09:03:56Z</time>
      </trkpt>
      <trkpt lat="50.943460436537862" lon="5.559386964887381">
        <ele>83.769999999999996</ele>
        <time>2016-04-23T09:04:00Z</time>
      </trkpt>
      <trkpt lat="50.943403942510486" lon="5.559781920164824">
        <ele>82.810000000000002</ele>
        <time>2016-04-23T09:04:15Z</time>
      </trkpt>
      <trkpt lat="50.943330097943544" lon="5.55995274335146">
        <ele>82.810000000000002</ele>
        <time>2016-04-23T09:04:29Z</time>
      </trkpt>
      <trkpt lat="50.943219121545553" lon="5.560185173526406">
        <ele>82.810000000000002</ele>
        <time>2016-04-23T09:04:43Z</time>
      </trkpt>
      <trkpt lat="50.943159274756908" lon="5.560382902622223">
        <ele>82.810000000000002</ele>
        <time>2016-04-23T09:04:56Z</time>
      </trkpt>
      <trkpt lat="50.943139744922519" lon="5.560510810464621">
        <ele>82.810000000000002</ele>
        <time>2016-04-23T09:05:01Z</time>
      </trkpt>
      <trkpt lat="50.943087106570601" lon="5.560800321400166">
        <ele>82.810000000000002</ele>
        <time>2016-04-23T09:05:14Z</time>
      </trkpt>
      <trkpt lat="50.943020638078451" lon="5.561168035492301">
        <ele>83.290000000000006</ele>
        <time>2016-04-23T09:05:29Z</time>
      </trkpt>
      <trkpt lat="50.942981662228703" lon="5.561443381011486">
        <ele>83.290000000000006</ele>
        <time>2016-04-23T09:05:42Z</time>
      </trkpt>
      <trkpt lat="50.942900776863098" lon="5.561833139508963">
        <ele>83.290000000000006</ele>
        <time>2016-04-23T09:05:58Z</time>
      </trkpt>
      <trkpt lat="50.942880576476455" lon="5.561932884156704">
        <ele>83.769999999999996</ele>
        <time>2016-04-23T09:06:01Z</time>
      </trkpt>
      <trkpt lat="50.942816957831383" lon="5.562253575772047">
        <ele>84.25</ele>
        <time>2016-04-23T09:06:17Z</time>
      </trkpt>
      <trkpt lat="50.94265216961503" lon="5.563072739169002">
        <ele>84.730000000000004</ele>
        <time>2016-04-23T09:06:52Z</time>
      </trkpt>
      <trkpt lat="50.942586623132229" lon="5.563441878184676">
        <ele>84.730000000000004</ele>
        <time>2016-04-23T09:07:06Z</time>
      </trkpt>
      <trkpt lat="50.942558627575636" lon="5.563751170411706">
        <ele>84.730000000000004</ele>
        <time>2016-04-23T09:07:18Z</time>
      </trkpt>
      <trkpt lat="50.942499870434403" lon="5.564250815659761">
        <ele>84.730000000000004</ele>
        <time>2016-04-23T09:07:41Z</time>
      </trkpt>
      <trkpt lat="50.942488638684154" lon="5.564314853399992">
        <ele>85.209999999999994</ele>
        <time>2016-04-23T09:07:44Z</time>
      </trkpt>
      <trkpt lat="50.942462235689163" lon="5.564348045736551">
        <ele>84.730000000000004</ele>
        <time>2016-04-23T09:07:46Z</time>
      </trkpt>
      <trkpt lat="50.942355114966631" lon="5.564332874491811">
        <ele>84.730000000000004</ele>
        <time>2016-04-23T09:07:59Z</time>
      </trkpt>
      <trkpt lat="50.942329298704863" lon="5.564307561144233">
        <ele>84.730000000000004</ele>
        <time>2016-04-23T09:08:06Z</time>
      </trkpt>
      <trkpt lat="50.942295016720891" lon="5.564222065731883">
        <ele>84.25</ele>
        <time>2016-04-23T09:08:11Z</time>
      </trkpt>
      <trkpt lat="50.94215570949018" lon="5.563842868432403">
        <ele>83.769999999999996</ele>
        <time>2016-04-23T09:08:28Z</time>
      </trkpt>
      <trkpt lat="50.942140622064471" lon="5.563792828470469">
        <ele>84.25</ele>
        <time>2016-04-23T09:08:30Z</time>
      </trkpt>
      <trkpt lat="50.941856391727924" lon="5.562498578801751">
        <ele>82.329999999999998</ele>
        <time>2016-04-23T09:09:26Z</time>
      </trkpt>
      <trkpt lat="50.941775841638446" lon="5.562291964888573">
        <ele>81.849999999999994</ele>
        <time>2016-04-23T09:09:37Z</time>
      </trkpt>
      <trkpt lat="50.941614909097552" lon="5.562645932659507">
        <ele>81.849999999999994</ele>
        <time>2016-04-23T09:09:44Z</time>
      </trkpt>
      <trkpt lat="50.941588841378689" lon="5.562721453607082">
        <ele>82.329999999999998</ele>
        <time>2016-04-23T09:10:01Z</time>
      </trkpt>
      <trkpt lat="50.941463615745306" lon="5.563147338107228">
        <ele>82.329999999999998</ele>
        <time>2016-04-23T09:10:31Z</time>
      </trkpt>
      <trkpt lat="50.941333193331957" lon="5.563461994752288">
        <ele>82.810000000000002</ele>
        <time>2016-04-23T09:10:43Z</time>
      </trkpt>
      <trkpt lat="50.941273765638471" lon="5.56359501555562">
        <ele>83.290000000000006</ele>
        <time>2016-04-23T09:10:48Z</time>
      </trkpt>
      <trkpt lat="50.941037312150002" lon="5.56430839933455">
        <ele>84.730000000000004</ele>
        <time>2016-04-23T09:11:25Z</time>
      </trkpt>
      <trkpt lat="50.94098836183548" lon="5.564451143145561">
        <ele>83.769999999999996</ele>
        <time>2016-04-23T09:11:29Z</time>
      </trkpt>
      <trkpt lat="50.94018654897809" lon="5.56633916683495">
        <ele>85.209999999999994</ele>
        <time>2016-04-23T09:13:05Z</time>
      </trkpt>
      <trkpt lat="50.940072052180767" lon="5.566480653360486">
        <ele>85.209999999999994</ele>
        <time>2016-04-23T09:13:20Z</time>
      </trkpt>
      <trkpt lat="50.93964759260416" lon="5.566473361104727">
        <ele>85.209999999999994</ele>
        <time>2016-04-23T09:13:38Z</time>
      </trkpt>
      <trkpt lat="50.939615489915013" lon="5.566464560106397">
        <ele>85.209999999999994</ele>
        <time>2016-04-23T09:13:40Z</time>
      </trkpt>
      <trkpt lat="50.939568299800158" lon="5.566413598135114">
        <ele>85.689999999999998</ele>
        <time>2016-04-23T09:13:44Z</time>
      </trkpt>
      <trkpt lat="50.939456149935722" lon="5.566082512959838">
        <ele>85.689999999999998</ele>
        <time>2016-04-23T09:13:58Z</time>
      </trkpt>
      <trkpt lat="50.939414240419865" lon="5.565929291769862">
        <ele>85.689999999999998</ele>
        <time>2016-04-23T09:14:06Z</time>
      </trkpt>
      <trkpt lat="50.939359338954091" lon="5.565800881013274">
        <ele>85.209999999999994</ele>
        <time>2016-04-23T09:14:13Z</time>
      </trkpt>
      <trkpt lat="50.939071588218212" lon="5.565334260463715">
        <ele>85.209999999999994</ele>
        <time>2016-04-23T09:14:43Z</time>
      </trkpt>
      <trkpt lat="50.938895652070642" lon="5.565103590488434">
        <ele>85.209999999999994</ele>
        <time>2016-04-23T09:14:59Z</time>
      </trkpt>
      <trkpt lat="50.938820634037256" lon="5.565009210258722">
        <ele>84.730000000000004</ele>
        <time>2016-04-23T09:15:08Z</time>
      </trkpt>
      <trkpt lat="50.938667831942439" lon="5.564795136451721">
        <ele>84.730000000000004</ele>
        <time>2016-04-23T09:15:21Z</time>
      </trkpt>
      <trkpt lat="50.938596921041608" lon="5.564705869182944">
        <ele>84.730000000000004</ele>
        <time>2016-04-23T09:15:31Z</time>
      </trkpt>
      <trkpt lat="50.938425678759813" lon="5.564983896911144">
        <ele>84.730000000000004</ele>
        <time>2016-04-23T09:15:45Z</time>
      </trkpt>
      <trkpt lat="50.938297351822257" lon="5.565253626555204">
        <ele>84.730000000000004</ele>
        <time>2016-04-23T09:16:01Z</time>
      </trkpt>
      <trkpt lat="50.938253430649638" lon="5.565366698428989">
        <ele>84.730000000000004</ele>
        <time>2016-04-23T09:16:09Z</time>
      </trkpt>
      <trkpt lat="50.938115464523435" lon="5.56571907363832">
        <ele>84.730000000000004</ele>
        <time>2016-04-23T09:16:23Z</time>
      </trkpt>
      <trkpt lat="50.938024939969182" lon="5.566014787182212">
        <ele>84.730000000000004</ele>
        <time>2016-04-23T09:16:38Z</time>
      </trkpt>
      <trkpt lat="50.938020581379533" lon="5.56603766977787">
        <ele>84.730000000000004</ele>
        <time>2016-04-23T09:16:39Z</time>
      </trkpt>
      <trkpt lat="50.937897451221943" lon="5.566335311159492">
        <ele>84.730000000000004</ele>
        <time>2016-04-23T09:16:52Z</time>
      </trkpt>
      <trkpt lat="50.937858559191227" lon="5.56644075550139">
        <ele>84.730000000000004</ele>
        <time>2016-04-23T09:17:01Z</time>
      </trkpt>
      <trkpt lat="50.937752109020948" lon="5.566699169576168">
        <ele>85.209999999999994</ele>
        <time>2016-04-23T09:17:14Z</time>
      </trkpt>
      <trkpt lat="50.937657477334142" lon="5.566913997754455">
        <ele>85.689999999999998</ele>
        <time>2016-04-23T09:17:25Z</time>
      </trkpt>
      <trkpt lat="50.937637444585562" lon="5.566962864249945">
        <ele>84.730000000000004</ele>
        <time>2016-04-23T09:17:27Z</time>
      </trkpt>
      <trkpt lat="50.937361428514123" lon="5.567476926371455">
        <ele>84.25</ele>
        <time>2016-04-23T09:17:58Z</time>
      </trkpt>
      <trkpt lat="50.936894556507468" lon="5.568462302908301">
        <ele>84.730000000000004</ele>
        <time>2016-04-23T09:18:56Z</time>
      </trkpt>
      <trkpt lat="50.936837643384933" lon="5.568642681464553">
        <ele>85.209999999999994</ele>
        <time>2016-04-23T09:19:05Z</time>
      </trkpt>
      <trkpt lat="50.936936298385262" lon="5.56888097897172">
        <ele>85.209999999999994</ele>
        <time>2016-04-23T09:19:17Z</time>
      </trkpt>
      <trkpt lat="50.937082814052701" lon="5.569122126325965">
        <ele>85.209999999999994</ele>
        <time>2016-04-23T09:19:32Z</time>
      </trkpt>
      <trkpt lat="50.937314070761204" lon="5.569506771862507">
        <ele>85.689999999999998</ele>
        <time>2016-04-23T09:19:57Z</time>
      </trkpt>
      <trkpt lat="50.93741649761796" lon="5.569726042449474">
        <ele>85.209999999999994</ele>
        <time>2016-04-23T09:20:09Z</time>
      </trkpt>
      <trkpt lat="50.937423203140497" lon="5.569767700508237">
        <ele>85.689999999999998</ele>
        <time>2016-04-23T09:20:11Z</time>
      </trkpt>
      <trkpt lat="50.937243495136499" lon="5.570126194506884">
        <ele>85.209999999999994</ele>
        <time>2016-04-23T09:20:27Z</time>
      </trkpt>
      <trkpt lat="50.93710133805871" lon="5.57039181701839">
        <ele>85.209999999999994</ele>
        <time>2016-04-23T09:20:41Z</time>
      </trkpt>
      <trkpt lat="50.936918025836349" lon="5.570686189457774">
        <ele>85.209999999999994</ele>
        <time>2016-04-23T09:20:58Z</time>
      </trkpt>
      <trkpt lat="50.936797074973583" lon="5.570927923545241">
        <ele>85.209999999999994</ele>
        <time>2016-04-23T09:21:12Z</time>
      </trkpt>
      <trkpt lat="50.936913415789604" lon="5.571151468902826">
        <ele>86.180000000000007</ele>
        <time>2016-04-23T09:21:26Z</time>
      </trkpt>
      <trkpt lat="50.937053812667727" lon="5.571452127769589">
        <ele>85.689999999999998</ele>
        <time>2016-04-23T09:21:43Z</time>
      </trkpt>
      <trkpt lat="50.937340138480067" lon="5.572028802707791">
        <ele>86.180000000000007</ele>
        <time>2016-04-23T09:22:15Z</time>
      </trkpt>
      <trkpt lat="50.937375593930483" lon="5.572105664759874">
        <ele>86.180000000000007</ele>
        <time>2016-04-23T09:22:20Z</time>
      </trkpt>
      <trkpt lat="50.937556475400925" lon="5.572439515963197">
        <ele>86.659999999999997</ele>
        <time>2016-04-23T09:22:38Z</time>
      </trkpt>
      <trkpt lat="50.937657309696078" lon="5.572696505114436">
        <ele>86.659999999999997</ele>
        <time>2016-04-23T09:22:51Z</time>
      </trkpt>
      <trkpt lat="50.937717910856009" lon="5.572855928912759">
        <ele>86.659999999999997</ele>
        <time>2016-04-23T09:22:58Z</time>
      </trkpt>
      <trkpt lat="50.937700225040317" lon="5.572999091818929">
        <ele>86.659999999999997</ele>
        <time>2016-04-23T09:23:05Z</time>
      </trkpt>
      <trkpt lat="50.938574206084013" lon="5.574771277606487">
        <ele>86.659999999999997</ele>
        <time>2016-04-23T09:24:55Z</time>
      </trkpt>
      <trkpt lat="50.938769839704037" lon="5.574944783002138">
        <ele>86.659999999999997</ele>
        <time>2016-04-23T09:25:10Z</time>
      </trkpt>
      <trkpt lat="50.938824908807874" lon="5.574997840449214">
        <ele>86.659999999999997</ele>
        <time>2016-04-23T09:25:14Z</time>
      </trkpt>
      <trkpt lat="50.939017273485661" lon="5.575267737731338">
        <ele>86.659999999999997</ele>
        <time>2016-04-23T09:25:29Z</time>
      </trkpt>
      <trkpt lat="50.939060524106026" lon="5.575342755764723">
        <ele>86.659999999999997</ele>
        <time>2016-04-23T09:25:33Z</time>
      </trkpt>
      <trkpt lat="50.939164711162448" lon="5.575501844286919">
        <ele>86.659999999999997</ele>
        <time>2016-04-23T09:25:41Z</time>
      </trkpt>
      <trkpt lat="50.939236879348755" lon="5.575588010251522">
        <ele>86.659999999999997</ele>
        <time>2016-04-23T09:25:47Z</time>
      </trkpt>
      <trkpt lat="50.939274178817868" lon="5.575617849826813">
        <ele>86.659999999999997</ele>
        <time>2016-04-23T09:25:50Z</time>
      </trkpt>
      <trkpt lat="50.93966075219214" lon="5.576178934425116">
        <ele>87.140000000000001</ele>
        <time>2016-04-23T09:26:25Z</time>
      </trkpt>
      <trkpt lat="50.939761586487293" lon="5.576338525861502">
        <ele>87.140000000000001</ele>
        <time>2016-04-23T09:26:35Z</time>
      </trkpt>
      <trkpt lat="50.939991921186447" lon="5.576765080913901">
        <ele>87.140000000000001</ele>
        <time>2016-04-23T09:27:00Z</time>
      </trkpt>
      <trkpt lat="50.939938696101308" lon="5.577267743647099">
        <ele>87.620000000000005</ele>
        <time>2016-04-23T09:27:14Z</time>
      </trkpt>
      <trkpt lat="50.939854374155402" lon="5.577518446370959">
        <ele>88.099999999999994</ele>
        <time>2016-04-23T09:27:25Z</time>
      </trkpt>
      <trkpt lat="50.939806681126356" lon="5.577656831592321">
        <ele>88.099999999999994</ele>
        <time>2016-04-23T09:27:33Z</time>
      </trkpt>
      <trkpt lat="50.939624542370439" lon="5.578168630599976">
        <ele>88.099999999999994</ele>
        <time>2016-04-23T09:27:56Z</time>
      </trkpt>
      <trkpt lat="50.939531251788139" lon="5.578415310010314">
        <ele>88.099999999999994</ele>
        <time>2016-04-23T09:28:07Z</time>
      </trkpt>
      <trkpt lat="50.939523205161095" lon="5.578435091301799">
        <ele>88.099999999999994</ele>
        <time>2016-04-23T09:28:08Z</time>
      </trkpt>
      <trkpt lat="50.939497807994485" lon="5.578488735482097">
        <ele>88.099999999999994</ele>
        <time>2016-04-23T09:28:11Z</time>
      </trkpt>
      <trkpt lat="50.93939202837646" lon="5.578753855079413">
        <ele>88.099999999999994</ele>
        <time>2016-04-23T09:28:23Z</time>
      </trkpt>
      <trkpt lat="50.939340479671955" lon="5.578997600823641">
        <ele>88.579999999999998</ele>
        <time>2016-04-23T09:28:36Z</time>
      </trkpt>
      <trkpt lat="50.939287086948752" lon="5.579146714881063">
        <ele>88.579999999999998</ele>
        <time>2016-04-23T09:28:44Z</time>
      </trkpt>
      <trkpt lat="50.9392483625561" lon="5.579255092889071">
        <ele>88.579999999999998</ele>
        <time>2016-04-23T09:28:50Z</time>
      </trkpt>
      <trkpt lat="50.939127327874303" lon="5.579643677920103">
        <ele>88.579999999999998</ele>
        <time>2016-04-23T09:29:06Z</time>
      </trkpt>
      <trkpt lat="50.93910276889801" lon="5.5797422491014">
        <ele>88.099999999999994</ele>
        <time>2016-04-23T09:29:11Z</time>
      </trkpt>
      <trkpt lat="50.938996067270637" lon="5.58005690574646">
        <ele>89.540000000000006</ele>
        <time>2016-04-23T09:29:27Z</time>
      </trkpt>
      <trkpt lat="50.938753494992852" lon="5.580639196559787">
        <ele>89.060000000000002</ele>
        <time>2016-04-23T09:29:51Z</time>
      </trkpt>
      <trkpt lat="50.93873480334878" lon="5.580764506012201">
        <ele>88.579999999999998</ele>
        <time>2016-04-23T09:29:56Z</time>
      </trkpt>
      <trkpt lat="50.938840750604868" lon="5.580993918702006">
        <ele>88.579999999999998</ele>
        <time>2016-04-23T09:30:09Z</time>
      </trkpt>
      <trkpt lat="50.93893663957715" lon="5.581212267279625">
        <ele>88.579999999999998</ele>
        <time>2016-04-23T09:30:21Z</time>
      </trkpt>
      <trkpt lat="50.93936956487596" lon="5.582074765115976">
        <ele>88.579999999999998</ele>
        <time>2016-04-23T09:31:07Z</time>
      </trkpt>
      <trkpt lat="50.939407618716359" lon="5.582140982151032">
        <ele>88.579999999999998</ele>
        <time>2016-04-23T09:31:11Z</time>
      </trkpt>
      <trkpt lat="50.939544327557087" lon="5.582387074828148">
        <ele>88.099999999999994</ele>
        <time>2016-04-23T09:31:25Z</time>
      </trkpt>
      <trkpt lat="50.94006635248661" lon="5.583323668688536">
        <ele>88.099999999999994</ele>
        <time>2016-04-23T09:32:14Z</time>
      </trkpt>
      <trkpt lat="50.940183363854885" lon="5.583570515736938">
        <ele>88.099999999999994</ele>
        <time>2016-04-23T09:32:27Z</time>
      </trkpt>
      <trkpt lat="50.94032728113234" lon="5.583833623677492">
        <ele>88.099999999999994</ele>
        <time>2016-04-23T09:32:43Z</time>
      </trkpt>
      <trkpt lat="50.940450243651867" lon="5.583796575665474">
        <ele>88.099999999999994</ele>
        <time>2016-04-23T09:32:57Z</time>
      </trkpt>
      <trkpt lat="50.940506989136338" lon="5.583705883473158">
        <ele>88.099999999999994</ele>
        <time>2016-04-23T09:33:01Z</time>
      </trkpt>
      <trkpt lat="50.94067269936204" lon="5.583375636488199">
        <ele>88.099999999999994</ele>
        <time>2016-04-23T09:33:17Z</time>
      </trkpt>
      <trkpt lat="50.940776886418462" lon="5.583157958462834">
        <ele>88.579999999999998</ele>
        <time>2016-04-23T09:33:28Z</time>
      </trkpt>
      <trkpt lat="50.940917870029807" lon="5.582882696762681">
        <ele>88.099999999999994</ele>
        <time>2016-04-23T09:33:42Z</time>
      </trkpt>
      <trkpt lat="50.940924910828471" lon="5.582867693156004">
        <ele>87.620000000000005</ele>
        <time>2016-04-23T09:33:43Z</time>
      </trkpt>
      <trkpt lat="50.941060781478882" lon="5.582619588822126">
        <ele>87.620000000000005</ele>
        <time>2016-04-23T09:33:56Z</time>
      </trkpt>
      <trkpt lat="50.941069917753339" lon="5.582598717883229">
        <ele>87.620000000000005</ele>
        <time>2016-04-23T09:33:57Z</time>
      </trkpt>
      <trkpt lat="50.941181061789393" lon="5.582428062334657">
        <ele>87.620000000000005</ele>
        <time>2016-04-23T09:34:08Z</time>
      </trkpt>
      <trkpt lat="50.94131232239306" lon="5.582263022661209">
        <ele>87.620000000000005</ele>
        <time>2016-04-23T09:34:21Z</time>
      </trkpt>
      <trkpt lat="50.941407205536962" lon="5.582169061526656">
        <ele>88.099999999999994</ele>
        <time>2016-04-23T09:34:35Z</time>
      </trkpt>
      <trkpt lat="50.941835353150964" lon="5.581741919741035">
        <ele>88.099999999999994</ele>
        <time>2016-04-23T09:35:05Z</time>
      </trkpt>
      <trkpt lat="50.942109022289515" lon="5.581520302221179">
        <ele>88.099999999999994</ele>
        <time>2016-04-23T09:35:22Z</time>
      </trkpt>
      <trkpt lat="50.942158391699195" lon="5.581467999145389">
        <ele>89.060000000000002</ele>
        <time>2016-04-23T09:35:27Z</time>
      </trkpt>
      <trkpt lat="50.942295603454113" lon="5.581326512619853">
        <ele>88.099999999999994</ele>
        <time>2016-04-23T09:35:40Z</time>
      </trkpt>
      <trkpt lat="50.942387804389" lon="5.581289632245898">
        <ele>88.099999999999994</ele>
        <time>2016-04-23T09:35:47Z</time>
      </trkpt>
      <trkpt lat="50.942421415820718" lon="5.581325171515346">
        <ele>87.140000000000001</ele>
        <time>2016-04-23T09:35:52Z</time>
      </trkpt>
      <trkpt lat="50.942505821585655" lon="5.581407146528363">
        <ele>87.140000000000001</ele>
        <time>2016-04-23T09:35:57Z</time>
      </trkpt>
      <trkpt lat="50.942859789356589" lon="5.582130253314972">
        <ele>86.659999999999997</ele>
        <time>2016-04-23T09:36:16Z</time>
      </trkpt>
      <trkpt lat="50.943265222012997" lon="5.583013454452157">
        <ele>86.659999999999997</ele>
        <time>2016-04-23T09:36:31Z</time>
      </trkpt>
      <trkpt lat="50.943318614736199" lon="5.583149744197726">
        <ele>86.659999999999997</ele>
        <time>2016-04-23T09:36:33Z</time>
      </trkpt>
      <trkpt lat="50.943355495110154" lon="5.583221493288875">
        <ele>87.140000000000001</ele>
        <time>2016-04-23T09:36:34Z</time>
      </trkpt>
      <trkpt lat="50.943429842591286" lon="5.583370104432106">
        <ele>85.209999999999994</ele>
        <time>2016-04-23T09:36:36Z</time>
      </trkpt>
      <trkpt lat="50.943689933046699" lon="5.583939906209707">
        <ele>86.180000000000007</ele>
        <time>2016-04-23T09:36:44Z</time>
      </trkpt>
      <trkpt lat="50.944106178358197" lon="5.584810618311167">
        <ele>87.140000000000001</ele>
        <time>2016-04-23T09:36:55Z</time>
      </trkpt>
      <trkpt lat="50.944146160036325" lon="5.584889156743884">
        <ele>87.140000000000001</ele>
        <time>2016-04-23T09:36:56Z</time>
      </trkpt>
      <trkpt lat="50.944668687880039" lon="5.585957933217287">
        <ele>86.659999999999997</ele>
        <time>2016-04-23T09:37:09Z</time>
      </trkpt>
      <trkpt lat="50.946494936943054" lon="5.589811345562339">
        <ele>89.060000000000002</ele>
        <time>2016-04-23T09:38:00Z</time>
      </trkpt>
      <trkpt lat="50.94648839905858" lon="5.589835233986378">
        <ele>89.060000000000002</ele>
        <time>2016-04-23T09:38:01Z</time>
      </trkpt>
      <trkpt lat="50.94647565856576" lon="5.589855182915926">
        <ele>89.060000000000002</ele>
        <time>2016-04-23T09:38:02Z</time>
      </trkpt>
      <trkpt lat="50.946460990235209" lon="5.589875802397728">
        <ele>89.540000000000006</ele>
        <time>2016-04-23T09:38:03Z</time>
      </trkpt>
      <trkpt lat="50.946438778191805" lon="5.589912179857492">
        <ele>89.060000000000002</ele>
        <time>2016-04-23T09:38:04Z</time>
      </trkpt>
      <trkpt lat="50.94642092473805" lon="5.589923746883869">
        <ele>89.060000000000002</ele>
        <time>2016-04-23T09:38:05Z</time>
      </trkpt>
      <trkpt lat="50.946156978607178" lon="5.590140502899885">
        <ele>89.540000000000006</ele>
        <time>2016-04-23T09:38:17Z</time>
      </trkpt>
      <trkpt lat="50.946334255859256" lon="5.59085413813591">
        <ele>89.540000000000006</ele>
        <time>2016-04-23T09:38:52Z</time>
      </trkpt>
      <trkpt lat="50.946429809555411" lon="5.591220175847411">
        <ele>89.540000000000006</ele>
        <time>2016-04-23T09:39:06Z</time>
      </trkpt>
      <trkpt lat="50.946788974106312" lon="5.592833021655679">
        <ele>89.060000000000002</ele>
        <time>2016-04-23T09:40:20Z</time>
      </trkpt>
      <trkpt lat="50.94657096080482" lon="5.592951709404588">
        <ele>88.579999999999998</ele>
        <time>2016-04-23T09:40:36Z</time>
      </trkpt>
      <trkpt lat="50.946419164538383" lon="5.593049274757505">
        <ele>88.579999999999998</ele>
        <time>2016-04-23T09:40:53Z</time>
      </trkpt>
      <trkpt lat="50.946406088769436" lon="5.593065703287721">
        <ele>88.579999999999998</ele>
        <time>2016-04-23T09:40:54Z</time>
      </trkpt>
      <trkpt lat="50.946091767400503" lon="5.593279106542468">
        <ele>88.099999999999994</ele>
        <time>2016-04-23T09:41:16Z</time>
      </trkpt>
      <trkpt lat="50.946055054664612" lon="5.593290254473686">
        <ele>88.579999999999998</ele>
        <time>2016-04-23T09:41:18Z</time>
      </trkpt>
      <trkpt lat="50.9458829741925" lon="5.593368792906404">
        <ele>89.060000000000002</ele>
        <time>2016-04-23T09:41:28Z</time>
      </trkpt>
      <trkpt lat="50.945784654468298" lon="5.593391675502062">
        <ele>88.099999999999994</ele>
        <time>2016-04-23T09:41:36Z</time>
      </trkpt>
      <trkpt lat="50.945745762437582" lon="5.593404415994883">
        <ele>88.099999999999994</ele>
        <time>2016-04-23T09:41:39Z</time>
      </trkpt>
      <trkpt lat="50.945594636723399" lon="5.593504831194878">
        <ele>88.099999999999994</ele>
        <time>2016-04-23T09:41:51Z</time>
      </trkpt>
      <trkpt lat="50.945445103570819" lon="5.593587309122086">
        <ele>88.579999999999998</ele>
        <time>2016-04-23T09:41:58Z</time>
      </trkpt>
      <trkpt lat="50.945428507402539" lon="5.59360122308135">
        <ele>88.579999999999998</ele>
        <time>2016-04-23T09:41:59Z</time>
      </trkpt>
      <trkpt lat="50.945199597626925" lon="5.593702476471663">
        <ele>89.060000000000002</ele>
        <time>2016-04-23T09:42:14Z</time>
      </trkpt>
      <trkpt lat="50.945159364491701" lon="5.593678001314402">
        <ele>88.579999999999998</ele>
        <time>2016-04-23T09:42:17Z</time>
      </trkpt>
      <trkpt lat="50.945148887112737" lon="5.593668362125754">
        <ele>88.579999999999998</ele>
        <time>2016-04-23T09:42:18Z</time>
      </trkpt>
      <trkpt lat="50.945137487724423" lon="5.593644892796874">
        <ele>88.579999999999998</ele>
        <time>2016-04-23T09:42:19Z</time>
      </trkpt>
      <trkpt lat="50.94513145275414" lon="5.593615807592869">
        <ele>89.060000000000002</ele>
        <time>2016-04-23T09:42:20Z</time>
      </trkpt>
      <trkpt lat="50.945121645927429" lon="5.593592338263989">
        <ele>88.579999999999998</ele>
        <time>2016-04-23T09:42:21Z</time>
      </trkpt>
      <trkpt lat="50.945110833272338" lon="5.593577167019248">
        <ele>88.579999999999998</ele>
        <time>2016-04-23T09:42:22Z</time>
      </trkpt>
      <trkpt lat="50.945018548518419" lon="5.593429058790207">
        <ele>82.329999999999998</ele>
        <time>2016-04-23T09:42:30Z</time>
      </trkpt>
      <trkpt lat="50.945006478577852" lon="5.593409026041627">
        <ele>94.349999999999994</ele>
        <time>2016-04-23T09:42:31Z</time>
      </trkpt>
      <trkpt lat="50.944929784163833" lon="5.593186570331454">
        <ele>88.579999999999998</ele>
        <time>2016-04-23T09:42:41Z</time>
      </trkpt>
      <trkpt lat="50.944891981780529" lon="5.593178858980537">
        <ele>88.579999999999998</ele>
        <time>2016-04-23T09:42:43Z</time>
      </trkpt>
      <trkpt lat="50.944581516087055" lon="5.593356639146805">
        <ele>88.579999999999998</ele>
        <time>2016-04-23T09:43:00Z</time>
      </trkpt>
      <trkpt lat="50.944459978491068" lon="5.593400979414582">
        <ele>88.579999999999998</ele>
        <time>2016-04-23T09:43:08Z</time>
      </trkpt>
      <trkpt lat="50.944441203027964" lon="5.593404164537787">
        <ele>88.579999999999998</ele>
        <time>2016-04-23T09:43:09Z</time>
      </trkpt>
      <trkpt lat="50.944420751184225" lon="5.593413133174181">
        <ele>88.579999999999998</ele>
        <time>2016-04-23T09:43:10Z</time>
      </trkpt>
      <trkpt lat="50.944253951311111" lon="5.593489492312074">
        <ele>88.579999999999998</ele>
        <time>2016-04-23T09:43:21Z</time>
      </trkpt>
      <trkpt lat="50.943953124806285" lon="5.593598792329431">
        <ele>88.579999999999998</ele>
        <time>2016-04-23T09:43:44Z</time>
      </trkpt>
      <trkpt lat="50.943771991878748" lon="5.593674061819911">
        <ele>88.579999999999998</ele>
        <time>2016-04-23T09:43:55Z</time>
      </trkpt>
      <trkpt lat="50.943727903068066" lon="5.593681437894702">
        <ele>88.579999999999998</ele>
        <time>2016-04-23T09:43:59Z</time>
      </trkpt>
      <trkpt lat="50.943368151783943" lon="5.593855697661638">
        <ele>89.060000000000002</ele>
        <time>2016-04-23T09:44:24Z</time>
      </trkpt>
      <trkpt lat="50.943201435729861" lon="5.593937924131751">
        <ele>89.060000000000002</ele>
        <time>2016-04-23T09:44:34Z</time>
      </trkpt>
      <trkpt lat="50.943032708019018" lon="5.593999614939094">
        <ele>88.579999999999998</ele>
        <time>2016-04-23T09:44:46Z</time>
      </trkpt>
      <trkpt lat="50.942994402721524" lon="5.594026856124401">
        <ele>88.579999999999998</ele>
        <time>2016-04-23T09:44:49Z</time>
      </trkpt>
      <trkpt lat="50.94276700168848" lon="5.594102293252945">
        <ele>88.579999999999998</ele>
        <time>2016-04-23T09:45:03Z</time>
      </trkpt>
      <trkpt lat="50.942542869597673" lon="5.594151495024562">
        <ele>88.579999999999998</ele>
        <time>2016-04-23T09:45:18Z</time>
      </trkpt>
      <trkpt lat="50.942376656457782" lon="5.593996262177825">
        <ele>88.579999999999998</ele>
        <time>2016-04-23T09:45:32Z</time>
      </trkpt>
      <trkpt lat="50.941977258771658" lon="5.593499969691038">
        <ele>88.579999999999998</ele>
        <time>2016-04-23T09:46:14Z</time>
      </trkpt>
      <trkpt lat="50.941946916282177" lon="5.593472309410572">
        <ele>88.099999999999994</ele>
        <time>2016-04-23T09:46:17Z</time>
      </trkpt>
      <trkpt lat="50.941911125555634" lon="5.593481361865997">
        <ele>88.099999999999994</ele>
        <time>2016-04-23T09:46:20Z</time>
      </trkpt>
      <trkpt lat="50.941869467496872" lon="5.593619998544455">
        <ele>88.099999999999994</ele>
        <time>2016-04-23T09:46:30Z</time>
      </trkpt>
      <trkpt lat="50.941929565742612" lon="5.593832060694695">
        <ele>88.579999999999998</ele>
        <time>2016-04-23T09:46:39Z</time>
      </trkpt>
      <trkpt lat="50.942003913223743" lon="5.593999782577157">
        <ele>88.579999999999998</ele>
        <time>2016-04-23T09:46:48Z</time>
      </trkpt>
      <trkpt lat="50.942023107782006" lon="5.594135904684663">
        <ele>88.579999999999998</ele>
        <time>2016-04-23T09:46:53Z</time>
      </trkpt>
      <trkpt lat="50.941906431689858" lon="5.594360623508692">
        <ele>88.099999999999994</ele>
        <time>2016-04-23T09:47:07Z</time>
      </trkpt>
      <trkpt lat="50.941692609339952" lon="5.594485932961106">
        <ele>88.099999999999994</ele>
        <time>2016-04-23T09:47:24Z</time>
      </trkpt>
      <trkpt lat="50.941451964899898" lon="5.594535218551755">
        <ele>88.579999999999998</ele>
        <time>2016-04-23T09:47:39Z</time>
      </trkpt>
      <trkpt lat="50.941430339589715" lon="5.594537146389484">
        <ele>88.579999999999998</ele>
        <time>2016-04-23T09:47:41Z</time>
      </trkpt>
      <trkpt lat="50.94132992438972" lon="5.594529518857598">
        <ele>88.579999999999998</ele>
        <time>2016-04-23T09:47:46Z</time>
      </trkpt>
      <trkpt lat="50.941138733178377" lon="5.5943947378546">
        <ele>88.099999999999994</ele>
        <time>2016-04-23T09:48:00Z</time>
      </trkpt>
      <trkpt lat="50.941001856699586" lon="5.594229698181152">
        <ele>88.099999999999994</ele>
        <time>2016-04-23T09:48:13Z</time>
      </trkpt>
      <trkpt lat="50.940884258598089" lon="5.594098772853613">
        <ele>88.099999999999994</ele>
        <time>2016-04-23T09:48:26Z</time>
      </trkpt>
      <trkpt lat="50.940806558355689" lon="5.593995675444603">
        <ele>88.099999999999994</ele>
        <time>2016-04-23T09:48:30Z</time>
      </trkpt>
      <trkpt lat="50.940728606656194" lon="5.594085110351443">
        <ele>88.579999999999998</ele>
        <time>2016-04-23T09:48:42Z</time>
      </trkpt>
      <trkpt lat="50.940732210874557" lon="5.594489369541407">
        <ele>88.099999999999994</ele>
        <time>2016-04-23T09:49:02Z</time>
      </trkpt>
      <trkpt lat="50.940734473988414" lon="5.595077527686954">
        <ele>88.099999999999994</ele>
        <time>2016-04-23T09:49:27Z</time>
      </trkpt>
      <trkpt lat="50.940718883648515" lon="5.5953065212816">
        <ele>88.099999999999994</ele>
        <time>2016-04-23T09:49:35Z</time>
      </trkpt>
      <trkpt lat="50.940737491473556" lon="5.595387322828174">
        <ele>88.579999999999998</ele>
        <time>2016-04-23T09:49:39Z</time>
      </trkpt>
      <trkpt lat="50.940750064328313" lon="5.595416575670242">
        <ele>88.099999999999994</ele>
        <time>2016-04-23T09:49:42Z</time>
      </trkpt>
      <trkpt lat="50.940818712115288" lon="5.59556451626122">
        <ele>88.579999999999998</ele>
        <time>2016-04-23T09:49:54Z</time>
      </trkpt>
      <trkpt lat="50.940871853381395" lon="5.595655124634504">
        <ele>88.099999999999994</ele>
        <time>2016-04-23T09:50:03Z</time>
      </trkpt>
      <trkpt lat="50.940938321873546" lon="5.596146220341325">
        <ele>88.099999999999994</ele>
        <time>2016-04-23T09:50:27Z</time>
      </trkpt>
      <trkpt lat="50.940921641886234" lon="5.596402622759342">
        <ele>88.099999999999994</ele>
        <time>2016-04-23T09:50:40Z</time>
      </trkpt>
      <trkpt lat="50.940784430131316" lon="5.596641087904573">
        <ele>88.579999999999998</ele>
        <time>2016-04-23T09:50:54Z</time>
      </trkpt>
      <trkpt lat="50.940650319680572" lon="5.596779305487871">
        <ele>88.579999999999998</ele>
        <time>2016-04-23T09:51:07Z</time>
      </trkpt>
      <trkpt lat="50.940633388236165" lon="5.596790285781026">
        <ele>88.579999999999998</ele>
        <time>2016-04-23T09:51:08Z</time>
      </trkpt>
      <trkpt lat="50.940585108473897" lon="5.596834374591708">
        <ele>88.579999999999998</ele>
        <time>2016-04-23T09:51:12Z</time>
      </trkpt>
      <trkpt lat="50.940477317199111" lon="5.597014920786023">
        <ele>88.579999999999998</ele>
        <time>2016-04-23T09:51:23Z</time>
      </trkpt>
      <trkpt lat="50.940521992743015" lon="5.597303509712219">
        <ele>88.579999999999998</ele>
        <time>2016-04-23T09:51:36Z</time>
      </trkpt>
      <trkpt lat="50.940441023558378" lon="5.597566030919552">
        <ele>88.579999999999998</ele>
        <time>2016-04-23T09:51:54Z</time>
      </trkpt>
      <trkpt lat="50.940431971102953" lon="5.59759670868516">
        <ele>88.579999999999998</ele>
        <time>2016-04-23T09:51:56Z</time>
      </trkpt>
      <trkpt lat="50.940180597826838" lon="5.598060144111514">
        <ele>88.579999999999998</ele>
        <time>2016-04-23T09:52:16Z</time>
      </trkpt>
      <trkpt lat="50.93985915184021" lon="5.598070956766605">
        <ele>89.060000000000002</ele>
        <time>2016-04-23T09:52:38Z</time>
      </trkpt>
      <trkpt lat="50.939636025577784" lon="5.598038854077458">
        <ele>88.579999999999998</ele>
        <time>2016-04-23T09:52:50Z</time>
      </trkpt>
      <trkpt lat="50.939528988674283" lon="5.598125355318189">
        <ele>88.579999999999998</ele>
        <time>2016-04-23T09:53:04Z</time>
      </trkpt>
      <trkpt lat="50.939298989251256" lon="5.598296094685793">
        <ele>88.579999999999998</ele>
        <time>2016-04-23T09:53:18Z</time>
      </trkpt>
      <trkpt lat="50.939221205189824" lon="5.598387038335204">
        <ele>89.060000000000002</ele>
        <time>2016-04-23T09:53:24Z</time>
      </trkpt>
      <trkpt lat="50.939237549901009" lon="5.598831530660391">
        <ele>88.579999999999998</ele>
        <time>2016-04-23T09:53:44Z</time>
      </trkpt>
      <trkpt lat="50.939266383647919" lon="5.599033031612635">
        <ele>88.579999999999998</ele>
        <time>2016-04-23T09:53:53Z</time>
      </trkpt>
      <trkpt lat="50.939300330355763" lon="5.599196897819638">
        <ele>89.060000000000002</ele>
        <time>2016-04-23T09:54:00Z</time>
      </trkpt>
      <trkpt lat="50.939304605126381" lon="5.599271832033992">
        <ele>89.060000000000002</ele>
        <time>2016-04-23T09:54:03Z</time>
      </trkpt>
      <trkpt lat="50.939318602904677" lon="5.599418850615621">
        <ele>89.060000000000002</ele>
        <time>2016-04-23T09:54:07Z</time>
      </trkpt>
      <trkpt lat="50.939330253750086" lon="5.599510967731476">
        <ele>89.060000000000002</ele>
        <time>2016-04-23T09:54:13Z</time>
      </trkpt>
      <trkpt lat="50.939351124688983" lon="5.599628901109099">
        <ele>89.540000000000006</ele>
        <time>2016-04-23T09:54:17Z</time>
      </trkpt>
      <trkpt lat="50.939363865181804" lon="5.599838951602578">
        <ele>89.540000000000006</ele>
        <time>2016-04-23T09:54:34Z</time>
      </trkpt>
      <trkpt lat="50.939358752220869" lon="5.599862923845649">
        <ele>89.060000000000002</ele>
        <time>2016-04-23T09:54:35Z</time>
      </trkpt>
      <trkpt lat="50.939314914867282" lon="5.600107256323099">
        <ele>89.060000000000002</ele>
        <time>2016-04-23T09:54:46Z</time>
      </trkpt>
      <trkpt lat="50.93925372697413" lon="5.600339015945792">
        <ele>89.540000000000006</ele>
        <time>2016-04-23T09:54:55Z</time>
      </trkpt>
      <trkpt lat="50.939234532415867" lon="5.600515455007553">
        <ele>89.540000000000006</ele>
        <time>2016-04-23T09:55:01Z</time>
      </trkpt>
      <trkpt lat="50.939229754731059" lon="5.600565914064646">
        <ele>89.540000000000006</ele>
        <time>2016-04-23T09:55:04Z</time>
      </trkpt>
      <trkpt lat="50.939223719760776" lon="5.600614948198199">
        <ele>89.540000000000006</ele>
        <time>2016-04-23T09:55:06Z</time>
      </trkpt>
      <trkpt lat="50.939196730032563" lon="5.600812677294016">
        <ele>89.540000000000006</ele>
        <time>2016-04-23T09:55:14Z</time>
      </trkpt>
      <trkpt lat="50.93922346830368" lon="5.601128172129393">
        <ele>89.540000000000006</ele>
        <time>2016-04-23T09:55:26Z</time>
      </trkpt>
      <trkpt lat="50.939071252942085" lon="5.601178128272295">
        <ele>89.540000000000006</ele>
        <time>2016-04-23T09:55:37Z</time>
      </trkpt>
      <trkpt lat="50.93897620216012" lon="5.601200675591826">
        <ele>89.540000000000006</ele>
        <time>2016-04-23T09:55:42Z</time>
      </trkpt>
      <trkpt lat="50.938900765031576" lon="5.601202603429556">
        <ele>89.540000000000006</ele>
        <time>2016-04-23T09:55:46Z</time>
      </trkpt>
      <trkpt lat="50.938660623505712" lon="5.601274939253926">
        <ele>89.060000000000002</ele>
        <time>2016-04-23T09:55:59Z</time>
      </trkpt>
      <trkpt lat="50.938393240794539" lon="5.601307544857264">
        <ele>88.579999999999998</ele>
        <time>2016-04-23T09:56:12Z</time>
      </trkpt>
      <trkpt lat="50.938303638249636" lon="5.601335791870952">
        <ele>88.579999999999998</ele>
        <time>2016-04-23T09:56:13Z</time>
      </trkpt>
      <trkpt lat="50.937843136489391" lon="5.601436207070947">
        <ele>87.620000000000005</ele>
        <time>2016-04-23T09:56:29Z</time>
      </trkpt>
      <trkpt lat="50.937494030222297" lon="5.60161373578012">
        <ele>89.060000000000002</ele>
        <time>2016-04-23T09:56:44Z</time>
      </trkpt>
      <trkpt lat="50.937367212027311" lon="5.601649694144726">
        <ele>88.579999999999998</ele>
        <time>2016-04-23T09:56:59Z</time>
      </trkpt>
      <trkpt lat="50.937116676941514" lon="5.601699650287628">
        <ele>88.579999999999998</ele>
        <time>2016-04-23T09:57:12Z</time>
      </trkpt>
      <trkpt lat="50.937110390514135" lon="5.601698476821184">
        <ele>88.579999999999998</ele>
        <time>2016-04-23T09:57:13Z</time>
      </trkpt>
      <trkpt lat="50.936797829344869" lon="5.601802663877606">
        <ele>88.099999999999994</ele>
        <time>2016-04-23T09:57:30Z</time>
      </trkpt>
      <trkpt lat="50.936745861545205" lon="5.601806184276938">
        <ele>88.099999999999994</ele>
        <time>2016-04-23T09:57:33Z</time>
      </trkpt>
      <trkpt lat="50.936549892649055" lon="5.601879945024848">
        <ele>87.620000000000005</ele>
        <time>2016-04-23T09:57:47Z</time>
      </trkpt>
      <trkpt lat="50.936497589573264" lon="5.601901654154062">
        <ele>87.620000000000005</ele>
        <time>2016-04-23T09:57:50Z</time>
      </trkpt>
      <trkpt lat="50.936208246275783" lon="5.601972648873925">
        <ele>87.620000000000005</ele>
        <time>2016-04-23T09:58:07Z</time>
      </trkpt>
      <trkpt lat="50.936018312349916" lon="5.602007433772087">
        <ele>87.140000000000001</ele>
        <time>2016-04-23T09:58:22Z</time>
      </trkpt>
      <trkpt lat="50.935973552986979" lon="5.602028807625175">
        <ele>87.140000000000001</ele>
        <time>2016-04-23T09:58:29Z</time>
      </trkpt>
      <trkpt lat="50.935982773080468" lon="5.602236511185765">
        <ele>86.659999999999997</ele>
        <time>2016-04-23T09:58:38Z</time>
      </trkpt>
      <trkpt lat="50.936056533828378" lon="5.602809581905603">
        <ele>89.060000000000002</ele>
        <time>2016-04-23T09:58:56Z</time>
      </trkpt>
      <trkpt lat="50.936102550476789" lon="5.603111749514937">
        <ele>86.659999999999997</ele>
        <time>2016-04-23T09:59:06Z</time>
      </trkpt>
      <trkpt lat="50.936104310676455" lon="5.60329657047987">
        <ele>86.180000000000007</ele>
        <time>2016-04-23T09:59:14Z</time>
      </trkpt>
      <trkpt lat="50.935998614877462" lon="5.603330936282873">
        <ele>85.689999999999998</ele>
        <time>2016-04-23T09:59:20Z</time>
      </trkpt>
      <trkpt lat="50.935647496953607" lon="5.603354992344976">
        <ele>85.689999999999998</ele>
        <time>2016-04-23T09:59:31Z</time>
      </trkpt>
      <trkpt lat="50.933687975630164" lon="5.603651627898216">
        <ele>81.370000000000005</ele>
        <time>2016-04-23T10:00:27Z</time>
      </trkpt>
      <trkpt lat="50.933561325073242" lon="5.603739470243454">
        <ele>81.370000000000005</ele>
        <time>2016-04-23T10:00:31Z</time>
      </trkpt>
      <trkpt lat="50.933524360880256" lon="5.603763526305556">
        <ele>81.370000000000005</ele>
        <time>2016-04-23T10:00:33Z</time>
      </trkpt>
      <trkpt lat="50.933420592918992" lon="5.604079104959965">
        <ele>80.890000000000001</ele>
        <time>2016-04-23T10:00:37Z</time>
      </trkpt>
      <trkpt lat="50.933486893773079" lon="5.604206090793014">
        <ele>80.890000000000001</ele>
        <time>2016-04-23T10:00:39Z</time>
      </trkpt>
      <trkpt lat="50.933629218488932" lon="5.604602051898837">
        <ele>80.890000000000001</ele>
        <time>2016-04-23T10:00:51Z</time>
      </trkpt>
      <trkpt lat="50.933807333931327" lon="5.604833727702498">
        <ele>80.890000000000001</ele>
        <time>2016-04-23T10:00:59Z</time>
      </trkpt>
      <trkpt lat="50.933899870142341" lon="5.604908997192979">
        <ele>80.890000000000001</ele>
        <time>2016-04-23T10:01:05Z</time>
      </trkpt>
      <trkpt lat="50.934073124080896" lon="5.604713279753923">
        <ele>80.890000000000001</ele>
        <time>2016-04-23T10:01:18Z</time>
      </trkpt>
      <trkpt lat="50.934106903150678" lon="5.604654271155596">
        <ele>85.209999999999994</ele>
        <time>2016-04-23T10:01:20Z</time>
      </trkpt>
      <trkpt lat="50.934127187356353" lon="5.604623174294829">
        <ele>82.810000000000002</ele>
        <time>2016-04-23T10:01:21Z</time>
      </trkpt>
      <trkpt lat="50.934244701638818" lon="5.604420751333237">
        <ele>82.810000000000002</ele>
        <time>2016-04-23T10:01:33Z</time>
      </trkpt>
      <trkpt lat="50.934379817917943" lon="5.60425671748817">
        <ele>82.810000000000002</ele>
        <time>2016-04-23T10:01:47Z</time>
      </trkpt>
      <trkpt lat="50.93442315235734" lon="5.604239786043763">
        <ele>83.290000000000006</ele>
        <time>2016-04-23T10:01:51Z</time>
      </trkpt>
      <trkpt lat="50.935174422338605" lon="5.606010127812624">
        <ele>81.849999999999994</ele>
        <time>2016-04-23T10:03:32Z</time>
      </trkpt>
      <trkpt lat="50.935300653800368" lon="5.606326125562191">
        <ele>81.370000000000005</ele>
        <time>2016-04-23T10:03:46Z</time>
      </trkpt>
      <trkpt lat="50.935364356264472" lon="5.606448082253337">
        <ele>80.890000000000001</ele>
        <time>2016-04-23T10:03:52Z</time>
      </trkpt>
      <trkpt lat="50.935762580484152" lon="5.607606545090675">
        <ele>81.370000000000005</ele>
        <time>2016-04-23T10:04:21Z</time>
      </trkpt>
      <trkpt lat="50.935906581580639" lon="5.607971576973796">
        <ele>81.849999999999994</ele>
        <time>2016-04-23T10:04:29Z</time>
      </trkpt>
      <trkpt lat="50.935971038416028" lon="5.608211718499661">
        <ele>81.370000000000005</ele>
        <time>2016-04-23T10:04:35Z</time>
      </trkpt>
      <trkpt lat="50.936318719759583" lon="5.608153380453587">
        <ele>83.290000000000006</ele>
        <time>2016-04-23T10:04:44Z</time>
      </trkpt>
      <trkpt lat="50.936743766069412" lon="5.608052965253592">
        <ele>85.689999999999998</ele>
        <time>2016-04-23T10:04:54Z</time>
      </trkpt>
      <trkpt lat="50.937069905921817" lon="5.607909550890327">
        <ele>88.099999999999994</ele>
        <time>2016-04-23T10:05:07Z</time>
      </trkpt>
      <trkpt lat="50.937101170420647" lon="5.607893709093332">
        <ele>88.099999999999994</ele>
        <time>2016-04-23T10:05:09Z</time>
      </trkpt>
      <trkpt lat="50.93827455304563" lon="5.607748869806528">
        <ele>88.579999999999998</ele>
        <time>2016-04-23T10:05:23Z</time>
      </trkpt>
      <trkpt lat="50.938443783670664" lon="5.607907120138407">
        <ele>89.540000000000006</ele>
        <time>2016-04-23T10:05:30Z</time>
      </trkpt>
      <trkpt lat="50.938478736206889" lon="5.607957495376468">
        <ele>88.579999999999998</ele>
        <time>2016-04-23T10:05:31Z</time>
      </trkpt>
      <trkpt lat="50.938545539975166" lon="5.608066041022539">
        <ele>89.060000000000002</ele>
        <time>2016-04-23T10:05:33Z</time>
      </trkpt>
      <trkpt lat="50.938577391207218" lon="5.608119685202837">
        <ele>88.579999999999998</ele>
        <time>2016-04-23T10:05:34Z</time>
      </trkpt>
      <trkpt lat="50.938681662082672" lon="5.608276426792145">
        <ele>88.579999999999998</ele>
        <time>2016-04-23T10:05:37Z</time>
      </trkpt>
      <trkpt lat="50.93883790075779" lon="5.608434341847897">
        <ele>88.579999999999998</ele>
        <time>2016-04-23T10:05:40Z</time>
      </trkpt>
      <trkpt lat="50.939179128035903" lon="5.608736593276262">
        <ele>88.579999999999998</ele>
        <time>2016-04-23T10:05:48Z</time>
      </trkpt>
      <trkpt lat="50.939280381426215" lon="5.608843211084604">
        <ele>89.060000000000002</ele>
        <time>2016-04-23T10:05:50Z</time>
      </trkpt>
      <trkpt lat="50.939346430823207" lon="5.608886210247874">
        <ele>88.579999999999998</ele>
        <time>2016-04-23T10:05:51Z</time>
      </trkpt>
      <trkpt lat="50.939428489655256" lon="5.608993079513311">
        <ele>89.060000000000002</ele>
        <time>2016-04-23T10:05:53Z</time>
      </trkpt>
      <trkpt lat="50.93946436420083" lon="5.609132638201118">
        <ele>89.060000000000002</ele>
        <time>2016-04-23T10:05:55Z</time>
      </trkpt>
      <trkpt lat="50.939483726397157" lon="5.609217211604118">
        <ele>89.060000000000002</ele>
        <time>2016-04-23T10:05:56Z</time>
      </trkpt>
      <trkpt lat="50.939732752740383" lon="5.609528180211783">
        <ele>89.540000000000006</ele>
        <time>2016-04-23T10:06:01Z</time>
      </trkpt>
      <trkpt lat="50.939731746912003" lon="5.609636306762695">
        <ele>89.060000000000002</ele>
        <time>2016-04-23T10:06:02Z</time>
      </trkpt>
      <trkpt lat="50.939744152128696" lon="5.609737560153008">
        <ele>88.579999999999998</ele>
        <time>2016-04-23T10:06:03Z</time>
      </trkpt>
      <trkpt lat="50.939346766099334" lon="5.610593101009727">
        <ele>89.060000000000002</ele>
        <time>2016-04-23T10:06:06Z</time>
      </trkpt>
      <trkpt lat="50.939310640096664" lon="5.610786974430084">
        <ele>89.060000000000002</ele>
        <time>2016-04-23T10:06:09Z</time>
      </trkpt>
      <trkpt lat="50.939329247921705" lon="5.610861321911216">
        <ele>89.060000000000002</ele>
        <time>2016-04-23T10:06:10Z</time>
      </trkpt>
      <trkpt lat="50.93948875553906" lon="5.611417293548584">
        <ele>89.540000000000006</ele>
        <time>2016-04-23T10:06:21Z</time>
      </trkpt>
      <trkpt lat="50.939478864893317" lon="5.611432213336229">
        <ele>90.019999999999996</ele>
        <time>2016-04-23T10:06:22Z</time>
      </trkpt>
      <trkpt lat="50.939421700313687" lon="5.611450904980302">
        <ele>89.540000000000006</ele>
        <time>2016-04-23T10:06:27Z</time>
      </trkpt>
      <trkpt lat="50.939235370606184" lon="5.611495831981301">
        <ele>90.019999999999996</ele>
        <time>2016-04-23T10:06:43Z</time>
      </trkpt>
      <trkpt lat="50.93900847248733" lon="5.611566742882133">
        <ele>90.019999999999996</ele>
        <time>2016-04-23T10:07:01Z</time>
      </trkpt>
      <trkpt lat="50.938806468620896" lon="5.611645532771945">
        <ele>90.019999999999996</ele>
        <time>2016-04-23T10:07:16Z</time>
      </trkpt>
      <trkpt lat="50.93875290825963" lon="5.611712252721191">
        <ele>90.019999999999996</ele>
        <time>2016-04-23T10:07:21Z</time>
      </trkpt>
      <trkpt lat="50.938713764771819" lon="5.611823564395309">
        <ele>89.540000000000006</ele>
        <time>2016-04-23T10:07:26Z</time>
      </trkpt>
      <trkpt lat="50.93880420550704" lon="5.61211290769279">
        <ele>89.060000000000002</ele>
        <time>2016-04-23T10:07:39Z</time>
      </trkpt>
      <trkpt lat="50.938844019547105" lon="5.612197481095791">
        <ele>92.900000000000006</ele>
        <time>2016-04-23T10:07:43Z</time>
      </trkpt>
      <trkpt lat="50.939070750027895" lon="5.612988397479057">
        <ele>90.5</ele>
        <time>2016-04-23T10:10:54Z</time>
      </trkpt>
      <trkpt lat="50.939075024798512" lon="5.613002311438322">
        <ele>90.5</ele>
        <time>2016-04-23T10:11:12Z</time>
      </trkpt>
      <trkpt lat="50.939080473035574" lon="5.612998874858022">
        <ele>90.980000000000004</ele>
        <time>2016-04-23T10:11:28Z</time>
      </trkpt>
      <trkpt lat="50.93908173032105" lon="5.613014046102762">
        <ele>90.5</ele>
        <time>2016-04-23T10:11:40Z</time>
      </trkpt>
      <trkpt lat="50.939185582101345" lon="5.613317135721445">
        <ele>90.019999999999996</ele>
        <time>2016-04-23T10:11:56Z</time>
      </trkpt>
      <trkpt lat="50.939198322594166" lon="5.613361308351159">
        <ele>93.390000000000001</ele>
        <time>2016-04-23T10:11:58Z</time>
      </trkpt>
      <trkpt lat="50.939205195754766" lon="5.613382598385215">
        <ele>91.459999999999994</ele>
        <time>2016-04-23T10:11:59Z</time>
      </trkpt>
      <trkpt lat="50.939400410279632" lon="5.614167395979166">
        <ele>91.459999999999994</ele>
        <time>2016-04-23T10:12:34Z</time>
      </trkpt>
      <trkpt lat="50.93952739611268" lon="5.614469731226564">
        <ele>91.459999999999994</ele>
        <time>2016-04-23T10:12:48Z</time>
      </trkpt>
      <trkpt lat="50.939839202910662" lon="5.615299036726356">
        <ele>91.459999999999994</ele>
        <time>2016-04-23T10:13:29Z</time>
      </trkpt>
      <trkpt lat="50.939982449635863" lon="5.615629954263568">
        <ele>90.5</ele>
        <time>2016-04-23T10:13:44Z</time>
      </trkpt>
      <trkpt lat="50.940195685252547" lon="5.616235798224807">
        <ele>89.540000000000006</ele>
        <time>2016-04-23T10:14:12Z</time>
      </trkpt>
      <trkpt lat="50.940347732976079" lon="5.616716668009758">
        <ele>86.659999999999997</ele>
        <time>2016-04-23T10:14:36Z</time>
      </trkpt>
      <trkpt lat="50.940441275015473" lon="5.6169459130615">
        <ele>88.579999999999998</ele>
        <time>2016-04-23T10:14:48Z</time>
      </trkpt>
      <trkpt lat="50.940576056018472" lon="5.617359727621079">
        <ele>89.060000000000002</ele>
        <time>2016-04-23T10:15:08Z</time>
      </trkpt>
      <trkpt lat="50.940660461783409" lon="5.617646807804704">
        <ele>88.099999999999994</ele>
        <time>2016-04-23T10:15:22Z</time>
      </trkpt>
      <trkpt lat="50.940666664391756" lon="5.617667427286506">
        <ele>88.099999999999994</ele>
        <time>2016-04-23T10:15:23Z</time>
      </trkpt>
      <trkpt lat="50.940677979961038" lon="5.617707576602697">
        <ele>88.099999999999994</ele>
        <time>2016-04-23T10:15:25Z</time>
      </trkpt>
      <trkpt lat="50.940777724608779" lon="5.618008570745587">
        <ele>87.620000000000005</ele>
        <time>2016-04-23T10:15:39Z</time>
      </trkpt>
      <trkpt lat="50.940861292183399" lon="5.618281401693821">
        <ele>89.060000000000002</ele>
        <time>2016-04-23T10:15:55Z</time>
      </trkpt>
      <trkpt lat="50.940877133980393" lon="5.618385253474116">
        <ele>89.540000000000006</ele>
        <time>2016-04-23T10:16:02Z</time>
      </trkpt>
      <trkpt lat="50.941182905808091" lon="5.619337018579245">
        <ele>90.019999999999996</ele>
        <time>2016-04-23T10:16:46Z</time>
      </trkpt>
      <trkpt lat="50.941658159717917" lon="5.62099521048367">
        <ele>90.019999999999996</ele>
        <time>2016-04-23T10:17:11Z</time>
      </trkpt>
      <trkpt lat="50.941876256838441" lon="5.621591079980135">
        <ele>90.019999999999996</ele>
        <time>2016-04-23T10:17:23Z</time>
      </trkpt>
      <trkpt lat="50.942419655621052" lon="5.623001251369715">
        <ele>90.5</ele>
        <time>2016-04-23T10:18:11Z</time>
      </trkpt>
      <trkpt lat="50.94229644164443" lon="5.623282045125961">
        <ele>90.980000000000004</ele>
        <time>2016-04-23T10:18:27Z</time>
      </trkpt>
      <trkpt lat="50.941857900470495" lon="5.623841537162662">
        <ele>91.939999999999998</ele>
        <time>2016-04-23T10:19:01Z</time>
      </trkpt>
      <trkpt lat="50.941824791952968" lon="5.623879255726934">
        <ele>91.459999999999994</ele>
        <time>2016-04-23T10:19:03Z</time>
      </trkpt>
      <trkpt lat="50.94164558686316" lon="5.624082516878843">
        <ele>92.420000000000002</ele>
        <time>2016-04-23T10:19:20Z</time>
      </trkpt>
      <trkpt lat="50.941626308485866" lon="5.624116715043783">
        <ele>91.939999999999998</ele>
        <time>2016-04-23T10:19:23Z</time>
      </trkpt>
      <trkpt lat="50.941601162776351" lon="5.624163653701544">
        <ele>92.420000000000002</ele>
        <time>2016-04-23T10:19:26Z</time>
      </trkpt>
      <trkpt lat="50.94121852889657" lon="5.624776454642415">
        <ele>90.5</ele>
        <time>2016-04-23T10:20:02Z</time>
      </trkpt>
      <trkpt lat="50.941052734851837" lon="5.625021709129214">
        <ele>88.579999999999998</ele>
        <time>2016-04-23T10:20:18Z</time>
      </trkpt>
      <trkpt lat="50.941029936075211" lon="5.625144084915519">
        <ele>88.099999999999994</ele>
        <time>2016-04-23T10:20:28Z</time>
      </trkpt>
      <trkpt lat="50.941060362383723" lon="5.625380035489798">
        <ele>89.060000000000002</ele>
        <time>2016-04-23T10:20:38Z</time>
      </trkpt>
      <trkpt lat="50.94106555916369" lon="5.62549545429647">
        <ele>89.060000000000002</ele>
        <time>2016-04-23T10:20:42Z</time>
      </trkpt>
      <trkpt lat="50.941175445914268" lon="5.625817654654384">
        <ele>89.060000000000002</ele>
        <time>2016-04-23T10:20:58Z</time>
      </trkpt>
      <trkpt lat="50.941254319623113" lon="5.626075817272067">
        <ele>89.060000000000002</ele>
        <time>2016-04-23T10:21:15Z</time>
      </trkpt>
      <trkpt lat="50.941379964351654" lon="5.626431712880731">
        <ele>88.579999999999998</ele>
        <time>2016-04-23T10:21:31Z</time>
      </trkpt>
      <trkpt lat="50.941712893545628" lon="5.627380209043622">
        <ele>87.620000000000005</ele>
        <time>2016-04-23T10:22:06Z</time>
      </trkpt>
      <trkpt lat="50.94214104115963" lon="5.628478154540062">
        <ele>87.620000000000005</ele>
        <time>2016-04-23T10:23:06Z</time>
      </trkpt>
      <trkpt lat="50.942310523241758" lon="5.628257375210524">
        <ele>88.099999999999994</ele>
        <time>2016-04-23T10:23:21Z</time>
      </trkpt>
      <trkpt lat="50.942379757761955" lon="5.628158636391163">
        <ele>88.579999999999998</ele>
        <time>2016-04-23T10:23:27Z</time>
      </trkpt>
      <trkpt lat="50.942769180983305" lon="5.627698469907045">
        <ele>89.540000000000006</ele>
        <time>2016-04-23T10:24:01Z</time>
      </trkpt>
      <trkpt lat="50.942861046642065" lon="5.627663182094693">
        <ele>89.540000000000006</ele>
        <time>2016-04-23T10:24:10Z</time>
      </trkpt>
      <trkpt lat="50.943264467641711" lon="5.62870186753571">
        <ele>89.540000000000006</ele>
        <time>2016-04-23T10:24:57Z</time>
      </trkpt>
      <trkpt lat="50.943388771265745" lon="5.629044519737363">
        <ele>88.579999999999998</ele>
        <time>2016-04-23T10:25:13Z</time>
      </trkpt>
      <trkpt lat="50.943761514499784" lon="5.629898384213448">
        <ele>88.099999999999994</ele>
        <time>2016-04-23T10:25:55Z</time>
      </trkpt>
      <trkpt lat="50.943882465362549" lon="5.630099633708596">
        <ele>88.099999999999994</ele>
        <time>2016-04-23T10:26:09Z</time>
      </trkpt>
      <trkpt lat="50.943960584700108" lon="5.630054203793407">
        <ele>88.579999999999998</ele>
        <time>2016-04-23T10:26:15Z</time>
      </trkpt>
      <trkpt lat="50.944094276055694" lon="5.629880530759692">
        <ele>88.579999999999998</ele>
        <time>2016-04-23T10:26:21Z</time>
      </trkpt>
      <trkpt lat="50.944538936018944" lon="5.628844862803817">
        <ele>89.060000000000002</ele>
        <time>2016-04-23T10:27:09Z</time>
      </trkpt>
      <trkpt lat="50.944697773084044" lon="5.628497684374452">
        <ele>89.060000000000002</ele>
        <time>2016-04-23T10:27:24Z</time>
      </trkpt>
      <trkpt lat="50.945444097742438" lon="5.626560123637319">
        <ele>85.209999999999994</ele>
        <time>2016-04-23T10:29:09Z</time>
      </trkpt>
      <trkpt lat="50.945532526820898" lon="5.626357030123472">
        <ele>86.180000000000007</ele>
        <time>2016-04-23T10:29:27Z</time>
      </trkpt>
      <trkpt lat="50.946155386045575" lon="5.624792464077473">
        <ele>85.209999999999994</ele>
        <time>2016-04-23T10:30:34Z</time>
      </trkpt>
      <trkpt lat="50.946780676022172" lon="5.623107114806771">
        <ele>78.969999999999999</ele>
        <time>2016-04-23T10:31:58Z</time>
      </trkpt>
      <trkpt lat="50.9467429574579" lon="5.623040897771716">
        <ele>78.969999999999999</ele>
        <time>2016-04-23T10:32:01Z</time>
      </trkpt>
      <trkpt lat="50.946690151467919" lon="5.622928915545344">
        <ele>79.930000000000007</ele>
        <time>2016-04-23T10:32:08Z</time>
      </trkpt>
      <trkpt lat="50.946554867550731" lon="5.622638901695609">
        <ele>81.370000000000005</ele>
        <time>2016-04-23T10:32:24Z</time>
      </trkpt>
      <trkpt lat="50.946472305804491" lon="5.622415188699961">
        <ele>83.290000000000006</ele>
        <time>2016-04-23T10:32:36Z</time>
      </trkpt>
      <trkpt lat="50.946368034929037" lon="5.622162893414497">
        <ele>84.730000000000004</ele>
        <time>2016-04-23T10:32:49Z</time>
      </trkpt>
      <trkpt lat="50.946306344121695" lon="5.62197589315474">
        <ele>85.689999999999998</ele>
        <time>2016-04-23T10:32:59Z</time>
      </trkpt>
      <trkpt lat="50.94623476266861" lon="5.621809931471944">
        <ele>86.659999999999997</ele>
        <time>2016-04-23T10:33:10Z</time>
      </trkpt>
      <trkpt lat="50.946107441559434" lon="5.621465435251594">
        <ele>87.620000000000005</ele>
        <time>2016-04-23T10:33:28Z</time>
      </trkpt>
      <trkpt lat="50.945549458265305" lon="5.620094239711762">
        <ele>89.060000000000002</ele>
        <time>2016-04-23T10:34:41Z</time>
      </trkpt>
      <trkpt lat="50.945494808256626" lon="5.619956944137812">
        <ele>89.060000000000002</ele>
        <time>2016-04-23T10:34:47Z</time>
      </trkpt>
      <trkpt lat="50.945346532389522" lon="5.619572214782238">
        <ele>89.060000000000002</ele>
        <time>2016-04-23T10:35:04Z</time>
      </trkpt>
      <trkpt lat="50.94532591290772" lon="5.619498789310455">
        <ele>89.060000000000002</ele>
        <time>2016-04-23T10:35:07Z</time>
      </trkpt>
      <trkpt lat="50.945248212665319" lon="5.619276752695441">
        <ele>89.060000000000002</ele>
        <time>2016-04-23T10:35:20Z</time>
      </trkpt>
      <trkpt lat="50.94526581466198" lon="5.619231155142188">
        <ele>89.060000000000002</ele>
        <time>2016-04-23T10:35:22Z</time>
      </trkpt>
      <trkpt lat="50.945363799110055" lon="5.619085896760225">
        <ele>89.060000000000002</ele>
        <time>2016-04-23T10:35:31Z</time>
      </trkpt>
      <trkpt lat="50.945395566523075" lon="5.61903384514153">
        <ele>89.060000000000002</ele>
        <time>2016-04-23T10:35:34Z</time>
      </trkpt>
      <trkpt lat="50.94554141163826" lon="5.618857908993959">
        <ele>89.540000000000006</ele>
        <time>2016-04-23T10:35:48Z</time>
      </trkpt>
      <trkpt lat="50.945574855431914" lon="5.618815999478102">
        <ele>89.540000000000006</ele>
        <time>2016-04-23T10:35:51Z</time>
      </trkpt>
      <trkpt lat="50.945614669471979" lon="5.618764786049724">
        <ele>89.060000000000002</ele>
        <time>2016-04-23T10:35:54Z</time>
      </trkpt>
      <trkpt lat="50.946356551721692" lon="5.617752922698855">
        <ele>87.140000000000001</ele>
        <time>2016-04-23T10:36:57Z</time>
      </trkpt>
      <trkpt lat="50.946611445397139" lon="5.617415383458138">
        <ele>86.180000000000007</ele>
        <time>2016-04-23T10:37:18Z</time>
      </trkpt>
      <trkpt lat="50.946953175589442" lon="5.616951864212751">
        <ele>84.25</ele>
        <time>2016-04-23T10:38:37Z</time>
      </trkpt>
      <trkpt lat="50.947047220543027" lon="5.61682085506618">
        <ele>83.769999999999996</ele>
        <time>2016-04-23T10:39:07Z</time>
      </trkpt>
      <trkpt lat="50.947097260504961" lon="5.616746339946985">
        <ele>83.769999999999996</ele>
        <time>2016-04-23T10:39:16Z</time>
      </trkpt>
      <trkpt lat="50.947148473933339" lon="5.616682721301913">
        <ele>83.290000000000006</ele>
        <time>2016-04-23T10:39:19Z</time>
      </trkpt>
      <trkpt lat="50.947294402867556" lon="5.616491865366697">
        <ele>82.329999999999998</ele>
        <time>2016-04-23T10:39:33Z</time>
      </trkpt>
      <trkpt lat="50.947311334311962" lon="5.616469485685229">
        <ele>82.329999999999998</ele>
        <time>2016-04-23T10:39:35Z</time>
      </trkpt>
      <trkpt lat="50.947409486398101" lon="5.616337889805436">
        <ele>80.890000000000001</ele>
        <time>2016-04-23T10:39:47Z</time>
      </trkpt>
      <trkpt lat="50.947522139176726" lon="5.616189949214459">
        <ele>80.409999999999997</ele>
        <time>2016-04-23T10:39:57Z</time>
      </trkpt>
      <trkpt lat="50.947586428374052" lon="5.616105375811458">
        <ele>80.409999999999997</ele>
        <time>2016-04-23T10:40:03Z</time>
      </trkpt>
      <trkpt lat="50.94779840670526" lon="5.615815110504627">
        <ele>81.370000000000005</ele>
        <time>2016-04-23T10:40:20Z</time>
      </trkpt>
      <trkpt lat="50.94806713052094" lon="5.615472877398133">
        <ele>83.769999999999996</ele>
        <time>2016-04-23T10:40:47Z</time>
      </trkpt>
      <trkpt lat="50.948406597599387" lon="5.615025283768773">
        <ele>82.329999999999998</ele>
        <time>2016-04-23T10:41:18Z</time>
      </trkpt>
      <trkpt lat="50.948423529043794" lon="5.615007346495986">
        <ele>86.659999999999997</ele>
        <time>2016-04-23T10:41:19Z</time>
      </trkpt>
      <trkpt lat="50.948439873754978" lon="5.61498899012804">
        <ele>82.810000000000002</ele>
        <time>2016-04-23T10:41:20Z</time>
      </trkpt>
      <trkpt lat="50.948615055531263" lon="5.614748848602176">
        <ele>83.290000000000006</ele>
        <time>2016-04-23T10:41:35Z</time>
      </trkpt>
      <trkpt lat="50.948773054406047" lon="5.614545084536076">
        <ele>83.290000000000006</ele>
        <time>2016-04-23T10:41:47Z</time>
      </trkpt>
      <trkpt lat="50.948793757706881" lon="5.614512981846929">
        <ele>83.290000000000006</ele>
        <time>2016-04-23T10:41:49Z</time>
      </trkpt>
      <trkpt lat="50.9489740524441" lon="5.614336291328073">
        <ele>83.769999999999996</ele>
        <time>2016-04-23T10:42:05Z</time>
      </trkpt>
      <trkpt lat="50.949145965278149" lon="5.614550868049264">
        <ele>83.290000000000006</ele>
        <time>2016-04-23T10:42:17Z</time>
      </trkpt>
      <trkpt lat="50.949549470096827" lon="5.615480672568083">
        <ele>81.370000000000005</ele>
        <time>2016-04-23T10:43:05Z</time>
      </trkpt>
      <trkpt lat="50.949741248041391" lon="5.615893565118313">
        <ele>80.409999999999997</ele>
        <time>2016-04-23T10:43:29Z</time>
      </trkpt>
      <trkpt lat="50.949837807565928" lon="5.616070842370391">
        <ele>80.409999999999997</ele>
        <time>2016-04-23T10:43:39Z</time>
      </trkpt>
      <trkpt lat="50.949946856126189" lon="5.616285838186741">
        <ele>80.890000000000001</ele>
        <time>2016-04-23T10:43:47Z</time>
      </trkpt>
      <trkpt lat="50.950619420036674" lon="5.617868257686496">
        <ele>87.140000000000001</ele>
        <time>2016-04-23T10:44:50Z</time>
      </trkpt>
      <trkpt lat="50.950685637071729" lon="5.617990214377642">
        <ele>87.140000000000001</ele>
        <time>2016-04-23T10:44:59Z</time>
      </trkpt>
      <trkpt lat="50.950706340372562" lon="5.618044026196003">
        <ele>87.140000000000001</ele>
        <time>2016-04-23T10:45:02Z</time>
      </trkpt>
      <trkpt lat="50.951079754158854" lon="5.618885736912489">
        <ele>88.099999999999994</ele>
        <time>2016-04-23T10:45:42Z</time>
      </trkpt>
      <trkpt lat="50.951358703896403" lon="5.619371384382248">
        <ele>88.579999999999998</ele>
        <time>2016-04-23T10:46:12Z</time>
      </trkpt>
      <trkpt lat="50.951377060264349" lon="5.619397284463048">
        <ele>88.579999999999998</ele>
        <time>2016-04-23T10:46:20Z</time>
      </trkpt>
      <trkpt lat="50.951421400532126" lon="5.619479427114129">
        <ele>88.579999999999998</ele>
        <time>2016-04-23T10:46:26Z</time>
      </trkpt>
      <trkpt lat="50.951488288119435" lon="5.619527120143175">
        <ele>88.099999999999994</ele>
        <time>2016-04-23T10:46:57Z</time>
      </trkpt>
      <trkpt lat="50.951575208455324" lon="5.61952636577189">
        <ele>87.620000000000005</ele>
        <time>2016-04-23T10:48:49Z</time>
      </trkpt>
      <trkpt lat="50.951823815703392" lon="5.619267197325826">
        <ele>89.540000000000006</ele>
        <time>2016-04-23T10:53:40Z</time>
      </trkpt>
      <trkpt lat="50.951950633898377" lon="5.618905602023006">
        <ele>89.540000000000006</ele>
        <time>2016-04-23T10:53:59Z</time>
      </trkpt>
      <trkpt lat="50.952037218958139" lon="5.61865322291851">
        <ele>89.540000000000006</ele>
        <time>2016-04-23T10:54:09Z</time>
      </trkpt>
      <trkpt lat="50.952171161770821" lon="5.6181132607162">
        <ele>89.540000000000006</ele>
        <time>2016-04-23T10:54:30Z</time>
      </trkpt>
      <trkpt lat="50.95239101909101" lon="5.617352854460478">
        <ele>89.060000000000002</ele>
        <time>2016-04-23T10:55:00Z</time>
      </trkpt>
      <trkpt lat="50.952405603602529" lon="5.617329636588693">
        <ele>89.060000000000002</ele>
        <time>2016-04-23T10:55:01Z</time>
      </trkpt>
      <trkpt lat="50.952491015195847" lon="5.617050686851144">
        <ele>89.060000000000002</ele>
        <time>2016-04-23T10:55:13Z</time>
      </trkpt>
      <trkpt lat="50.952595705166459" lon="5.616698227822781">
        <ele>89.060000000000002</ele>
        <time>2016-04-23T10:55:26Z</time>
      </trkpt>
      <trkpt lat="50.952612804248929" lon="5.616626646369696">
        <ele>89.060000000000002</ele>
        <time>2016-04-23T10:55:29Z</time>
      </trkpt>
      <trkpt lat="50.952735934406519" lon="5.616175280883908">
        <ele>88.579999999999998</ele>
        <time>2016-04-23T10:55:48Z</time>
      </trkpt>
      <trkpt lat="50.952781615778804" lon="5.615979311987758">
        <ele>88.579999999999998</ele>
        <time>2016-04-23T10:55:56Z</time>
      </trkpt>
      <trkpt lat="50.952861243858933" lon="5.615731794387102">
        <ele>88.579999999999998</ele>
        <time>2016-04-23T10:56:08Z</time>
      </trkpt>
      <trkpt lat="50.952988732606173" lon="5.615278584882617">
        <ele>90.980000000000004</ele>
        <time>2016-04-23T10:56:28Z</time>
      </trkpt>
      <trkpt lat="50.953011531382799" lon="5.615210104733706">
        <ele>89.060000000000002</ele>
        <time>2016-04-23T10:56:31Z</time>
      </trkpt>
      <trkpt lat="50.95320506952703" lon="5.614500492811203">
        <ele>89.060000000000002</ele>
        <time>2016-04-23T10:56:55Z</time>
      </trkpt>
      <trkpt lat="50.953376395627856" lon="5.613810243085027">
        <ele>89.060000000000002</ele>
        <time>2016-04-23T10:57:25Z</time>
      </trkpt>
      <trkpt lat="50.95339466817677" lon="5.613730112090707">
        <ele>89.060000000000002</ele>
        <time>2016-04-23T10:57:39Z</time>
      </trkpt>
      <trkpt lat="50.953433811664581" lon="5.613637659698725">
        <ele>89.060000000000002</ele>
        <time>2016-04-23T10:57:47Z</time>
      </trkpt>
      <trkpt lat="50.953533304855227" lon="5.613250751048327">
        <ele>89.060000000000002</ele>
        <time>2016-04-23T10:58:04Z</time>
      </trkpt>
      <trkpt lat="50.953559707850218" lon="5.613116724416614">
        <ele>89.060000000000002</ele>
        <time>2016-04-23T10:58:14Z</time>
      </trkpt>
      <trkpt lat="50.953768920153379" lon="5.612490177154541">
        <ele>89.060000000000002</ele>
        <time>2016-04-23T10:59:47Z</time>
      </trkpt>
      <trkpt lat="50.953855002298951" lon="5.612288843840361">
        <ele>88.579999999999998</ele>
        <time>2016-04-23T10:59:59Z</time>
      </trkpt>
      <trkpt lat="50.953982993960381" lon="5.612049456685782">
        <ele>88.579999999999998</ele>
        <time>2016-04-23T11:00:16Z</time>
      </trkpt>
      <trkpt lat="50.954088270664215" lon="5.611954824998975">
        <ele>88.579999999999998</ele>
        <time>2016-04-23T11:00:27Z</time>
      </trkpt>
      <trkpt lat="50.954192457720637" lon="5.61188030987978">
        <ele>88.579999999999998</ele>
        <time>2016-04-23T11:00:32Z</time>
      </trkpt>
      <trkpt lat="50.954461516812444" lon="5.61175525188446">
        <ele>88.579999999999998</ele>
        <time>2016-04-23T11:00:48Z</time>
      </trkpt>
      <trkpt lat="50.954653881490231" lon="5.611638156697154">
        <ele>88.099999999999994</ele>
        <time>2016-04-23T11:01:02Z</time>
      </trkpt>
      <trkpt lat="50.954871727153659" lon="5.611505135893822">
        <ele>88.099999999999994</ele>
        <time>2016-04-23T11:01:19Z</time>
      </trkpt>
      <trkpt lat="50.955152688547969" lon="5.611322829499841">
        <ele>88.099999999999994</ele>
        <time>2016-04-23T11:01:34Z</time>
      </trkpt>
      <trkpt lat="50.955328205600381" lon="5.611253594979644">
        <ele>87.140000000000001</ele>
        <time>2016-04-23T11:01:52Z</time>
      </trkpt>
      <trkpt lat="50.955481007695198" lon="5.6112817581743">
        <ele>87.140000000000001</ele>
        <time>2016-04-23T11:01:59Z</time>
      </trkpt>
      <trkpt lat="50.955557534471154" lon="5.611431878060103">
        <ele>87.140000000000001</ele>
        <time>2016-04-23T11:02:08Z</time>
      </trkpt>
      <trkpt lat="50.956322969868779" lon="5.61285219155252">
        <ele>87.620000000000005</ele>
        <time>2016-04-23T11:03:23Z</time>
      </trkpt>
      <trkpt lat="50.956212328746915" lon="5.612992169335485">
        <ele>87.620000000000005</ele>
        <time>2016-04-23T11:03:37Z</time>
      </trkpt>
      <trkpt lat="50.956092467531562" lon="5.613119909539819">
        <ele>88.099999999999994</ele>
        <time>2016-04-23T11:03:46Z</time>
      </trkpt>
      <trkpt lat="50.956051647663116" lon="5.613157460466027">
        <ele>88.099999999999994</ele>
        <time>2016-04-23T11:03:49Z</time>
      </trkpt>
      <trkpt lat="50.955917621031404" lon="5.613311436027288">
        <ele>88.099999999999994</ele>
        <time>2016-04-23T11:04:01Z</time>
      </trkpt>
      <trkpt lat="50.955781331285834" lon="5.613457532599568">
        <ele>88.099999999999994</ele>
        <time>2016-04-23T11:04:13Z</time>
      </trkpt>
      <trkpt lat="50.955606820061803" lon="5.613701194524765">
        <ele>88.099999999999994</ele>
        <time>2016-04-23T11:04:28Z</time>
      </trkpt>
      <trkpt lat="50.955444797873497" lon="5.613877298310399">
        <ele>88.579999999999998</ele>
        <time>2016-04-23T11:04:42Z</time>
      </trkpt>
      <trkpt lat="50.955447312444448" lon="5.613892218098044">
        <ele>88.579999999999998</ele>
        <time>2016-04-23T11:04:43Z</time>
      </trkpt>
      <trkpt lat="50.955483270809054" lon="5.613962458446622">
        <ele>88.579999999999998</ele>
        <time>2016-04-23T11:04:47Z</time>
      </trkpt>
      <trkpt lat="50.955550745129585" lon="5.614082403481007">
        <ele>88.579999999999998</ele>
        <time>2016-04-23T11:04:56Z</time>
      </trkpt>
      <trkpt lat="50.95557102933526" lon="5.614105202257633">
        <ele>88.579999999999998</ele>
        <time>2016-04-23T11:04:58Z</time>
      </trkpt>
      <trkpt lat="50.95595458522439" lon="5.61481892131269">
        <ele>88.099999999999994</ele>
        <time>2016-04-23T11:05:33Z</time>
      </trkpt>
      <trkpt lat="50.956023400649428" lon="5.614928808063269">
        <ele>90.980000000000004</ele>
        <time>2016-04-23T11:05:39Z</time>
      </trkpt>
      <trkpt lat="50.956045361235738" lon="5.614975914359093">
        <ele>88.099999999999994</ele>
        <time>2016-04-23T11:05:41Z</time>
      </trkpt>
      <trkpt lat="50.956165557727218" lon="5.615196023136377">
        <ele>87.620000000000005</ele>
        <time>2016-04-23T11:05:54Z</time>
      </trkpt>
      <trkpt lat="50.956300674006343" lon="5.615420825779438">
        <ele>88.099999999999994</ele>
        <time>2016-04-23T11:06:07Z</time>
      </trkpt>
      <trkpt lat="50.956472083926201" lon="5.615351004526019">
        <ele>87.620000000000005</ele>
        <time>2016-04-23T11:06:17Z</time>
      </trkpt>
      <trkpt lat="50.956513490527868" lon="5.61532317660749">
        <ele>87.620000000000005</ele>
        <time>2016-04-23T11:06:19Z</time>
      </trkpt>
      <trkpt lat="50.956584988161922" lon="5.615283865481615">
        <ele>87.620000000000005</ele>
        <time>2016-04-23T11:06:26Z</time>
      </trkpt>
      <trkpt lat="50.956640308722854" lon="5.615239189937711">
        <ele>88.099999999999994</ele>
        <time>2016-04-23T11:06:29Z</time>
      </trkpt>
      <trkpt lat="50.957181192934513" lon="5.614748429507017">
        <ele>86.659999999999997</ele>
        <time>2016-04-23T11:06:56Z</time>
      </trkpt>
      <trkpt lat="50.957387890666723" lon="5.614584563300014">
        <ele>87.140000000000001</ele>
        <time>2016-04-23T11:07:03Z</time>
      </trkpt>
      <trkpt lat="50.957839507609606" lon="5.614232020452619">
        <ele>87.620000000000005</ele>
        <time>2016-04-23T11:07:16Z</time>
      </trkpt>
      <trkpt lat="50.958351138979197" lon="5.613882159814239">
        <ele>87.620000000000005</ele>
        <time>2016-04-23T11:07:29Z</time>
      </trkpt>
      <trkpt lat="50.958775514736772" lon="5.613551242277026">
        <ele>88.099999999999994</ele>
        <time>2016-04-23T11:07:40Z</time>
      </trkpt>
      <trkpt lat="50.959489401429892" lon="5.613013962283731">
        <ele>88.099999999999994</ele>
        <time>2016-04-23T11:08:15Z</time>
      </trkpt>
      <trkpt lat="50.960052665323019" lon="5.612542815506458">
        <ele>87.620000000000005</ele>
        <time>2016-04-23T11:08:54Z</time>
      </trkpt>
      <trkpt lat="50.960088791325688" lon="5.612516244873405">
        <ele>87.620000000000005</ele>
        <time>2016-04-23T11:08:56Z</time>
      </trkpt>
      <trkpt lat="50.960295740514994" lon="5.612335028126836">
        <ele>87.140000000000001</ele>
        <time>2016-04-23T11:09:12Z</time>
      </trkpt>
      <trkpt lat="50.960445441305637" lon="5.612202761694789">
        <ele>87.620000000000005</ele>
        <time>2016-04-23T11:09:24Z</time>
      </trkpt>
      <trkpt lat="50.960663286969066" lon="5.612037219107151">
        <ele>87.620000000000005</ele>
        <time>2016-04-23T11:09:39Z</time>
      </trkpt>
      <trkpt lat="50.960869733244181" lon="5.611886931583285">
        <ele>87.620000000000005</ele>
        <time>2016-04-23T11:09:52Z</time>
      </trkpt>
      <trkpt lat="50.961073329672217" lon="5.611733375117183">
        <ele>88.099999999999994</ele>
        <time>2016-04-23T11:10:06Z</time>
      </trkpt>
      <trkpt lat="50.961089003831148" lon="5.611719042062759">
        <ele>87.620000000000005</ele>
        <time>2016-04-23T11:10:08Z</time>
      </trkpt>
      <trkpt lat="50.961232166737318" lon="5.611610747873783">
        <ele>87.620000000000005</ele>
        <time>2016-04-23T11:10:21Z</time>
      </trkpt>
      <trkpt lat="50.961294947192073" lon="5.611540088430047">
        <ele>87.620000000000005</ele>
        <time>2016-04-23T11:10:30Z</time>
      </trkpt>
      <trkpt lat="50.961314812302589" lon="5.611527431756258">
        <ele>87.620000000000005</ele>
        <time>2016-04-23T11:10:32Z</time>
      </trkpt>
      <trkpt lat="50.961372898891568" lon="5.611471775919199">
        <ele>87.620000000000005</ele>
        <time>2016-04-23T11:10:37Z</time>
      </trkpt>
      <trkpt lat="50.961455125361681" lon="5.611399691551924">
        <ele>88.099999999999994</ele>
        <time>2016-04-23T11:10:44Z</time>
      </trkpt>
      <trkpt lat="50.961668025702238" lon="5.611221324652433">
        <ele>88.579999999999998</ele>
        <time>2016-04-23T11:11:00Z</time>
      </trkpt>
      <trkpt lat="50.9619065746665" lon="5.611035665497184">
        <ele>88.099999999999994</ele>
        <time>2016-04-23T11:11:16Z</time>
      </trkpt>
      <trkpt lat="50.962322065606713" lon="5.610722433775663">
        <ele>88.099999999999994</ele>
        <time>2016-04-23T11:11:49Z</time>
      </trkpt>
      <trkpt lat="50.962414937093854" lon="5.610640626400709">
        <ele>88.579999999999998</ele>
        <time>2016-04-23T11:11:56Z</time>
      </trkpt>
      <trkpt lat="50.962545359507203" lon="5.610539624467492">
        <ele>88.579999999999998</ele>
        <time>2016-04-23T11:12:03Z</time>
      </trkpt>
      <trkpt lat="50.962764043360949" lon="5.61035530641675">
        <ele>88.099999999999994</ele>
        <time>2016-04-23T11:12:19Z</time>
      </trkpt>
      <trkpt lat="50.962881138548255" lon="5.610248604789376">
        <ele>88.579999999999998</ele>
        <time>2016-04-23T11:12:31Z</time>
      </trkpt>
      <trkpt lat="50.963045759126544" lon="5.610112315043807">
        <ele>88.579999999999998</ele>
        <time>2016-04-23T11:12:42Z</time>
      </trkpt>
      <trkpt lat="50.962866134941578" lon="5.609481744468212">
        <ele>88.099999999999994</ele>
        <time>2016-04-23T11:13:09Z</time>
      </trkpt>
      <trkpt lat="50.962759517133236" lon="5.609058206900954">
        <ele>88.099999999999994</ele>
        <time>2016-04-23T11:13:29Z</time>
      </trkpt>
      <trkpt lat="50.962753314524889" lon="5.609031049534679">
        <ele>88.099999999999994</ele>
        <time>2016-04-23T11:13:30Z</time>
      </trkpt>
      <trkpt lat="50.962438574060798" lon="5.60785791836679">
        <ele>87.140000000000001</ele>
        <time>2016-04-23T11:14:32Z</time>
      </trkpt>
      <trkpt lat="50.962366238236427" lon="5.607622051611543">
        <ele>87.140000000000001</ele>
        <time>2016-04-23T11:14:42Z</time>
      </trkpt>
      <trkpt lat="50.962297338992357" lon="5.607262719422579">
        <ele>86.659999999999997</ele>
        <time>2016-04-23T11:14:56Z</time>
      </trkpt>
      <trkpt lat="50.962313180789351" lon="5.607211505994201">
        <ele>86.659999999999997</ele>
        <time>2016-04-23T11:14:58Z</time>
      </trkpt>
      <trkpt lat="50.962424576282501" lon="5.607131123542786">
        <ele>87.140000000000001</ele>
        <time>2016-04-23T11:15:06Z</time>
      </trkpt>
      <trkpt lat="50.962515352293849" lon="5.607057027518749">
        <ele>86.659999999999997</ele>
        <time>2016-04-23T11:15:12Z</time>
      </trkpt>
      <trkpt lat="50.96273772418499" lon="5.606921995058656">
        <ele>86.659999999999997</ele>
        <time>2016-04-23T11:15:24Z</time>
      </trkpt>
      <trkpt lat="50.962965460494161" lon="5.606780759990215">
        <ele>86.659999999999997</ele>
        <time>2016-04-23T11:15:37Z</time>
      </trkpt>
      <trkpt lat="50.963142151013017" lon="5.60666517354548">
        <ele>87.140000000000001</ele>
        <time>2016-04-23T11:15:49Z</time>
      </trkpt>
      <trkpt lat="50.963352285325527" lon="5.606532152742147">
        <ele>86.659999999999997</ele>
        <time>2016-04-23T11:16:08Z</time>
      </trkpt>
      <trkpt lat="50.96352688036859" lon="5.606405586004257">
        <ele>87.140000000000001</ele>
        <time>2016-04-23T11:16:21Z</time>
      </trkpt>
      <trkpt lat="50.963534591719508" lon="5.606401562690735">
        <ele>87.140000000000001</ele>
        <time>2016-04-23T11:16:22Z</time>
      </trkpt>
      <trkpt lat="50.963588738813996" lon="5.606367699801922">
        <ele>87.140000000000001</ele>
        <time>2016-04-23T11:16:26Z</time>
      </trkpt>
      <trkpt lat="50.963614219799638" lon="5.60634221881628">
        <ele>86.659999999999997</ele>
        <time>2016-04-23T11:16:28Z</time>
      </trkpt>
      <trkpt lat="50.963689489290118" lon="5.60628111474216">
        <ele>87.140000000000001</ele>
        <time>2016-04-23T11:16:36Z</time>
      </trkpt>
      <trkpt lat="50.963660823181272" lon="5.606108531355858">
        <ele>86.659999999999997</ele>
        <time>2016-04-23T11:16:38Z</time>
      </trkpt>
      <trkpt lat="50.963590163737535" lon="5.6057592574507">
        <ele>86.659999999999997</ele>
        <time>2016-04-23T11:16:46Z</time>
      </trkpt>
      <trkpt lat="50.963197555392981" lon="5.603838125243783">
        <ele>86.180000000000007</ele>
        <time>2016-04-23T11:17:22Z</time>
      </trkpt>
      <trkpt lat="50.963199902325869" lon="5.603703847154975">
        <ele>85.689999999999998</ele>
        <time>2016-04-23T11:17:25Z</time>
      </trkpt>
      <trkpt lat="50.963214067742229" lon="5.60362983494997">
        <ele>85.689999999999998</ele>
        <time>2016-04-23T11:17:27Z</time>
      </trkpt>
      <trkpt lat="50.963234351947904" lon="5.603605024516583">
        <ele>86.180000000000007</ele>
        <time>2016-04-23T11:17:28Z</time>
      </trkpt>
      <trkpt lat="50.963254552334547" lon="5.603584488853812">
        <ele>86.180000000000007</ele>
        <time>2016-04-23T11:17:29Z</time>
      </trkpt>
      <trkpt lat="50.963278608396649" lon="5.603577364236116">
        <ele>85.209999999999994</ele>
        <time>2016-04-23T11:17:30Z</time>
      </trkpt>
      <trkpt lat="50.963299479335546" lon="5.603563198819757">
        <ele>87.140000000000001</ele>
        <time>2016-04-23T11:17:31Z</time>
      </trkpt>
      <trkpt lat="50.963326469063759" lon="5.603551715612412">
        <ele>86.180000000000007</ele>
        <time>2016-04-23T11:17:32Z</time>
      </trkpt>
      <trkpt lat="50.963354045525193" lon="5.603540483862162">
        <ele>85.689999999999998</ele>
        <time>2016-04-23T11:17:33Z</time>
      </trkpt>
      <trkpt lat="50.963381621986628" lon="5.603524558246136">
        <ele>86.180000000000007</ele>
        <time>2016-04-23T11:17:34Z</time>
      </trkpt>
      <trkpt lat="50.963404839858413" lon="5.603514416143298">
        <ele>86.180000000000007</ele>
        <time>2016-04-23T11:17:35Z</time>
      </trkpt>
      <trkpt lat="50.963426968082786" lon="5.603499915450811">
        <ele>86.180000000000007</ele>
        <time>2016-04-23T11:17:36Z</time>
      </trkpt>
      <trkpt lat="50.963446078822017" lon="5.603484325110912">
        <ele>86.180000000000007</ele>
        <time>2016-04-23T11:17:37Z</time>
      </trkpt>
      <trkpt lat="50.963484887033701" lon="5.603461777791381">
        <ele>86.180000000000007</ele>
        <time>2016-04-23T11:17:39Z</time>
      </trkpt>
      <trkpt lat="50.963505087420344" lon="5.603458005934954">
        <ele>86.180000000000007</ele>
        <time>2016-04-23T11:17:40Z</time>
      </trkpt>
      <trkpt lat="50.963654704391956" lon="5.603360272943974">
        <ele>86.180000000000007</ele>
        <time>2016-04-23T11:17:45Z</time>
      </trkpt>
      <trkpt lat="50.963680017739534" lon="5.603317692875862">
        <ele>86.180000000000007</ele>
        <time>2016-04-23T11:17:47Z</time>
      </trkpt>
      <trkpt lat="50.963744223117828" lon="5.603264048695564">
        <ele>85.689999999999998</ele>
        <time>2016-04-23T11:17:48Z</time>
      </trkpt>
      <trkpt lat="50.963707845658064" lon="5.602970011532307">
        <ele>86.180000000000007</ele>
        <time>2016-04-23T11:17:53Z</time>
      </trkpt>
      <trkpt lat="50.963703067973256" lon="5.602919552475214">
        <ele>86.180000000000007</ele>
        <time>2016-04-23T11:17:54Z</time>
      </trkpt>
      <trkpt lat="50.963697116822004" lon="5.60286364518106">
        <ele>86.180000000000007</ele>
        <time>2016-04-23T11:17:55Z</time>
      </trkpt>
      <trkpt lat="50.96368957310915" lon="5.602810503914952">
        <ele>86.180000000000007</ele>
        <time>2016-04-23T11:17:56Z</time>
      </trkpt>
      <trkpt lat="50.963545739650726" lon="5.602122852578759">
        <ele>81.849999999999994</ele>
        <time>2016-04-23T11:18:09Z</time>
      </trkpt>
      <trkpt lat="50.96353274770081" lon="5.602056803181768">
        <ele>89.540000000000006</ele>
        <time>2016-04-23T11:18:10Z</time>
      </trkpt>
      <trkpt lat="50.963494693860412" lon="5.601922944188118">
        <ele>83.769999999999996</ele>
        <time>2016-04-23T11:18:12Z</time>
      </trkpt>
      <trkpt lat="50.963471392169595" lon="5.601845076307654">
        <ele>88.579999999999998</ele>
        <time>2016-04-23T11:18:13Z</time>
      </trkpt>
      <trkpt lat="50.963160842657089" lon="5.600533895194531">
        <ele>85.689999999999998</ele>
        <time>2016-04-23T11:18:37Z</time>
      </trkpt>
      <trkpt lat="50.963072329759598" lon="5.600053109228611">
        <ele>85.689999999999998</ele>
        <time>2016-04-23T11:18:46Z</time>
      </trkpt>
      <trkpt lat="50.962983900681138" lon="5.599569473415613">
        <ele>85.689999999999998</ele>
        <time>2016-04-23T11:19:00Z</time>
      </trkpt>
      <trkpt lat="50.963001335039735" lon="5.599421700462699">
        <ele>85.689999999999998</ele>
        <time>2016-04-23T11:19:02Z</time>
      </trkpt>
      <trkpt lat="50.963105689734221" lon="5.59934115037322">
        <ele>85.689999999999998</ele>
        <time>2016-04-23T11:19:09Z</time>
      </trkpt>
      <trkpt lat="50.963178109377623" lon="5.599304689094424">
        <ele>85.689999999999998</ele>
        <time>2016-04-23T11:19:11Z</time>
      </trkpt>
      <trkpt lat="50.96320291981101" lon="5.599287087097764">
        <ele>85.689999999999998</ele>
        <time>2016-04-23T11:19:14Z</time>
      </trkpt>
      <trkpt lat="50.96327911131084" lon="5.599230173975229">
        <ele>85.689999999999998</ele>
        <time>2016-04-23T11:19:22Z</time>
      </trkpt>
      <trkpt lat="50.963406097143888" lon="5.599190695211291">
        <ele>85.689999999999998</ele>
        <time>2016-04-23T11:19:23Z</time>
      </trkpt>
      <trkpt lat="50.963438618928194" lon="5.599052142351866">
        <ele>85.209999999999994</ele>
        <time>2016-04-23T11:19:36Z</time>
      </trkpt>
      <trkpt lat="50.96345161087811" lon="5.598863130435348">
        <ele>85.689999999999998</ele>
        <time>2016-04-23T11:19:48Z</time>
      </trkpt>
      <trkpt lat="50.963428309187293" lon="5.598798589780927">
        <ele>85.689999999999998</ele>
        <time>2016-04-23T11:19:50Z</time>
      </trkpt>
      <trkpt lat="50.963399559259415" lon="5.598707729950547">
        <ele>85.689999999999998</ele>
        <time>2016-04-23T11:19:53Z</time>
      </trkpt>
      <trkpt lat="50.963372150436044" lon="5.598647715523839">
        <ele>85.689999999999998</ele>
        <time>2016-04-23T11:19:55Z</time>
      </trkpt>
      <trkpt lat="50.963353039696813" lon="5.598609326407313">
        <ele>85.689999999999998</ele>
        <time>2016-04-23T11:19:56Z</time>
      </trkpt>
      <trkpt lat="50.963280620053411" lon="5.598212610930204">
        <ele>85.209999999999994</ele>
        <time>2016-04-23T11:20:13Z</time>
      </trkpt>
      <trkpt lat="50.963273830711842" lon="5.598138514906168">
        <ele>85.209999999999994</ele>
        <time>2016-04-23T11:20:16Z</time>
      </trkpt>
      <trkpt lat="50.963268801569939" lon="5.598104987293482">
        <ele>85.689999999999998</ele>
        <time>2016-04-23T11:20:17Z</time>
      </trkpt>
      <trkpt lat="50.963267544284463" lon="5.59807606972754">
        <ele>85.689999999999998</ele>
        <time>2016-04-23T11:20:18Z</time>
      </trkpt>
      <trkpt lat="50.963266706094146" lon="5.597995016723871">
        <ele>85.689999999999998</ele>
        <time>2016-04-23T11:20:21Z</time>
      </trkpt>
      <trkpt lat="50.96325371414423" lon="5.597595451399684">
        <ele>85.689999999999998</ele>
        <time>2016-04-23T11:20:36Z</time>
      </trkpt>
      <trkpt lat="50.963222868740559" lon="5.597351286560297">
        <ele>86.180000000000007</ele>
        <time>2016-04-23T11:20:49Z</time>
      </trkpt>
      <trkpt lat="50.963243739679456" lon="5.597078539431095">
        <ele>86.659999999999997</ele>
        <time>2016-04-23T11:21:03Z</time>
      </trkpt>
      <trkpt lat="50.963245583698153" lon="5.596966808661819">
        <ele>86.659999999999997</ele>
        <time>2016-04-23T11:21:06Z</time>
      </trkpt>
      <trkpt lat="50.963354799896479" lon="5.596912326291204">
        <ele>86.659999999999997</ele>
        <time>2016-04-23T11:21:18Z</time>
      </trkpt>
      <trkpt lat="50.96346233971417" lon="5.596902938559651">
        <ele>86.180000000000007</ele>
        <time>2016-04-23T11:21:29Z</time>
      </trkpt>
      <trkpt lat="50.963540375232697" lon="5.596894808113575">
        <ele>86.180000000000007</ele>
        <time>2016-04-23T11:21:34Z</time>
      </trkpt>
      <trkpt lat="50.963562503457069" lon="5.596886174753308">
        <ele>86.180000000000007</ele>
        <time>2016-04-23T11:21:35Z</time>
      </trkpt>
      <trkpt lat="50.963585050776601" lon="5.596884917467833">
        <ele>86.180000000000007</ele>
        <time>2016-04-23T11:21:36Z</time>
      </trkpt>
      <trkpt lat="50.963792586699128" lon="5.596836302429438">
        <ele>86.659999999999997</ele>
        <time>2016-04-23T11:21:51Z</time>
      </trkpt>
      <trkpt lat="50.964009426534176" lon="5.596820544451475">
        <ele>86.180000000000007</ele>
        <time>2016-04-23T11:22:07Z</time>
      </trkpt>
      <trkpt lat="50.964059550315142" lon="5.596826244145632">
        <ele>86.180000000000007</ele>
        <time>2016-04-23T11:22:10Z</time>
      </trkpt>
      <trkpt lat="50.964510915800929" lon="5.596752818673849">
        <ele>84.730000000000004</ele>
        <time>2016-04-23T11:22:41Z</time>
      </trkpt>
      <trkpt lat="50.964521141722798" lon="5.596753321588039">
        <ele>88.099999999999994</ele>
        <time>2016-04-23T11:22:42Z</time>
      </trkpt>
      <trkpt lat="50.964560369029641" lon="5.596750974655151">
        <ele>82.810000000000002</ele>
        <time>2016-04-23T11:22:46Z</time>
      </trkpt>
      <trkpt lat="50.964576713740826" lon="5.596749633550644">
        <ele>90.019999999999996</ele>
        <time>2016-04-23T11:22:47Z</time>
      </trkpt>
      <trkpt lat="50.964591801166534" lon="5.596749801188707">
        <ele>85.209999999999994</ele>
        <time>2016-04-23T11:22:48Z</time>
      </trkpt>
      <trkpt lat="50.964611414819956" lon="5.596746364608407">
        <ele>88.579999999999998</ele>
        <time>2016-04-23T11:22:49Z</time>
      </trkpt>
      <trkpt lat="50.964732114225626" lon="5.596729768440127">
        <ele>86.180000000000007</ele>
        <time>2016-04-23T11:22:58Z</time>
      </trkpt>
      <trkpt lat="50.964753404259682" lon="5.596729852259159">
        <ele>86.180000000000007</ele>
        <time>2016-04-23T11:22:59Z</time>
      </trkpt>
      <trkpt lat="50.96477092243731" lon="5.596728259697557">
        <ele>86.180000000000007</ele>
        <time>2016-04-23T11:23:00Z</time>
      </trkpt>
      <trkpt lat="50.964787183329463" lon="5.596727421507239">
        <ele>86.180000000000007</ele>
        <time>2016-04-23T11:23:01Z</time>
      </trkpt>
      <trkpt lat="50.964855412021279" lon="5.596708143129945">
        <ele>85.689999999999998</ele>
        <time>2016-04-23T11:23:05Z</time>
      </trkpt>
      <trkpt lat="50.964941075071692" lon="5.596698755398393">
        <ele>85.689999999999998</ele>
        <time>2016-04-23T11:23:10Z</time>
      </trkpt>
      <trkpt lat="50.965918321162462" lon="5.596658857539296">
        <ele>85.689999999999998</ele>
        <time>2016-04-23T11:24:09Z</time>
      </trkpt>
      <trkpt lat="50.966024687513709" lon="5.596373034641147">
        <ele>85.689999999999998</ele>
        <time>2016-04-23T11:24:25Z</time>
      </trkpt>
      <trkpt lat="50.966121330857277" lon="5.596005572006106">
        <ele>85.689999999999998</ele>
        <time>2016-04-23T11:24:40Z</time>
      </trkpt>
      <trkpt lat="50.966206071898341" lon="5.595620423555374">
        <ele>85.689999999999998</ele>
        <time>2016-04-23T11:24:55Z</time>
      </trkpt>
      <trkpt lat="50.966239767149091" lon="5.59544088318944">
        <ele>85.689999999999998</ele>
        <time>2016-04-23T11:25:03Z</time>
      </trkpt>
      <trkpt lat="50.966275976970792" lon="5.59534071944654">
        <ele>85.689999999999998</ele>
        <time>2016-04-23T11:25:09Z</time>
      </trkpt>
      <trkpt lat="50.966299194842577" lon="5.595204345881939">
        <ele>85.209999999999994</ele>
        <time>2016-04-23T11:25:15Z</time>
      </trkpt>
      <trkpt lat="50.966318808495998" lon="5.59513745829463">
        <ele>85.689999999999998</ele>
        <time>2016-04-23T11:25:18Z</time>
      </trkpt>
      <trkpt lat="50.966370357200503" lon="5.594688607379794">
        <ele>85.689999999999998</ele>
        <time>2016-04-23T11:25:38Z</time>
      </trkpt>
      <trkpt lat="50.966384438797832" lon="5.594635047018528">
        <ele>85.689999999999998</ele>
        <time>2016-04-23T11:25:41Z</time>
      </trkpt>
      <trkpt lat="50.966454930603504" lon="5.594326592981815">
        <ele>86.180000000000007</ele>
        <time>2016-04-23T11:25:55Z</time>
      </trkpt>
      <trkpt lat="50.966513268649578" lon="5.594062563031912">
        <ele>85.689999999999998</ele>
        <time>2016-04-23T11:26:06Z</time>
      </trkpt>
      <trkpt lat="50.966666406020522" lon="5.593399470672011">
        <ele>86.180000000000007</ele>
        <time>2016-04-23T11:26:35Z</time>
      </trkpt>
      <trkpt lat="50.966728683561087" lon="5.593124544247985">
        <ele>86.180000000000007</ele>
        <time>2016-04-23T11:26:44Z</time>
      </trkpt>
      <trkpt lat="50.967029090970755" lon="5.591905815526843">
        <ele>86.659999999999997</ele>
        <time>2016-04-23T11:27:37Z</time>
      </trkpt>
      <trkpt lat="50.967100085690618" lon="5.591592164710164">
        <ele>86.659999999999997</ele>
        <time>2016-04-23T11:27:52Z</time>
      </trkpt>
      <trkpt lat="50.967186419293284" lon="5.591308604925871">
        <ele>86.180000000000007</ele>
        <time>2016-04-23T11:28:06Z</time>
      </trkpt>
      <trkpt lat="50.966420648619533" lon="5.589468693360686">
        <ele>86.180000000000007</ele>
        <time>2016-04-23T11:28:49Z</time>
      </trkpt>
      <trkpt lat="50.966390389949083" lon="5.589402727782726">
        <ele>86.180000000000007</ele>
        <time>2016-04-23T11:28:50Z</time>
      </trkpt>
      <trkpt lat="50.966356862336397" lon="5.589326452463865">
        <ele>86.180000000000007</ele>
        <time>2016-04-23T11:28:51Z</time>
      </trkpt>
      <trkpt lat="50.966302128508687" lon="5.589173482730985">
        <ele>86.659999999999997</ele>
        <time>2016-04-23T11:28:53Z</time>
      </trkpt>
      <trkpt lat="50.966271534562111" lon="5.589096620678902">
        <ele>85.689999999999998</ele>
        <time>2016-04-23T11:28:54Z</time>
      </trkpt>
      <trkpt lat="50.966216968372464" lon="5.588960330933332">
        <ele>89.060000000000002</ele>
        <time>2016-04-23T11:28:56Z</time>
      </trkpt>
      <trkpt lat="50.966190733015537" lon="5.588894281536341">
        <ele>82.329999999999998</ele>
        <time>2016-04-23T11:28:57Z</time>
      </trkpt>
      <trkpt lat="50.96616106107831" lon="5.588824544101954">
        <ele>91.459999999999994</ele>
        <time>2016-04-23T11:28:58Z</time>
      </trkpt>
      <trkpt lat="50.965739283710718" lon="5.58784905821085">
        <ele>86.180000000000007</ele>
        <time>2016-04-23T11:29:12Z</time>
      </trkpt>
      <trkpt lat="50.96546083688736" lon="5.587219996377826">
        <ele>86.659999999999997</ele>
        <time>2016-04-23T11:29:19Z</time>
      </trkpt>
      <trkpt lat="50.964894723147154" lon="5.585955251008272">
        <ele>86.659999999999997</ele>
        <time>2016-04-23T11:29:34Z</time>
      </trkpt>
      <trkpt lat="50.964823728427291" lon="5.58583153411746">
        <ele>86.180000000000007</ele>
        <time>2016-04-23T11:29:36Z</time>
      </trkpt>
      <trkpt lat="50.964617114514112" lon="5.585283860564232">
        <ele>85.689999999999998</ele>
        <time>2016-04-23T11:29:45Z</time>
      </trkpt>
      <trkpt lat="50.964520974084735" lon="5.585062829777598">
        <ele>85.689999999999998</ele>
        <time>2016-04-23T11:29:48Z</time>
      </trkpt>
      <trkpt lat="50.964334225282073" lon="5.584664857015014">
        <ele>85.689999999999998</ele>
        <time>2016-04-23T11:29:54Z</time>
      </trkpt>
      <trkpt lat="50.964302457869053" lon="5.584594197571278">
        <ele>85.689999999999998</ele>
        <time>2016-04-23T11:29:55Z</time>
      </trkpt>
      <trkpt lat="50.964271612465382" lon="5.584524376317859">
        <ele>85.689999999999998</ele>
        <time>2016-04-23T11:29:56Z</time>
      </trkpt>
      <trkpt lat="50.964205730706453" lon="5.584384230896831">
        <ele>86.180000000000007</ele>
        <time>2016-04-23T11:29:58Z</time>
      </trkpt>
      <trkpt lat="50.964172706007957" lon="5.584316924214363">
        <ele>86.180000000000007</ele>
        <time>2016-04-23T11:29:59Z</time>
      </trkpt>
      <trkpt lat="50.963903060182929" lon="5.583662632852793">
        <ele>86.180000000000007</ele>
        <time>2016-04-23T11:30:07Z</time>
      </trkpt>
      <trkpt lat="50.963870203122497" lon="5.58358334004879">
        <ele>85.689999999999998</ele>
        <time>2016-04-23T11:30:08Z</time>
      </trkpt>
      <trkpt lat="50.963594941422343" lon="5.582961235195398">
        <ele>85.689999999999998</ele>
        <time>2016-04-23T11:30:15Z</time>
      </trkpt>
      <trkpt lat="50.963439708575606" lon="5.582616990432143">
        <ele>85.209999999999994</ele>
        <time>2016-04-23T11:30:19Z</time>
      </trkpt>
      <trkpt lat="50.963401990011334" lon="5.582531578838825">
        <ele>85.209999999999994</ele>
        <time>2016-04-23T11:30:20Z</time>
      </trkpt>
      <trkpt lat="50.963353542611003" lon="5.582444909960032">
        <ele>85.209999999999994</ele>
        <time>2016-04-23T11:30:21Z</time>
      </trkpt>
      <trkpt lat="50.963308364152908" lon="5.582361593842506">
        <ele>85.689999999999998</ele>
        <time>2016-04-23T11:30:22Z</time>
      </trkpt>
      <trkpt lat="50.96326838247478" lon="5.582272494211793">
        <ele>85.689999999999998</ele>
        <time>2016-04-23T11:30:23Z</time>
      </trkpt>
      <trkpt lat="50.963229322806001" lon="5.582182221114636">
        <ele>85.689999999999998</ele>
        <time>2016-04-23T11:30:24Z</time>
      </trkpt>
      <trkpt lat="50.962976608425379" lon="5.581526588648558">
        <ele>86.659999999999997</ele>
        <time>2016-04-23T11:30:31Z</time>
      </trkpt>
      <trkpt lat="50.962936375290155" lon="5.581437572836876">
        <ele>86.180000000000007</ele>
        <time>2016-04-23T11:30:32Z</time>
      </trkpt>
      <trkpt lat="50.962858339771628" lon="5.581271778792143">
        <ele>86.180000000000007</ele>
        <time>2016-04-23T11:30:34Z</time>
      </trkpt>
      <trkpt lat="50.962722301483154" lon="5.580985704436898">
        <ele>86.180000000000007</ele>
        <time>2016-04-23T11:30:38Z</time>
      </trkpt>
      <trkpt lat="50.961727537214756" lon="5.578903220593929">
        <ele>87.140000000000001</ele>
        <time>2016-04-23T11:31:02Z</time>
      </trkpt>
      <trkpt lat="50.961534921079874" lon="5.578504409641028">
        <ele>87.620000000000005</ele>
        <time>2016-04-23T11:31:30Z</time>
      </trkpt>
      <trkpt lat="50.961496699601412" lon="5.578366694971919">
        <ele>87.140000000000001</ele>
        <time>2016-04-23T11:31:44Z</time>
      </trkpt>
      <trkpt lat="50.961414305493236" lon="5.578175168484449">
        <ele>87.140000000000001</ele>
        <time>2016-04-23T11:31:58Z</time>
      </trkpt>
      <trkpt lat="50.961265442892909" lon="5.577862439677119">
        <ele>87.620000000000005</ele>
        <time>2016-04-23T11:32:13Z</time>
      </trkpt>
      <trkpt lat="50.9612244553864" lon="5.577783398330212">
        <ele>90.019999999999996</ele>
        <time>2016-04-23T11:32:18Z</time>
      </trkpt>
      <trkpt lat="50.961194867268205" lon="5.577701507136226">
        <ele>83.290000000000006</ele>
        <time>2016-04-23T11:32:23Z</time>
      </trkpt>
      <trkpt lat="50.961032677441835" lon="5.577195659279823">
        <ele>87.620000000000005</ele>
        <time>2016-04-23T11:32:47Z</time>
      </trkpt>
      <trkpt lat="50.960828745737672" lon="5.576526615768671">
        <ele>87.620000000000005</ele>
        <time>2016-04-23T11:33:11Z</time>
      </trkpt>
      <trkpt lat="50.960817933082581" lon="5.576503565534949">
        <ele>87.620000000000005</ele>
        <time>2016-04-23T11:33:13Z</time>
      </trkpt>
      <trkpt lat="50.960781220346689" lon="5.576380183920264">
        <ele>90.980000000000004</ele>
        <time>2016-04-23T11:33:19Z</time>
      </trkpt>
      <trkpt lat="50.960768731310964" lon="5.576343974098563">
        <ele>86.180000000000007</ele>
        <time>2016-04-23T11:33:21Z</time>
      </trkpt>
      <trkpt lat="50.960749620571733" lon="5.576276415959001">
        <ele>90.5</ele>
        <time>2016-04-23T11:33:25Z</time>
      </trkpt>
      <trkpt lat="50.960741909220815" lon="5.57624313980341">
        <ele>86.659999999999997</ele>
        <time>2016-04-23T11:33:27Z</time>
      </trkpt>
      <trkpt lat="50.960684241726995" lon="5.576084805652499">
        <ele>89.540000000000006</ele>
        <time>2016-04-23T11:33:34Z</time>
      </trkpt>
      <trkpt lat="50.960613833740354" lon="5.575938709080219">
        <ele>88.099999999999994</ele>
        <time>2016-04-23T11:33:41Z</time>
      </trkpt>
      <trkpt lat="50.960603440180421" lon="5.57592554949224">
        <ele>87.620000000000005</ele>
        <time>2016-04-23T11:33:42Z</time>
      </trkpt>
      <trkpt lat="50.960441585630178" lon="5.575744416564703">
        <ele>88.579999999999998</ele>
        <time>2016-04-23T11:33:57Z</time>
      </trkpt>
      <trkpt lat="50.960275121033192" lon="5.575607204809785">
        <ele>88.099999999999994</ele>
        <time>2016-04-23T11:34:10Z</time>
      </trkpt>
      <trkpt lat="50.959720071405172" lon="5.575223732739687">
        <ele>88.579999999999998</ele>
        <time>2016-04-23T11:35:06Z</time>
      </trkpt>
      <trkpt lat="50.959535082802176" lon="5.575085263699293">
        <ele>88.579999999999998</ele>
        <time>2016-04-23T11:35:20Z</time>
      </trkpt>
      <trkpt lat="50.959341460838914" lon="5.57497126981616">
        <ele>88.099999999999994</ele>
        <time>2016-04-23T11:35:32Z</time>
      </trkpt>
      <trkpt lat="50.959231071174145" lon="5.574865741655231">
        <ele>88.579999999999998</ele>
        <time>2016-04-23T11:35:43Z</time>
      </trkpt>
      <trkpt lat="50.959296869114041" lon="5.574540104717016">
        <ele>88.099999999999994</ele>
        <time>2016-04-23T11:35:59Z</time>
      </trkpt>
      <trkpt lat="50.959471212700009" lon="5.573841137811542">
        <ele>88.099999999999994</ele>
        <time>2016-04-23T11:36:36Z</time>
      </trkpt>
      <trkpt lat="50.959601048380136" lon="5.57349412702024">
        <ele>87.620000000000005</ele>
        <time>2016-04-23T11:36:54Z</time>
      </trkpt>
      <trkpt lat="50.95979911275208" lon="5.572725841775537">
        <ele>87.620000000000005</ele>
        <time>2016-04-23T11:37:19Z</time>
      </trkpt>
      <trkpt lat="50.959828197956085" lon="5.572632970288396">
        <ele>87.620000000000005</ele>
        <time>2016-04-23T11:37:24Z</time>
      </trkpt>
      <trkpt lat="50.959936492145061" lon="5.57228771969676">
        <ele>87.140000000000001</ele>
        <time>2016-04-23T11:37:43Z</time>
      </trkpt>
      <trkpt lat="50.960024334490299" lon="5.571936517953873">
        <ele>87.140000000000001</ele>
        <time>2016-04-23T11:37:55Z</time>
      </trkpt>
      <trkpt lat="50.960097257047892" lon="5.57169059291482">
        <ele>87.140000000000001</ele>
        <time>2016-04-23T11:38:04Z</time>
      </trkpt>
      <trkpt lat="50.960130533203483" lon="5.571579113602638">
        <ele>87.140000000000001</ele>
        <time>2016-04-23T11:38:10Z</time>
      </trkpt>
      <trkpt lat="50.960182417184114" lon="5.571442237123847">
        <ele>87.140000000000001</ele>
        <time>2016-04-23T11:38:16Z</time>
      </trkpt>
      <trkpt lat="50.960267493501306" lon="5.571214081719518">
        <ele>87.140000000000001</ele>
        <time>2016-04-23T11:38:27Z</time>
      </trkpt>
      <trkpt lat="50.960331112146378" lon="5.570975700393319">
        <ele>87.140000000000001</ele>
        <time>2016-04-23T11:38:39Z</time>
      </trkpt>
      <trkpt lat="50.960466982796788" lon="5.570564568042755">
        <ele>86.659999999999997</ele>
        <time>2016-04-23T11:39:01Z</time>
      </trkpt>
      <trkpt lat="50.960479890927672" lon="5.570498099550605">
        <ele>86.659999999999997</ele>
        <time>2016-04-23T11:39:05Z</time>
      </trkpt>
      <trkpt lat="50.960491374135017" lon="5.570475049316883">
        <ele>86.659999999999997</ele>
        <time>2016-04-23T11:39:06Z</time>
      </trkpt>
      <trkpt lat="50.960501180961728" lon="5.570449819788337">
        <ele>86.659999999999997</ele>
        <time>2016-04-23T11:39:07Z</time>
      </trkpt>
      <trkpt lat="50.960595728829503" lon="5.570063581690192">
        <ele>86.659999999999997</ele>
        <time>2016-04-23T11:39:26Z</time>
      </trkpt>
      <trkpt lat="50.960626155138016" lon="5.569963082671166">
        <ele>86.659999999999997</ele>
        <time>2016-04-23T11:39:31Z</time>
      </trkpt>
      <trkpt lat="50.960683571174741" lon="5.569721013307571">
        <ele>86.659999999999997</ele>
        <time>2016-04-23T11:39:50Z</time>
      </trkpt>
      <trkpt lat="50.961257563903928" lon="5.567802647128701">
        <ele>86.659999999999997</ele>
        <time>2016-04-23T11:41:57Z</time>
      </trkpt>
      <trkpt lat="50.961291510611773" lon="5.567665686830878">
        <ele>88.099999999999994</ele>
        <time>2016-04-23T11:42:02Z</time>
      </trkpt>
      <trkpt lat="50.961319422349334" lon="5.56748790666461">
        <ele>86.180000000000007</ele>
        <time>2016-04-23T11:42:09Z</time>
      </trkpt>
      <trkpt lat="50.961321936920285" lon="5.567475501447916">
        <ele>85.689999999999998</ele>
        <time>2016-04-23T11:42:10Z</time>
      </trkpt>
      <trkpt lat="50.961529389023781" lon="5.56678818538785">
        <ele>85.689999999999998</ele>
        <time>2016-04-23T11:42:39Z</time>
      </trkpt>
      <trkpt lat="50.961541878059506" lon="5.566705875098705">
        <ele>85.689999999999998</ele>
        <time>2016-04-23T11:42:42Z</time>
      </trkpt>
      <trkpt lat="50.961564090102911" lon="5.566487358883023">
        <ele>85.689999999999998</ele>
        <time>2016-04-23T11:42:51Z</time>
      </trkpt>
      <trkpt lat="50.961605915799737" lon="5.566329192370176">
        <ele>85.689999999999998</ele>
        <time>2016-04-23T11:42:58Z</time>
      </trkpt>
      <trkpt lat="50.961618488654494" lon="5.566250737756491">
        <ele>86.659999999999997</ele>
        <time>2016-04-23T11:43:01Z</time>
      </trkpt>
      <trkpt lat="50.961797945201397" lon="5.565701220184565">
        <ele>85.209999999999994</ele>
        <time>2016-04-23T11:43:27Z</time>
      </trkpt>
      <trkpt lat="50.961866676807404" lon="5.565569456666708">
        <ele>85.209999999999994</ele>
        <time>2016-04-23T11:43:40Z</time>
      </trkpt>
      <trkpt lat="50.961901377886534" lon="5.56553827598691">
        <ele>85.209999999999994</ele>
        <time>2016-04-23T11:43:42Z</time>
      </trkpt>
      <trkpt lat="50.962003972381353" lon="5.565620250999928">
        <ele>85.209999999999994</ele>
        <time>2016-04-23T11:43:46Z</time>
      </trkpt>
      <trkpt lat="50.962045881897211" lon="5.565638188272715">
        <ele>85.209999999999994</ele>
        <time>2016-04-23T11:43:48Z</time>
      </trkpt>
      <trkpt lat="50.962257860228419" lon="5.565754109993577">
        <ele>85.209999999999994</ele>
        <time>2016-04-23T11:44:03Z</time>
      </trkpt>
      <trkpt lat="50.962446872144938" lon="5.565753607079387">
        <ele>85.209999999999994</ele>
        <time>2016-04-23T11:44:17Z</time>
      </trkpt>
      <trkpt lat="50.962574863806367" lon="5.565711697563529">
        <ele>85.209999999999994</ele>
        <time>2016-04-23T11:44:26Z</time>
      </trkpt>
      <trkpt lat="50.962779885157943" lon="5.565628632903099">
        <ele>85.209999999999994</ele>
        <time>2016-04-23T11:44:39Z</time>
      </trkpt>
      <trkpt lat="50.962910391390324" lon="5.565523020923138">
        <ele>85.209999999999994</ele>
        <time>2016-04-23T11:44:50Z</time>
      </trkpt>
      <trkpt lat="50.962954564020038" lon="5.565451020374894">
        <ele>79.930000000000007</ele>
        <time>2016-04-23T11:44:54Z</time>
      </trkpt>
      <trkpt lat="50.962964706122875" lon="5.565434340387583">
        <ele>90.019999999999996</ele>
        <time>2016-04-23T11:44:55Z</time>
      </trkpt>
      <trkpt lat="50.96297518350184" lon="5.565416067838669">
        <ele>85.209999999999994</ele>
        <time>2016-04-23T11:44:56Z</time>
      </trkpt>
      <trkpt lat="50.963059673085809" lon="5.565304672345519">
        <ele>85.209999999999994</ele>
        <time>2016-04-23T11:45:04Z</time>
      </trkpt>
      <trkpt lat="50.963073167949915" lon="5.565267540514469">
        <ele>85.209999999999994</ele>
        <time>2016-04-23T11:45:06Z</time>
      </trkpt>
      <trkpt lat="50.96309931948781" lon="5.56515078060329">
        <ele>84.730000000000004</ele>
        <time>2016-04-23T11:45:11Z</time>
      </trkpt>
      <trkpt lat="50.963127398863435" lon="5.565055478364229">
        <ele>84.730000000000004</ele>
        <time>2016-04-23T11:45:15Z</time>
      </trkpt>
      <trkpt lat="50.963214654475451" lon="5.56416473351419">
        <ele>84.25</ele>
        <time>2016-04-23T11:46:01Z</time>
      </trkpt>
      <trkpt lat="50.963259916752577" lon="5.564126428216696">
        <ele>83.769999999999996</ele>
        <time>2016-04-23T11:46:05Z</time>
      </trkpt>
      <trkpt lat="50.963354716077447" lon="5.56398393586278">
        <ele>83.769999999999996</ele>
        <time>2016-04-23T11:46:15Z</time>
      </trkpt>
      <trkpt lat="50.963522773236036" lon="5.563798611983657">
        <ele>83.769999999999996</ele>
        <time>2016-04-23T11:46:29Z</time>
      </trkpt>
      <trkpt lat="50.963646238669753" lon="5.563648827373982">
        <ele>83.769999999999996</ele>
        <time>2016-04-23T11:46:39Z</time>
      </trkpt>
      <trkpt lat="50.963732656091452" lon="5.563567439094186">
        <ele>83.769999999999996</ele>
        <time>2016-04-23T11:47:06Z</time>
      </trkpt>
      <trkpt lat="50.964259877800941" lon="5.562937958166003">
        <ele>83.769999999999996</ele>
        <time>2016-04-23T11:47:50Z</time>
      </trkpt>
      <trkpt lat="50.964446291327477" lon="5.562720615416765">
        <ele>83.290000000000006</ele>
        <time>2016-04-23T11:48:03Z</time>
      </trkpt>
      <trkpt lat="50.964562883600593" lon="5.56253906339407">
        <ele>82.810000000000002</ele>
        <time>2016-04-23T11:48:14Z</time>
      </trkpt>
      <trkpt lat="50.964737478643656" lon="5.562320211902261">
        <ele>83.290000000000006</ele>
        <time>2016-04-23T11:48:28Z</time>
      </trkpt>
      <trkpt lat="50.964811071753502" lon="5.562240919098258">
        <ele>79.930000000000007</ele>
        <time>2016-04-23T11:48:34Z</time>
      </trkpt>
      <trkpt lat="50.964822806417942" lon="5.562230776995421">
        <ele>85.209999999999994</ele>
        <time>2016-04-23T11:48:35Z</time>
      </trkpt>
      <trkpt lat="50.964920790866017" lon="5.562114687636495">
        <ele>79.450000000000003</ele>
        <time>2016-04-23T11:48:44Z</time>
      </trkpt>
      <trkpt lat="50.964931435883045" lon="5.562102282419801">
        <ele>86.180000000000007</ele>
        <time>2016-04-23T11:48:45Z</time>
      </trkpt>
      <trkpt lat="50.964944176375866" lon="5.562087781727314">
        <ele>82.810000000000002</ele>
        <time>2016-04-23T11:48:46Z</time>
      </trkpt>
      <trkpt lat="50.965043501928449" lon="5.561941182240844">
        <ele>82.329999999999998</ele>
        <time>2016-04-23T11:48:56Z</time>
      </trkpt>
      <trkpt lat="50.965030677616596" lon="5.561907906085253">
        <ele>82.329999999999998</ele>
        <time>2016-04-23T11:48:58Z</time>
      </trkpt>
      <trkpt lat="50.964973596855998" lon="5.561833139508963">
        <ele>78.480000000000004</ele>
        <time>2016-04-23T11:49:02Z</time>
      </trkpt>
      <trkpt lat="50.964960772544146" lon="5.561818387359381">
        <ele>86.180000000000007</ele>
        <time>2016-04-23T11:49:03Z</time>
      </trkpt>
      <trkpt lat="50.964948618784547" lon="5.561803970485926">
        <ele>82.810000000000002</ele>
        <time>2016-04-23T11:49:04Z</time>
      </trkpt>
      <trkpt lat="50.964777711778879" lon="5.561657287180424">
        <ele>79.930000000000007</ele>
        <time>2016-04-23T11:49:18Z</time>
      </trkpt>
      <trkpt lat="50.964767066761851" lon="5.561646642163396">
        <ele>86.180000000000007</ele>
        <time>2016-04-23T11:49:19Z</time>
      </trkpt>
      <trkpt lat="50.964757008478045" lon="5.561638595536351">
        <ele>82.810000000000002</ele>
        <time>2016-04-23T11:49:20Z</time>
      </trkpt>
      <trkpt lat="50.964736388996243" lon="5.561626693233848">
        <ele>79.450000000000003</ele>
        <time>2016-04-23T11:49:22Z</time>
      </trkpt>
      <trkpt lat="50.964723397046328" lon="5.56161898188293">
        <ele>86.659999999999997</ele>
        <time>2016-04-23T11:49:23Z</time>
      </trkpt>
      <trkpt lat="50.964710656553507" lon="5.561613198369741">
        <ele>83.290000000000006</ele>
        <time>2016-04-23T11:49:24Z</time>
      </trkpt>
      <trkpt lat="50.964557351544499" lon="5.561467353254557">
        <ele>82.810000000000002</ele>
        <time>2016-04-23T11:49:36Z</time>
      </trkpt>
      <trkpt lat="50.964420139789581" lon="5.561307929456234">
        <ele>82.810000000000002</ele>
        <time>2016-04-23T11:49:49Z</time>
      </trkpt>
      <trkpt lat="50.964037170633674" lon="5.560712143778801">
        <ele>83.769999999999996</ele>
        <time>2016-04-23T11:50:29Z</time>
      </trkpt>
      <trkpt lat="50.963850924745202" lon="5.560461105778813">
        <ele>83.769999999999996</ele>
        <time>2016-04-23T11:50:44Z</time>
      </trkpt>
      <trkpt lat="50.963769536465406" lon="5.560367647558451">
        <ele>83.769999999999996</ele>
        <time>2016-04-23T11:50:52Z</time>
      </trkpt>
      <trkpt lat="50.963659062981606" lon="5.56024887599051">
        <ele>78.969999999999999</ele>
        <time>2016-04-23T11:51:01Z</time>
      </trkpt>
      <trkpt lat="50.963647579774261" lon="5.560235129669309">
        <ele>88.099999999999994</ele>
        <time>2016-04-23T11:51:02Z</time>
      </trkpt>
      <trkpt lat="50.96363483928144" lon="5.560224317014217">
        <ele>84.25</ele>
        <time>2016-04-23T11:51:03Z</time>
      </trkpt>
      <trkpt lat="50.963536938652396" lon="5.560122225433588">
        <ele>83.769999999999996</ele>
        <time>2016-04-23T11:51:11Z</time>
      </trkpt>
      <trkpt lat="50.963568622246385" lon="5.559997167438269">
        <ele>83.769999999999996</ele>
        <time>2016-04-23T11:51:19Z</time>
      </trkpt>
      <trkpt lat="50.96365537494421" lon="5.559835899621248">
        <ele>80.890000000000001</ele>
        <time>2016-04-23T11:51:24Z</time>
      </trkpt>
      <trkpt lat="50.963671300560236" lon="5.559813855215907">
        <ele>86.659999999999997</ele>
        <time>2016-04-23T11:51:25Z</time>
      </trkpt>
      <trkpt lat="50.963554037734866" lon="5.559624340385199">
        <ele>83.769999999999996</ele>
        <time>2016-04-23T11:51:39Z</time>
      </trkpt>
      <trkpt lat="50.963454293087125" lon="5.55944362655282">
        <ele>83.769999999999996</ele>
        <time>2016-04-23T11:51:49Z</time>
      </trkpt>
      <trkpt lat="50.963383130729198" lon="5.559345139190555">
        <ele>83.769999999999996</ele>
        <time>2016-04-23T11:51:56Z</time>
      </trkpt>
      <trkpt lat="50.962908966466784" lon="5.558745078742504">
        <ele>88.099999999999994</ele>
        <time>2016-04-23T11:52:41Z</time>
      </trkpt>
      <trkpt lat="50.96283545717597" lon="5.558664528653026">
        <ele>84.25</ele>
        <time>2016-04-23T11:52:42Z</time>
      </trkpt>
      <trkpt lat="50.962763959541917" lon="5.558518934994936">
        <ele>84.730000000000004</ele>
        <time>2016-04-23T11:52:53Z</time>
      </trkpt>
      <trkpt lat="50.962443519383669" lon="5.557989617809653">
        <ele>85.209999999999994</ele>
        <time>2016-04-23T11:53:23Z</time>
      </trkpt>
      <trkpt lat="50.962226176634431" lon="5.557642942294478">
        <ele>85.209999999999994</ele>
        <time>2016-04-23T11:54:14Z</time>
      </trkpt>
      <trkpt lat="50.962180830538273" lon="5.557551914826036">
        <ele>90.019999999999996</ele>
        <time>2016-04-23T11:54:19Z</time>
      </trkpt>
      <trkpt lat="50.961981508880854" lon="5.557005330920219">
        <ele>83.769999999999996</ele>
        <time>2016-04-23T11:54:52Z</time>
      </trkpt>
      <trkpt lat="50.961979832500219" lon="5.556991919875145">
        <ele>87.620000000000005</ele>
        <time>2016-04-23T11:54:53Z</time>
      </trkpt>
      <trkpt lat="50.96184840425849" lon="5.556696960702539">
        <ele>86.180000000000007</ele>
        <time>2016-04-23T11:55:08Z</time>
      </trkpt>
      <trkpt lat="50.961625697091222" lon="5.556147275492549">
        <ele>91.939999999999998</ele>
        <time>2016-04-23T11:55:33Z</time>
      </trkpt>
      <trkpt lat="50.96161144785583" lon="5.556117603555322">
        <ele>87.140000000000001</ele>
        <time>2016-04-23T11:55:34Z</time>
      </trkpt>
      <trkpt lat="50.961477840319276" lon="5.555787775665522">
        <ele>87.140000000000001</ele>
        <time>2016-04-23T11:55:49Z</time>
      </trkpt>
      <trkpt lat="50.96134515479207" lon="5.555413691326976">
        <ele>87.140000000000001</ele>
        <time>2016-04-23T11:56:04Z</time>
      </trkpt>
      <trkpt lat="50.961219929158688" lon="5.55510314181447">
        <ele>87.140000000000001</ele>
        <time>2016-04-23T11:56:18Z</time>
      </trkpt>
      <trkpt lat="50.961169051006436" lon="5.554973976686597">
        <ele>87.140000000000001</ele>
        <time>2016-04-23T11:56:24Z</time>
      </trkpt>
      <trkpt lat="50.961077688261867" lon="5.554738529026508">
        <ele>87.620000000000005</ele>
        <time>2016-04-23T11:56:38Z</time>
      </trkpt>
      <trkpt lat="50.961016416549683" lon="5.554569466039538">
        <ele>87.620000000000005</ele>
        <time>2016-04-23T11:56:46Z</time>
      </trkpt>
      <trkpt lat="50.960602350533009" lon="5.55400469340384">
        <ele>88.099999999999994</ele>
        <time>2016-04-23T11:57:22Z</time>
      </trkpt>
      <trkpt lat="50.960395988076925" lon="5.553731191903353">
        <ele>88.099999999999994</ele>
        <time>2016-04-23T11:57:39Z</time>
      </trkpt>
      <trkpt lat="50.96022617071867" lon="5.553515525534749">
        <ele>88.579999999999998</ele>
        <time>2016-04-23T11:57:54Z</time>
      </trkpt>
      <trkpt lat="50.9600795712322" lon="5.553303631022573">
        <ele>88.579999999999998</ele>
        <time>2016-04-23T11:58:08Z</time>
      </trkpt>
      <trkpt lat="50.959963649511337" lon="5.553152840584517">
        <ele>88.579999999999998</ele>
        <time>2016-04-23T11:58:18Z</time>
      </trkpt>
      <trkpt lat="50.959895672276616" lon="5.553070027381182">
        <ele>88.579999999999998</ele>
        <time>2016-04-23T11:58:23Z</time>
      </trkpt>
      <trkpt lat="50.959518738090992" lon="5.552594102919102">
        <ele>89.060000000000002</ele>
        <time>2016-04-23T11:58:56Z</time>
      </trkpt>
      <trkpt lat="50.959413293749094" lon="5.552387489005923">
        <ele>88.099999999999994</ele>
        <time>2016-04-23T11:59:13Z</time>
      </trkpt>
      <trkpt lat="50.959386052563787" lon="5.552324708551168">
        <ele>88.099999999999994</ele>
        <time>2016-04-23T11:59:18Z</time>
      </trkpt>
      <trkpt lat="50.95936912111938" lon="5.552254971116781">
        <ele>88.099999999999994</ele>
        <time>2016-04-23T11:59:32Z</time>
      </trkpt>
      <trkpt lat="50.959350680932403" lon="5.552206272259355">
        <ele>88.099999999999994</ele>
        <time>2016-04-23T11:59:36Z</time>
      </trkpt>
      <trkpt lat="50.959276668727398" lon="5.552059169858694">
        <ele>88.099999999999994</ele>
        <time>2016-04-23T11:59:45Z</time>
      </trkpt>
      <trkpt lat="50.959216989576817" lon="5.551924807950854">
        <ele>88.579999999999998</ele>
        <time>2016-04-23T11:59:55Z</time>
      </trkpt>
      <trkpt lat="50.95921078696847" lon="5.551852053031325">
        <ele>88.099999999999994</ele>
        <time>2016-04-23T11:59:58Z</time>
      </trkpt>
      <trkpt lat="50.959216486662626" lon="5.551769826561213">
        <ele>87.140000000000001</ele>
        <time>2016-04-23T12:00:04Z</time>
      </trkpt>
      <trkpt lat="50.95925378613174" lon="5.551686510443687">
        <ele>85.689999999999998</ele>
        <time>2016-04-23T12:00:09Z</time>
      </trkpt>
      <trkpt lat="50.959263425320387" lon="5.551664046943188">
        <ele>91.939999999999998</ele>
        <time>2016-04-23T12:00:10Z</time>
      </trkpt>
      <trkpt lat="50.95927239395678" lon="5.551638482138515">
        <ele>87.140000000000001</ele>
        <time>2016-04-23T12:00:11Z</time>
      </trkpt>
      <trkpt lat="50.959544219076633" lon="5.551078151911497">
        <ele>88.099999999999994</ele>
        <time>2016-04-23T12:00:40Z</time>
      </trkpt>
      <trkpt lat="50.959834400564432" lon="5.550488233566284">
        <ele>87.620000000000005</ele>
        <time>2016-04-23T12:01:10Z</time>
      </trkpt>
      <trkpt lat="50.959980329498649" lon="5.550174750387669">
        <ele>88.099999999999994</ele>
        <time>2016-04-23T12:01:24Z</time>
      </trkpt>
      <trkpt lat="50.96012944355607" lon="5.549892950803042">
        <ele>87.140000000000001</ele>
        <time>2016-04-23T12:01:39Z</time>
      </trkpt>
      <trkpt lat="50.960149392485619" lon="5.549866128712893">
        <ele>87.140000000000001</ele>
        <time>2016-04-23T12:01:41Z</time>
      </trkpt>
      <trkpt lat="50.960202366113663" lon="5.54978683590889">
        <ele>87.140000000000001</ele>
        <time>2016-04-23T12:01:46Z</time>
      </trkpt>
      <trkpt lat="50.960310492664576" lon="5.549582149833441">
        <ele>86.659999999999997</ele>
        <time>2016-04-23T12:02:01Z</time>
      </trkpt>
      <trkpt lat="50.960682900622487" lon="5.548837585374713">
        <ele>86.180000000000007</ele>
        <time>2016-04-23T12:02:41Z</time>
      </trkpt>
      <trkpt lat="50.960733275860548" lon="5.548728033900261">
        <ele>86.180000000000007</ele>
        <time>2016-04-23T12:02:50Z</time>
      </trkpt>
      <trkpt lat="50.960789266973734" lon="5.548450089991093">
        <ele>85.689999999999998</ele>
        <time>2016-04-23T12:03:02Z</time>
      </trkpt>
      <trkpt lat="50.96086286008358" lon="5.548181449994445">
        <ele>86.180000000000007</ele>
        <time>2016-04-23T12:03:13Z</time>
      </trkpt>
      <trkpt lat="50.960875349119306" lon="5.548098552972078">
        <ele>85.689999999999998</ele>
        <time>2016-04-23T12:03:16Z</time>
      </trkpt>
      <trkpt lat="50.960902841761708" lon="5.547892777249217">
        <ele>85.209999999999994</ele>
        <time>2016-04-23T12:03:26Z</time>
      </trkpt>
      <trkpt lat="50.960985403507948" lon="5.54765397682786">
        <ele>85.209999999999994</ele>
        <time>2016-04-23T12:03:37Z</time>
      </trkpt>
      <trkpt lat="50.960995964705944" lon="5.547483153641224">
        <ele>85.209999999999994</ele>
        <time>2016-04-23T12:03:45Z</time>
      </trkpt>
      <trkpt lat="50.961020607501268" lon="5.547248544171453">
        <ele>85.689999999999998</ele>
        <time>2016-04-23T12:03:59Z</time>
      </trkpt>
      <trkpt lat="50.960850203409791" lon="5.547179058194161">
        <ele>85.209999999999994</ele>
        <time>2016-04-23T12:04:14Z</time>
      </trkpt>
      <trkpt lat="50.960646104067564" lon="5.547021897509694">
        <ele>85.209999999999994</ele>
        <time>2016-04-23T12:04:30Z</time>
      </trkpt>
      <trkpt lat="50.959250181913376" lon="5.546589894220233">
        <ele>86.659999999999997</ele>
        <time>2016-04-23T12:04:55Z</time>
      </trkpt>
      <trkpt lat="50.959218163043261" lon="5.546598779037595">
        <ele>87.140000000000001</ele>
        <time>2016-04-23T12:04:56Z</time>
      </trkpt>
      <trkpt lat="50.959183713421226" lon="5.546597689390183">
        <ele>87.140000000000001</ele>
        <time>2016-04-23T12:04:57Z</time>
      </trkpt>
      <trkpt lat="50.959012303501368" lon="5.54655066691339">
        <ele>87.140000000000001</ele>
        <time>2016-04-23T12:05:01Z</time>
      </trkpt>
      <trkpt lat="50.958711393177509" lon="5.546420915052295">
        <ele>87.620000000000005</ele>
        <time>2016-04-23T12:05:06Z</time>
      </trkpt>
      <trkpt lat="50.958344014361501" lon="5.546259982511401">
        <ele>87.620000000000005</ele>
        <time>2016-04-23T12:05:15Z</time>
      </trkpt>
      <trkpt lat="50.958312582224607" lon="5.546251181513071">
        <ele>87.620000000000005</ele>
        <time>2016-04-23T12:05:17Z</time>
      </trkpt>
      <trkpt lat="50.958300931379199" lon="5.546252774074674">
        <ele>87.620000000000005</ele>
        <time>2016-04-23T12:05:18Z</time>
      </trkpt>
      <trkpt lat="50.958286514505744" lon="5.546255707740784">
        <ele>87.620000000000005</ele>
        <time>2016-04-23T12:05:19Z</time>
      </trkpt>
      <trkpt lat="50.957924835383892" lon="5.546190999448299">
        <ele>86.659999999999997</ele>
        <time>2016-04-23T12:05:28Z</time>
      </trkpt>
      <trkpt lat="50.957866245880723" lon="5.546171804890037">
        <ele>87.620000000000005</ele>
        <time>2016-04-23T12:05:29Z</time>
      </trkpt>
      <trkpt lat="50.957807824015617" lon="5.54614900611341">
        <ele>87.620000000000005</ele>
        <time>2016-04-23T12:05:30Z</time>
      </trkpt>
      <trkpt lat="50.957743283361197" lon="5.546130985021591">
        <ele>87.140000000000001</ele>
        <time>2016-04-23T12:05:31Z</time>
      </trkpt>
      <trkpt lat="50.957604311406612" lon="5.546085136011243">
        <ele>87.140000000000001</ele>
        <time>2016-04-23T12:05:33Z</time>
      </trkpt>
      <trkpt lat="50.957530383020639" lon="5.546055296435952">
        <ele>86.659999999999997</ele>
        <time>2016-04-23T12:05:34Z</time>
      </trkpt>
      <trkpt lat="50.957235842943192" lon="5.545980948954821">
        <ele>87.140000000000001</ele>
        <time>2016-04-23T12:05:38Z</time>
      </trkpt>
      <trkpt lat="50.956431347876787" lon="5.54573317989707">
        <ele>87.140000000000001</ele>
        <time>2016-04-23T12:05:51Z</time>
      </trkpt>
      <trkpt lat="50.956315258517861" lon="5.545664280653">
        <ele>86.659999999999997</ele>
        <time>2016-04-23T12:05:53Z</time>
      </trkpt>
      <trkpt lat="50.956252561882138" lon="5.545654054731131">
        <ele>86.659999999999997</ele>
        <time>2016-04-23T12:05:54Z</time>
      </trkpt>
      <trkpt lat="50.956190200522542" lon="5.545655395835638">
        <ele>86.659999999999997</ele>
        <time>2016-04-23T12:05:55Z</time>
      </trkpt>
      <trkpt lat="50.956123229116201" lon="5.545659251511097">
        <ele>86.180000000000007</ele>
        <time>2016-04-23T12:05:56Z</time>
      </trkpt>
      <trkpt lat="50.95605525188148" lon="5.54565648548305">
        <ele>86.180000000000007</ele>
        <time>2016-04-23T12:05:57Z</time>
      </trkpt>
      <trkpt lat="50.955932624638081" lon="5.545665202662349">
        <ele>85.689999999999998</ele>
        <time>2016-04-23T12:05:59Z</time>
      </trkpt>
      <trkpt lat="50.955553846433759" lon="5.545650031417608">
        <ele>86.659999999999997</ele>
        <time>2016-04-23T12:07:40Z</time>
      </trkpt>
      <trkpt lat="50.955388806760311" lon="5.545595046132803">
        <ele>86.659999999999997</ele>
        <time>2016-04-23T12:07:52Z</time>
      </trkpt>
      <trkpt lat="50.955361984670162" lon="5.545402765274048">
        <ele>85.689999999999998</ele>
        <time>2016-04-23T12:08:06Z</time>
      </trkpt>
      <trkpt lat="50.955379502847791" lon="5.545286843553186">
        <ele>85.689999999999998</ele>
        <time>2016-04-23T12:08:13Z</time>
      </trkpt>
      <trkpt lat="50.955445384606719" lon="5.545048546046019">
        <ele>86.180000000000007</ele>
        <time>2016-04-23T12:09:23Z</time>
      </trkpt>
      <trkpt lat="50.955448066815734" lon="5.545020718127489">
        <ele>85.689999999999998</ele>
        <time>2016-04-23T12:09:45Z</time>
      </trkpt>
      <trkpt lat="50.955594666302204" lon="5.544353602454066">
        <ele>85.689999999999998</ele>
        <time>2016-04-23T12:10:16Z</time>
      </trkpt>
      <trkpt lat="50.955715617164969" lon="5.543816741555929">
        <ele>85.689999999999998</ele>
        <time>2016-04-23T12:10:41Z</time>
      </trkpt>
      <trkpt lat="50.955746714025736" lon="5.543605014681816">
        <ele>85.689999999999998</ele>
        <time>2016-04-23T12:10:51Z</time>
      </trkpt>
      <trkpt lat="50.955775966867805" lon="5.54347668774426">
        <ele>87.140000000000001</ele>
        <time>2016-04-23T12:10:57Z</time>
      </trkpt>
      <trkpt lat="50.955785773694515" lon="5.543441902846098">
        <ele>85.209999999999994</ele>
        <time>2016-04-23T12:10:58Z</time>
      </trkpt>
      <trkpt lat="50.955809075385332" lon="5.543309217318893">
        <ele>88.579999999999998</ele>
        <time>2016-04-23T12:11:03Z</time>
      </trkpt>
      <trkpt lat="50.955887949094176" lon="5.542923649773002">
        <ele>89.540000000000006</ele>
        <time>2016-04-23T12:11:21Z</time>
      </trkpt>
      <trkpt lat="50.955894235521555" lon="5.542898671701551">
        <ele>86.180000000000007</ele>
        <time>2016-04-23T12:11:22Z</time>
      </trkpt>
      <trkpt lat="50.955905383452773" lon="5.542853828519583">
        <ele>82.810000000000002</ele>
        <time>2016-04-23T12:11:24Z</time>
      </trkpt>
      <trkpt lat="50.95591401681304" lon="5.54280387237668">
        <ele>86.659999999999997</ele>
        <time>2016-04-23T12:11:26Z</time>
      </trkpt>
      <trkpt lat="50.956244012340903" lon="5.541247017681599">
        <ele>85.689999999999998</ele>
        <time>2016-04-23T12:12:31Z</time>
      </trkpt>
      <trkpt lat="50.956272594630718" lon="5.54100763052702">
        <ele>84.25</ele>
        <time>2016-04-23T12:12:42Z</time>
      </trkpt>
      <trkpt lat="50.956277120858431" lon="5.540978629142046">
        <ele>85.209999999999994</ele>
        <time>2016-04-23T12:12:43Z</time>
      </trkpt>
      <trkpt lat="50.956284329295158" lon="5.540947783738375">
        <ele>85.689999999999998</ele>
        <time>2016-04-23T12:12:44Z</time>
      </trkpt>
      <trkpt lat="50.956291118636727" lon="5.540919452905655">
        <ele>84.730000000000004</ele>
        <time>2016-04-23T12:12:45Z</time>
      </trkpt>
      <trkpt lat="50.956341326236725" lon="5.540697583928704">
        <ele>84.730000000000004</ele>
        <time>2016-04-23T12:12:53Z</time>
      </trkpt>
      <trkpt lat="50.956358341500163" lon="5.540604712441564">
        <ele>88.099999999999994</ele>
        <time>2016-04-23T12:12:54Z</time>
      </trkpt>
      <trkpt lat="50.956393545493484" lon="5.540525838732719">
        <ele>86.659999999999997</ele>
        <time>2016-04-23T12:13:00Z</time>
      </trkpt>
      <trkpt lat="50.956516843289137" lon="5.540267508476973">
        <ele>85.209999999999994</ele>
        <time>2016-04-23T12:13:14Z</time>
      </trkpt>
      <trkpt lat="50.956553723663092" lon="5.540178157389164">
        <ele>85.209999999999994</ele>
        <time>2016-04-23T12:13:18Z</time>
      </trkpt>
      <trkpt lat="50.956560345366597" lon="5.540120154619217">
        <ele>85.209999999999994</ele>
        <time>2016-04-23T12:13:19Z</time>
      </trkpt>
      <trkpt lat="50.956431431695819" lon="5.539862746372819">
        <ele>85.209999999999994</ele>
        <time>2016-04-23T12:13:31Z</time>
      </trkpt>
      <trkpt lat="50.956421038135886" lon="5.539840115234256">
        <ele>85.209999999999994</ele>
        <time>2016-04-23T12:13:32Z</time>
      </trkpt>
      <trkpt lat="50.95636990852654" lon="5.539719080552459">
        <ele>85.209999999999994</ele>
        <time>2016-04-23T12:13:39Z</time>
      </trkpt>
      <trkpt lat="50.956359934061766" lon="5.539697539061308">
        <ele>85.209999999999994</ele>
        <time>2016-04-23T12:13:40Z</time>
      </trkpt>
      <trkpt lat="50.956348450854421" lon="5.539671806618571">
        <ele>85.209999999999994</ele>
        <time>2016-04-23T12:13:41Z</time>
      </trkpt>
      <trkpt lat="50.956228338181973" lon="5.539406100288034">
        <ele>85.209999999999994</ele>
        <time>2016-04-23T12:13:50Z</time>
      </trkpt>
      <trkpt lat="50.955760041251779" lon="5.538236573338509">
        <ele>86.180000000000007</ele>
        <time>2016-04-23T12:14:21Z</time>
      </trkpt>
      <trkpt lat="50.955671025440097" lon="5.538008417934179">
        <ele>86.180000000000007</ele>
        <time>2016-04-23T12:14:32Z</time>
      </trkpt>
      <trkpt lat="50.955631546676159" lon="5.537856370210648">
        <ele>86.659999999999997</ele>
        <time>2016-04-23T12:14:37Z</time>
      </trkpt>
      <trkpt lat="50.955624422058463" lon="5.537840276956558">
        <ele>86.659999999999997</ele>
        <time>2016-04-23T12:14:38Z</time>
      </trkpt>
      <trkpt lat="50.955545799806714" lon="5.537639111280441">
        <ele>87.140000000000001</ele>
        <time>2016-04-23T12:14:49Z</time>
      </trkpt>
      <trkpt lat="50.955493832007051" lon="5.537536684423685">
        <ele>86.659999999999997</ele>
        <time>2016-04-23T12:14:54Z</time>
      </trkpt>
      <trkpt lat="50.955475056543946" lon="5.537500558421016">
        <ele>87.140000000000001</ele>
        <time>2016-04-23T12:14:56Z</time>
      </trkpt>
      <trkpt lat="50.955333653837442" lon="5.537180788815022">
        <ele>86.659999999999997</ele>
        <time>2016-04-23T12:15:15Z</time>
      </trkpt>
      <trkpt lat="50.955326026305556" lon="5.537162935361266">
        <ele>86.659999999999997</ele>
        <time>2016-04-23T12:15:16Z</time>
      </trkpt>
      <trkpt lat="50.955286379903555" lon="5.537042822688818">
        <ele>86.659999999999997</ele>
        <time>2016-04-23T12:15:24Z</time>
      </trkpt>
      <trkpt lat="50.955257378518581" lon="5.536973923444748">
        <ele>86.659999999999997</ele>
        <time>2016-04-23T12:15:28Z</time>
      </trkpt>
      <trkpt lat="50.955202896147966" lon="5.536805614829063">
        <ele>86.659999999999997</ele>
        <time>2016-04-23T12:15:35Z</time>
      </trkpt>
      <trkpt lat="50.955012375488877" lon="5.536156017333269">
        <ele>86.180000000000007</ele>
        <time>2016-04-23T12:16:01Z</time>
      </trkpt>
      <trkpt lat="50.954924365505576" lon="5.535753685981035">
        <ele>85.689999999999998</ele>
        <time>2016-04-23T12:16:18Z</time>
      </trkpt>
      <trkpt lat="50.954883545637131" lon="5.535591831430793">
        <ele>85.689999999999998</ele>
        <time>2016-04-23T12:16:32Z</time>
      </trkpt>
      <trkpt lat="50.955269867554307" lon="5.535404663532972">
        <ele>86.180000000000007</ele>
        <time>2016-04-23T12:17:28Z</time>
      </trkpt>
      <trkpt lat="50.955517552793026" lon="5.535298883914948">
        <ele>85.689999999999998</ele>
        <time>2016-04-23T12:17:45Z</time>
      </trkpt>
      <trkpt lat="50.955664068460464" lon="5.535211460664868">
        <ele>85.689999999999998</ele>
        <time>2016-04-23T12:17:54Z</time>
      </trkpt>
      <trkpt lat="50.955844949930906" lon="5.535143483430147">
        <ele>85.209999999999994</ele>
        <time>2016-04-23T12:18:09Z</time>
      </trkpt>
      <trkpt lat="50.955998841673136" lon="5.535076092928648">
        <ele>84.730000000000004</ele>
        <time>2016-04-23T12:18:18Z</time>
      </trkpt>
      <trkpt lat="50.956145776435733" lon="5.535034937784076">
        <ele>84.730000000000004</ele>
        <time>2016-04-23T12:18:28Z</time>
      </trkpt>
      <trkpt lat="50.956405615434051" lon="5.534962099045515">
        <ele>83.290000000000006</ele>
        <time>2016-04-23T12:18:52Z</time>
      </trkpt>
      <trkpt lat="50.956375692039728" lon="5.534835699945688">
        <ele>81.849999999999994</ele>
        <time>2016-04-23T12:19:07Z</time>
      </trkpt>
      <trkpt lat="50.956527823582292" lon="5.534513164311647">
        <ele>79.930000000000007</ele>
        <time>2016-04-23T12:19:34Z</time>
      </trkpt>
      <trkpt lat="50.956551963463426" lon="5.534171853214502">
        <ele>78.480000000000004</ele>
        <time>2016-04-23T12:19:47Z</time>
      </trkpt>
      <trkpt lat="50.956611139699817" lon="5.534017458558083">
        <ele>77.040000000000006</ele>
        <time>2016-04-23T12:19:59Z</time>
      </trkpt>
      <trkpt lat="50.956635531038046" lon="5.533926850184798">
        <ele>76.560000000000002</ele>
        <time>2016-04-23T12:20:03Z</time>
      </trkpt>
      <trkpt lat="50.956711806356907" lon="5.533664412796497">
        <ele>76.079999999999998</ele>
        <time>2016-04-23T12:20:14Z</time>
      </trkpt>
      <trkpt lat="50.956781459972262" lon="5.533493924885988">
        <ele>76.079999999999998</ele>
        <time>2016-04-23T12:20:25Z</time>
      </trkpt>
      <trkpt lat="50.956893023103476" lon="5.533481603488326">
        <ele>75.599999999999994</ele>
        <time>2016-04-23T12:20:38Z</time>
      </trkpt>
      <trkpt lat="50.956996958702803" lon="5.533477747812867">
        <ele>75.599999999999994</ele>
        <time>2016-04-23T12:20:45Z</time>
      </trkpt>
      <trkpt lat="50.957165518775582" lon="5.533467018976808">
        <ele>76.079999999999998</ele>
        <time>2016-04-23T12:21:00Z</time>
      </trkpt>
      <trkpt lat="50.957274483516812" lon="5.533366017043591">
        <ele>76.079999999999998</ele>
        <time>2016-04-23T12:21:11Z</time>
      </trkpt>
      <trkpt lat="50.957241291180253" lon="5.53309528157115">
        <ele>76.079999999999998</ele>
        <time>2016-04-23T12:21:23Z</time>
      </trkpt>
      <trkpt lat="50.957212541252375" lon="5.532905347645283">
        <ele>75.599999999999994</ele>
        <time>2016-04-23T12:21:32Z</time>
      </trkpt>
    </trkseg>
  </trk>

</gpx>